<?xml version="1.0" encoding="UTF-8" standalone="no" ?>
<gpx xmlns="http://www.topografix.com/GPX/1/1" xmlns:xsi="http://www.w3.org/2001/XMLSchema-instance" xsi:schemaLocation="http://www.topografix.com/GPX/1/1 http://www.topografix.com/GPX/1/1/gpx.xsd" version="1.1" creator="VisuGPX - https://www.visugpx.com">
  <metadata>
    <name>durance cyclo</name>
    <desc><![CDATA[Quelques circuits le long de la durance]]></desc>
  </metadata>
  <trk>
    <name><![CDATA[N°64 Monetier / Lazer /Upaix /le Poet]]></name>
    <trkseg>
      <trkpt lat="44.38534" lon="5.94223">
        <ele>442.3438721</ele>
        <time>2016-02-21T09:57:05Z</time>
      </trkpt>
      <trkpt lat="44.38533" lon="5.94223">
        <ele>448.5924072</ele>
        <time>2016-02-21T09:57:13Z</time>
      </trkpt>
      <trkpt lat="44.38533" lon="5.94223">
        <ele>451.9570313</ele>
        <time>2016-02-21T09:57:14Z</time>
      </trkpt>
      <trkpt lat="44.38533" lon="5.94223">
        <ele>455.3215332</ele>
        <time>2016-02-21T09:57:15Z</time>
      </trkpt>
      <trkpt lat="44.38533" lon="5.94223">
        <ele>458.6861572</ele>
        <time>2016-02-21T09:57:16Z</time>
      </trkpt>
      <trkpt lat="44.38533" lon="5.94223">
        <ele>462.5313721</ele>
        <time>2016-02-21T09:57:17Z</time>
      </trkpt>
      <trkpt lat="44.38533" lon="5.94223">
        <ele>465.4155273</ele>
        <time>2016-02-21T09:57:18Z</time>
      </trkpt>
      <trkpt lat="44.38533" lon="5.94222">
        <ele>470.7026367</ele>
        <time>2016-02-21T09:57:20Z</time>
      </trkpt>
      <trkpt lat="44.38533" lon="5.94222">
        <ele>476.4705811</ele>
        <time>2016-02-21T09:57:22Z</time>
      </trkpt>
      <trkpt lat="44.38533" lon="5.94223">
        <ele>479.3544922</ele>
        <time>2016-02-21T09:57:23Z</time>
      </trkpt>
      <trkpt lat="44.38533" lon="5.94223">
        <ele>484.6418457</ele>
        <time>2016-02-21T09:57:25Z</time>
      </trkpt>
      <trkpt lat="44.38533" lon="5.94223">
        <ele>488.9677734</ele>
        <time>2016-02-21T09:57:27Z</time>
      </trkpt>
      <trkpt lat="44.38532" lon="5.94222">
        <ele>493.774292</ele>
        <time>2016-02-21T09:57:29Z</time>
      </trkpt>
      <trkpt lat="44.38532" lon="5.94223">
        <ele>498.1003418</ele>
        <time>2016-02-21T09:57:31Z</time>
      </trkpt>
      <trkpt lat="44.38532" lon="5.94223">
        <ele>502.4261475</ele>
        <time>2016-02-21T09:57:33Z</time>
      </trkpt>
      <trkpt lat="44.38531" lon="5.94223">
        <ele>506.7520752</ele>
        <time>2016-02-21T09:57:36Z</time>
      </trkpt>
      <trkpt lat="44.38531" lon="5.94224">
        <ele>511.0780029</ele>
        <time>2016-02-21T09:57:39Z</time>
      </trkpt>
      <trkpt lat="44.38531" lon="5.94224">
        <ele>514.9233398</ele>
        <time>2016-02-21T09:57:41Z</time>
      </trkpt>
      <trkpt lat="44.38531" lon="5.94224">
        <ele>519.2492676</ele>
        <time>2016-02-21T09:57:44Z</time>
      </trkpt>
      <trkpt lat="44.38531" lon="5.94224">
        <ele>523.0946045</ele>
        <time>2016-02-21T09:57:47Z</time>
      </trkpt>
      <trkpt lat="44.38531" lon="5.94224">
        <ele>526.4591064</ele>
        <time>2016-02-21T09:57:50Z</time>
      </trkpt>
      <trkpt lat="44.38531" lon="5.94224">
        <ele>530.3044434</ele>
        <time>2016-02-21T09:57:54Z</time>
      </trkpt>
      <trkpt lat="44.38531" lon="5.94224">
        <ele>533.6689453</ele>
        <time>2016-02-21T09:57:58Z</time>
      </trkpt>
      <trkpt lat="44.38531" lon="5.94224">
        <ele>537.0336914</ele>
        <time>2016-02-21T09:58:01Z</time>
      </trkpt>
      <trkpt lat="44.38531" lon="5.94224">
        <ele>537.9949951</ele>
        <time>2016-02-21T09:58:03Z</time>
      </trkpt>
      <trkpt lat="44.38531" lon="5.94224">
        <ele>540.8789063</ele>
        <time>2016-02-21T09:58:07Z</time>
      </trkpt>
      <trkpt lat="44.38531" lon="5.94224">
        <ele>541.3594971</ele>
        <time>2016-02-21T09:58:08Z</time>
      </trkpt>
      <trkpt lat="44.38531" lon="5.94224">
        <ele>544.2436523</ele>
        <time>2016-02-21T09:58:14Z</time>
      </trkpt>
      <trkpt lat="44.38531" lon="5.94224">
        <ele>547.6081543</ele>
        <time>2016-02-21T09:58:19Z</time>
      </trkpt>
      <trkpt lat="44.38531" lon="5.94223">
        <ele>550.9726563</ele>
        <time>2016-02-21T09:58:28Z</time>
      </trkpt>
      <trkpt lat="44.38531" lon="5.94223">
        <ele>554.3374023</ele>
        <time>2016-02-21T09:58:42Z</time>
      </trkpt>
      <trkpt lat="44.38531" lon="5.94223">
        <ele>557.2214355</ele>
        <time>2016-02-21T09:59:04Z</time>
      </trkpt>
      <trkpt lat="44.3853" lon="5.94223">
        <ele>558.1828613</ele>
        <time>2016-02-21T09:59:34Z</time>
      </trkpt>
      <trkpt lat="44.38531" lon="5.94223">
        <ele>558.1828613</ele>
        <time>2016-02-21T10:00:02Z</time>
      </trkpt>
      <trkpt lat="44.38529" lon="5.94229">
        <ele>558.1828613</ele>
        <time>2016-02-21T10:00:15Z</time>
      </trkpt>
      <trkpt lat="44.38528" lon="5.94229">
        <ele>557.7021484</ele>
        <time>2016-02-21T10:00:17Z</time>
      </trkpt>
      <trkpt lat="44.38516" lon="5.94232">
        <ele>557.7021484</ele>
        <time>2016-02-21T10:00:22Z</time>
      </trkpt>
      <trkpt lat="44.38506" lon="5.94236">
        <ele>557.7021484</ele>
        <time>2016-02-21T10:00:27Z</time>
      </trkpt>
      <trkpt lat="44.385" lon="5.94237">
        <ele>557.7021484</ele>
        <time>2016-02-21T10:00:30Z</time>
      </trkpt>
      <trkpt lat="44.38497" lon="5.94224">
        <ele>557.7021484</ele>
        <time>2016-02-21T10:00:36Z</time>
      </trkpt>
      <trkpt lat="44.38499" lon="5.94217">
        <ele>558.1828613</ele>
        <time>2016-02-21T10:00:40Z</time>
      </trkpt>
      <trkpt lat="44.38503" lon="5.94206">
        <ele>558.1828613</ele>
        <time>2016-02-21T10:00:44Z</time>
      </trkpt>
      <trkpt lat="44.38506" lon="5.94199">
        <ele>558.1828613</ele>
        <time>2016-02-21T10:00:47Z</time>
      </trkpt>
      <trkpt lat="44.38509" lon="5.94129">
        <ele>557.7021484</ele>
        <time>2016-02-21T10:00:59Z</time>
      </trkpt>
      <trkpt lat="44.3852" lon="5.94044">
        <ele>557.2214355</ele>
        <time>2016-02-21T10:01:16Z</time>
      </trkpt>
      <trkpt lat="44.38516" lon="5.94009">
        <ele>556.7407227</ele>
        <time>2016-02-21T10:01:21Z</time>
      </trkpt>
      <trkpt lat="44.38514" lon="5.93976">
        <ele>556.7407227</ele>
        <time>2016-02-21T10:01:26Z</time>
      </trkpt>
      <trkpt lat="44.38524" lon="5.93946">
        <ele>556.2600098</ele>
        <time>2016-02-21T10:01:32Z</time>
      </trkpt>
      <trkpt lat="44.38555" lon="5.93936">
        <ele>558.6633301</ele>
        <time>2016-02-21T10:01:47Z</time>
      </trkpt>
      <trkpt lat="44.38588" lon="5.93929">
        <ele>561.5473633</ele>
        <time>2016-02-21T10:02:05Z</time>
      </trkpt>
      <trkpt lat="44.3862" lon="5.93922">
        <ele>563.9504395</ele>
        <time>2016-02-21T10:02:21Z</time>
      </trkpt>
      <trkpt lat="44.38645" lon="5.93919">
        <ele>565.3925781</ele>
        <time>2016-02-21T10:02:33Z</time>
      </trkpt>
      <trkpt lat="44.38671" lon="5.93915">
        <ele>567.7956543</ele>
        <time>2016-02-21T10:02:47Z</time>
      </trkpt>
      <trkpt lat="44.3869" lon="5.93905">
        <ele>569.7185059</ele>
        <time>2016-02-21T10:02:59Z</time>
      </trkpt>
      <trkpt lat="44.38702" lon="5.93889">
        <ele>570.6796875</ele>
        <time>2016-02-21T10:03:09Z</time>
      </trkpt>
      <trkpt lat="44.38704" lon="5.93821">
        <ele>572.1218262</ele>
        <time>2016-02-21T10:03:32Z</time>
      </trkpt>
      <trkpt lat="44.38702" lon="5.9381">
        <ele>573.5639648</ele>
        <time>2016-02-21T10:03:35Z</time>
      </trkpt>
      <trkpt lat="44.38701" lon="5.93805">
        <ele>573.5639648</ele>
        <time>2016-02-21T10:03:37Z</time>
      </trkpt>
      <trkpt lat="44.38702" lon="5.93798">
        <ele>571.6408691</ele>
        <time>2016-02-21T10:03:40Z</time>
      </trkpt>
      <trkpt lat="44.38702" lon="5.93793">
        <ele>573.5639648</ele>
        <time>2016-02-21T10:03:42Z</time>
      </trkpt>
      <trkpt lat="44.38706" lon="5.93759">
        <ele>575.4863281</ele>
        <time>2016-02-21T10:03:55Z</time>
      </trkpt>
      <trkpt lat="44.38708" lon="5.93704">
        <ele>577.4091797</ele>
        <time>2016-02-21T10:04:12Z</time>
      </trkpt>
      <trkpt lat="44.38712" lon="5.9365">
        <ele>578.3703613</ele>
        <time>2016-02-21T10:04:27Z</time>
      </trkpt>
      <trkpt lat="44.38712" lon="5.93595">
        <ele>579.8122559</ele>
        <time>2016-02-21T10:04:42Z</time>
      </trkpt>
      <trkpt lat="44.38695" lon="5.93581">
        <ele>579.331543</ele>
        <time>2016-02-21T10:04:48Z</time>
      </trkpt>
      <trkpt lat="44.38613" lon="5.93529">
        <ele>577.8896484</ele>
        <time>2016-02-21T10:05:04Z</time>
      </trkpt>
      <trkpt lat="44.38559" lon="5.93487">
        <ele>574.5251465</ele>
        <time>2016-02-21T10:05:13Z</time>
      </trkpt>
      <trkpt lat="44.38553" lon="5.93483">
        <ele>574.5251465</ele>
        <time>2016-02-21T10:05:14Z</time>
      </trkpt>
      <trkpt lat="44.38466" lon="5.93419">
        <ele>573.083252</ele>
        <time>2016-02-21T10:05:31Z</time>
      </trkpt>
      <trkpt lat="44.38423" lon="5.9339">
        <ele>572.1218262</ele>
        <time>2016-02-21T10:05:42Z</time>
      </trkpt>
      <trkpt lat="44.38352" lon="5.93339">
        <ele>573.083252</ele>
        <time>2016-02-21T10:06:02Z</time>
      </trkpt>
      <trkpt lat="44.38279" lon="5.93292">
        <ele>574.0444336</ele>
        <time>2016-02-21T10:06:24Z</time>
      </trkpt>
      <trkpt lat="44.38189" lon="5.93229">
        <ele>575.0058594</ele>
        <time>2016-02-21T10:06:52Z</time>
      </trkpt>
      <trkpt lat="44.38109" lon="5.93173">
        <ele>575.0058594</ele>
        <time>2016-02-21T10:07:15Z</time>
      </trkpt>
      <trkpt lat="44.38099" lon="5.93148">
        <ele>575.4863281</ele>
        <time>2016-02-21T10:07:20Z</time>
      </trkpt>
      <trkpt lat="44.38064" lon="5.93078">
        <ele>575.0058594</ele>
        <time>2016-02-21T10:07:37Z</time>
      </trkpt>
      <trkpt lat="44.38014" lon="5.93">
        <ele>576.4477539</ele>
        <time>2016-02-21T10:07:59Z</time>
      </trkpt>
      <trkpt lat="44.37967" lon="5.92929">
        <ele>577.4091797</ele>
        <time>2016-02-21T10:08:19Z</time>
      </trkpt>
      <trkpt lat="44.37942" lon="5.92834">
        <ele>575.967041</ele>
        <time>2016-02-21T10:08:35Z</time>
      </trkpt>
      <trkpt lat="44.37907" lon="5.92781">
        <ele>575.4863281</ele>
        <time>2016-02-21T10:08:49Z</time>
      </trkpt>
      <trkpt lat="44.37876" lon="5.9276">
        <ele>577.4091797</ele>
        <time>2016-02-21T10:09:06Z</time>
      </trkpt>
      <trkpt lat="44.3787" lon="5.92757">
        <ele>578.3703613</ele>
        <time>2016-02-21T10:09:09Z</time>
      </trkpt>
      <trkpt lat="44.37843" lon="5.92717">
        <ele>579.8122559</ele>
        <time>2016-02-21T10:09:26Z</time>
      </trkpt>
      <trkpt lat="44.37809" lon="5.9265">
        <ele>580.2929688</ele>
        <time>2016-02-21T10:09:48Z</time>
      </trkpt>
      <trkpt lat="44.37777" lon="5.92593">
        <ele>581.7348633</ele>
        <time>2016-02-21T10:10:04Z</time>
      </trkpt>
      <trkpt lat="44.37746" lon="5.92505">
        <ele>583.1767578</ele>
        <time>2016-02-21T10:10:27Z</time>
      </trkpt>
      <trkpt lat="44.37721" lon="5.92431">
        <ele>582.6962891</ele>
        <time>2016-02-21T10:10:45Z</time>
      </trkpt>
      <trkpt lat="44.37682" lon="5.92356">
        <ele>582.6962891</ele>
        <time>2016-02-21T10:11:04Z</time>
      </trkpt>
      <trkpt lat="44.37634" lon="5.92296">
        <ele>582.2155762</ele>
        <time>2016-02-21T10:11:20Z</time>
      </trkpt>
      <trkpt lat="44.37579" lon="5.92204">
        <ele>580.7736816</ele>
        <time>2016-02-21T10:11:36Z</time>
      </trkpt>
      <trkpt lat="44.37567" lon="5.92151">
        <ele>579.8122559</ele>
        <time>2016-02-21T10:11:47Z</time>
      </trkpt>
      <trkpt lat="44.3758" lon="5.92098">
        <ele>581.2543945</ele>
        <time>2016-02-21T10:12:01Z</time>
      </trkpt>
      <trkpt lat="44.376" lon="5.92052">
        <ele>583.1767578</ele>
        <time>2016-02-21T10:12:16Z</time>
      </trkpt>
      <trkpt lat="44.37608" lon="5.92015">
        <ele>584.1381836</ele>
        <time>2016-02-21T10:12:29Z</time>
      </trkpt>
      <trkpt lat="44.37608" lon="5.92008">
        <ele>584.1381836</ele>
        <time>2016-02-21T10:12:32Z</time>
      </trkpt>
      <trkpt lat="44.37584" lon="5.91963">
        <ele>586.060791</ele>
        <time>2016-02-21T10:12:48Z</time>
      </trkpt>
      <trkpt lat="44.37567" lon="5.91945">
        <ele>588.4643555</ele>
        <time>2016-02-21T10:13:01Z</time>
      </trkpt>
      <trkpt lat="44.37561" lon="5.91942">
        <ele>589.4255371</ele>
        <time>2016-02-21T10:13:05Z</time>
      </trkpt>
      <trkpt lat="44.3754" lon="5.91923">
        <ele>592.7902832</ele>
        <time>2016-02-21T10:13:19Z</time>
      </trkpt>
      <trkpt lat="44.37531" lon="5.91907">
        <ele>594.2321777</ele>
        <time>2016-02-21T10:13:28Z</time>
      </trkpt>
      <trkpt lat="44.37519" lon="5.9188">
        <ele>596.635498</ele>
        <time>2016-02-21T10:13:42Z</time>
      </trkpt>
      <trkpt lat="44.37508" lon="5.91852">
        <ele>598.0773926</ele>
        <time>2016-02-21T10:13:55Z</time>
      </trkpt>
      <trkpt lat="44.37499" lon="5.91824">
        <ele>599.0385742</ele>
        <time>2016-02-21T10:14:07Z</time>
      </trkpt>
      <trkpt lat="44.37479" lon="5.91787">
        <ele>601.4418945</ele>
        <time>2016-02-21T10:14:25Z</time>
      </trkpt>
      <trkpt lat="44.37462" lon="5.91757">
        <ele>603.364502</ele>
        <time>2016-02-21T10:14:40Z</time>
      </trkpt>
      <trkpt lat="44.37456" lon="5.91726">
        <ele>603.8452148</ele>
        <time>2016-02-21T10:14:52Z</time>
      </trkpt>
      <trkpt lat="44.37449" lon="5.91698">
        <ele>603.8452148</ele>
        <time>2016-02-21T10:15:01Z</time>
      </trkpt>
      <trkpt lat="44.37443" lon="5.91655">
        <ele>604.8066406</ele>
        <time>2016-02-21T10:15:15Z</time>
      </trkpt>
      <trkpt lat="44.3744" lon="5.91633">
        <ele>605.7680664</ele>
        <time>2016-02-21T10:15:25Z</time>
      </trkpt>
      <trkpt lat="44.3744" lon="5.91585">
        <ele>607.2099609</ele>
        <time>2016-02-21T10:15:40Z</time>
      </trkpt>
      <trkpt lat="44.37429" lon="5.91526">
        <ele>609.6132813</ele>
        <time>2016-02-21T10:15:59Z</time>
      </trkpt>
      <trkpt lat="44.37421" lon="5.91497">
        <ele>611.0551758</ele>
        <time>2016-02-21T10:16:10Z</time>
      </trkpt>
      <trkpt lat="44.3742" lon="5.91464">
        <ele>613.4584961</ele>
        <time>2016-02-21T10:16:24Z</time>
      </trkpt>
      <trkpt lat="44.3741" lon="5.91409">
        <ele>615.3811035</ele>
        <time>2016-02-21T10:16:44Z</time>
      </trkpt>
      <trkpt lat="44.37405" lon="5.9137">
        <ele>616.3422852</ele>
        <time>2016-02-21T10:16:59Z</time>
      </trkpt>
      <trkpt lat="44.37398" lon="5.91312">
        <ele>617.7841797</ele>
        <time>2016-02-21T10:17:17Z</time>
      </trkpt>
      <trkpt lat="44.37362" lon="5.91238">
        <ele>615.3811035</ele>
        <time>2016-02-21T10:17:35Z</time>
      </trkpt>
      <trkpt lat="44.37323" lon="5.91166">
        <ele>617.7841797</ele>
        <time>2016-02-21T10:17:59Z</time>
      </trkpt>
      <trkpt lat="44.37314" lon="5.91129">
        <ele>620.668457</ele>
        <time>2016-02-21T10:18:15Z</time>
      </trkpt>
      <trkpt lat="44.37312" lon="5.91089">
        <ele>622.5910645</ele>
        <time>2016-02-21T10:18:30Z</time>
      </trkpt>
      <trkpt lat="44.37296" lon="5.91046">
        <ele>623.5524902</ele>
        <time>2016-02-21T10:18:48Z</time>
      </trkpt>
      <trkpt lat="44.37278" lon="5.90987">
        <ele>625.9555664</ele>
        <time>2016-02-21T10:19:11Z</time>
      </trkpt>
      <trkpt lat="44.37279" lon="5.90972">
        <ele>626.4362793</ele>
        <time>2016-02-21T10:19:18Z</time>
      </trkpt>
      <trkpt lat="44.3728" lon="5.90952">
        <ele>627.8781738</ele>
        <time>2016-02-21T10:19:26Z</time>
      </trkpt>
      <trkpt lat="44.3728" lon="5.90946">
        <ele>627.8781738</ele>
        <time>2016-02-21T10:19:29Z</time>
      </trkpt>
      <trkpt lat="44.37283" lon="5.90908">
        <ele>629.8007813</ele>
        <time>2016-02-21T10:19:43Z</time>
      </trkpt>
      <trkpt lat="44.37287" lon="5.90875">
        <ele>632.2041016</ele>
        <time>2016-02-21T10:19:56Z</time>
      </trkpt>
      <trkpt lat="44.37277" lon="5.90831">
        <ele>633.6459961</ele>
        <time>2016-02-21T10:20:13Z</time>
      </trkpt>
      <trkpt lat="44.37262" lon="5.90796">
        <ele>635.0881348</ele>
        <time>2016-02-21T10:20:28Z</time>
      </trkpt>
      <trkpt lat="44.37229" lon="5.90771">
        <ele>637.972168</ele>
        <time>2016-02-21T10:20:49Z</time>
      </trkpt>
      <trkpt lat="44.37189" lon="5.90755">
        <ele>639.4140625</ele>
        <time>2016-02-21T10:21:08Z</time>
      </trkpt>
      <trkpt lat="44.37193" lon="5.90717">
        <ele>641.8173828</ele>
        <time>2016-02-21T10:21:21Z</time>
      </trkpt>
      <trkpt lat="44.37213" lon="5.90666">
        <ele>641.8173828</ele>
        <time>2016-02-21T10:21:40Z</time>
      </trkpt>
      <trkpt lat="44.3724" lon="5.9064">
        <ele>642.7788086</ele>
        <time>2016-02-21T10:21:55Z</time>
      </trkpt>
      <trkpt lat="44.37259" lon="5.90595">
        <ele>642.7788086</ele>
        <time>2016-02-21T10:22:11Z</time>
      </trkpt>
      <trkpt lat="44.37263" lon="5.90575">
        <ele>642.2980957</ele>
        <time>2016-02-21T10:22:15Z</time>
      </trkpt>
      <trkpt lat="44.37264" lon="5.90539">
        <ele>641.8173828</ele>
        <time>2016-02-21T10:22:20Z</time>
      </trkpt>
      <trkpt lat="44.37273" lon="5.90507">
        <ele>640.3754883</ele>
        <time>2016-02-21T10:22:24Z</time>
      </trkpt>
      <trkpt lat="44.37278" lon="5.9049">
        <ele>639.4140625</ele>
        <time>2016-02-21T10:22:26Z</time>
      </trkpt>
      <trkpt lat="44.37278" lon="5.9045">
        <ele>637.4914551</ele>
        <time>2016-02-21T10:22:30Z</time>
      </trkpt>
      <trkpt lat="44.37277" lon="5.90431">
        <ele>637.0107422</ele>
        <time>2016-02-21T10:22:32Z</time>
      </trkpt>
      <trkpt lat="44.37283" lon="5.90383">
        <ele>634.126709</ele>
        <time>2016-02-21T10:22:37Z</time>
      </trkpt>
      <trkpt lat="44.37317" lon="5.90306">
        <ele>631.7233887</ele>
        <time>2016-02-21T10:22:45Z</time>
      </trkpt>
      <trkpt lat="44.37328" lon="5.9028">
        <ele>629.3200684</ele>
        <time>2016-02-21T10:22:48Z</time>
      </trkpt>
      <trkpt lat="44.37342" lon="5.90246">
        <ele>626.4362793</ele>
        <time>2016-02-21T10:22:53Z</time>
      </trkpt>
      <trkpt lat="44.37366" lon="5.90238">
        <ele>624.9943848</ele>
        <time>2016-02-21T10:22:59Z</time>
      </trkpt>
      <trkpt lat="44.37406" lon="5.90296">
        <ele>620.1877441</ele>
        <time>2016-02-21T10:23:10Z</time>
      </trkpt>
      <trkpt lat="44.3741" lon="5.903">
        <ele>620.1877441</ele>
        <time>2016-02-21T10:23:11Z</time>
      </trkpt>
      <trkpt lat="44.37418" lon="5.90306">
        <ele>624.5136719</ele>
        <time>2016-02-21T10:23:13Z</time>
      </trkpt>
      <trkpt lat="44.37424" lon="5.90307">
        <ele>621.1491699</ele>
        <time>2016-02-21T10:23:15Z</time>
      </trkpt>
      <trkpt lat="44.37426" lon="5.90306">
        <ele>621.1491699</ele>
        <time>2016-02-21T10:23:16Z</time>
      </trkpt>
      <trkpt lat="44.37428" lon="5.90304">
        <ele>621.6296387</ele>
        <time>2016-02-21T10:23:17Z</time>
      </trkpt>
      <trkpt lat="44.37435" lon="5.90295">
        <ele>621.1491699</ele>
        <time>2016-02-21T10:23:28Z</time>
      </trkpt>
      <trkpt lat="44.37435" lon="5.90297">
        <ele>621.6296387</ele>
        <time>2016-02-21T10:24:37Z</time>
      </trkpt>
      <trkpt lat="44.37432" lon="5.90285">
        <ele>621.6296387</ele>
        <time>2016-02-21T10:24:42Z</time>
      </trkpt>
      <trkpt lat="44.37418" lon="5.90266">
        <ele>621.1491699</ele>
        <time>2016-02-21T10:24:47Z</time>
      </trkpt>
      <trkpt lat="44.37405" lon="5.90246">
        <ele>620.668457</ele>
        <time>2016-02-21T10:24:51Z</time>
      </trkpt>
      <trkpt lat="44.37387" lon="5.90222">
        <ele>619.7070313</ele>
        <time>2016-02-21T10:24:55Z</time>
      </trkpt>
      <trkpt lat="44.37357" lon="5.90183">
        <ele>618.7456055</ele>
        <time>2016-02-21T10:25:01Z</time>
      </trkpt>
      <trkpt lat="44.37272" lon="5.90079">
        <ele>616.822998</ele>
        <time>2016-02-21T10:25:15Z</time>
      </trkpt>
      <trkpt lat="44.37237" lon="5.90028">
        <ele>614.9003906</ele>
        <time>2016-02-21T10:25:21Z</time>
      </trkpt>
      <trkpt lat="44.37198" lon="5.89975">
        <ele>612.4970703</ele>
        <time>2016-02-21T10:25:28Z</time>
      </trkpt>
      <trkpt lat="44.37192" lon="5.89966">
        <ele>610.5744629</ele>
        <time>2016-02-21T10:25:30Z</time>
      </trkpt>
      <trkpt lat="44.3719" lon="5.89962">
        <ele>611.0551758</ele>
        <time>2016-02-21T10:25:38Z</time>
      </trkpt>
      <trkpt lat="44.3717" lon="5.8995">
        <ele>610.5744629</ele>
        <time>2016-02-21T10:26:13Z</time>
      </trkpt>
      <trkpt lat="44.37123" lon="5.8995">
        <ele>611.0551758</ele>
        <time>2016-02-21T10:26:26Z</time>
      </trkpt>
      <trkpt lat="44.37096" lon="5.89979">
        <ele>612.9777832</ele>
        <time>2016-02-21T10:26:38Z</time>
      </trkpt>
      <trkpt lat="44.37066" lon="5.90006">
        <ele>614.9003906</ele>
        <time>2016-02-21T10:26:51Z</time>
      </trkpt>
      <trkpt lat="44.37026" lon="5.90009">
        <ele>616.822998</ele>
        <time>2016-02-21T10:27:07Z</time>
      </trkpt>
      <trkpt lat="44.36982" lon="5.89991">
        <ele>615.8618164</ele>
        <time>2016-02-21T10:27:20Z</time>
      </trkpt>
      <trkpt lat="44.36909" lon="5.89947">
        <ele>612.4970703</ele>
        <time>2016-02-21T10:27:32Z</time>
      </trkpt>
      <trkpt lat="44.36902" lon="5.89942">
        <ele>612.4970703</ele>
        <time>2016-02-21T10:27:33Z</time>
      </trkpt>
      <trkpt lat="44.36879" lon="5.89928">
        <ele>612.9777832</ele>
        <time>2016-02-21T10:27:36Z</time>
      </trkpt>
      <trkpt lat="44.36835" lon="5.89886">
        <ele>610.5744629</ele>
        <time>2016-02-21T10:27:42Z</time>
      </trkpt>
      <trkpt lat="44.36822" lon="5.8987">
        <ele>610.5744629</ele>
        <time>2016-02-21T10:27:44Z</time>
      </trkpt>
      <trkpt lat="44.36804" lon="5.89842">
        <ele>610.5744629</ele>
        <time>2016-02-21T10:27:48Z</time>
      </trkpt>
      <trkpt lat="44.36782" lon="5.89778">
        <ele>612.4970703</ele>
        <time>2016-02-21T10:28:01Z</time>
      </trkpt>
      <trkpt lat="44.36762" lon="5.89742">
        <ele>612.4970703</ele>
        <time>2016-02-21T10:28:09Z</time>
      </trkpt>
      <trkpt lat="44.36702" lon="5.89647">
        <ele>611.5358887</ele>
        <time>2016-02-21T10:28:26Z</time>
      </trkpt>
      <trkpt lat="44.36667" lon="5.89593">
        <ele>611.0551758</ele>
        <time>2016-02-21T10:28:35Z</time>
      </trkpt>
      <trkpt lat="44.36631" lon="5.89535">
        <ele>610.09375</ele>
        <time>2016-02-21T10:28:44Z</time>
      </trkpt>
      <trkpt lat="44.36587" lon="5.89468">
        <ele>611.0551758</ele>
        <time>2016-02-21T10:28:59Z</time>
      </trkpt>
      <trkpt lat="44.36576" lon="5.89449">
        <ele>610.5744629</ele>
        <time>2016-02-21T10:29:03Z</time>
      </trkpt>
      <trkpt lat="44.36571" lon="5.89439">
        <ele>611.5358887</ele>
        <time>2016-02-21T10:29:05Z</time>
      </trkpt>
      <trkpt lat="44.36552" lon="5.89334">
        <ele>611.0551758</ele>
        <time>2016-02-21T10:29:21Z</time>
      </trkpt>
      <trkpt lat="44.36536" lon="5.89276">
        <ele>612.0166016</ele>
        <time>2016-02-21T10:29:33Z</time>
      </trkpt>
      <trkpt lat="44.36522" lon="5.89236">
        <ele>614.4196777</ele>
        <time>2016-02-21T10:29:46Z</time>
      </trkpt>
      <trkpt lat="44.36506" lon="5.89192">
        <ele>615.8618164</ele>
        <time>2016-02-21T10:30:00Z</time>
      </trkpt>
      <trkpt lat="44.36487" lon="5.89143">
        <ele>617.3037109</ele>
        <time>2016-02-21T10:30:15Z</time>
      </trkpt>
      <trkpt lat="44.36468" lon="5.89093">
        <ele>618.7456055</ele>
        <time>2016-02-21T10:30:30Z</time>
      </trkpt>
      <trkpt lat="44.36447" lon="5.89035">
        <ele>621.1491699</ele>
        <time>2016-02-21T10:30:49Z</time>
      </trkpt>
      <trkpt lat="44.36422" lon="5.88978">
        <ele>621.6296387</ele>
        <time>2016-02-21T10:31:05Z</time>
      </trkpt>
      <trkpt lat="44.36391" lon="5.88894">
        <ele>622.5910645</ele>
        <time>2016-02-21T10:31:21Z</time>
      </trkpt>
      <trkpt lat="44.36363" lon="5.88824">
        <ele>624.032959</ele>
        <time>2016-02-21T10:31:41Z</time>
      </trkpt>
      <trkpt lat="44.36347" lon="5.88765">
        <ele>625.9555664</ele>
        <time>2016-02-21T10:32:00Z</time>
      </trkpt>
      <trkpt lat="44.36356" lon="5.88703">
        <ele>626.4362793</ele>
        <time>2016-02-21T10:32:16Z</time>
      </trkpt>
      <trkpt lat="44.36367" lon="5.88685">
        <ele>626.4362793</ele>
        <time>2016-02-21T10:32:20Z</time>
      </trkpt>
      <trkpt lat="44.36377" lon="5.88662">
        <ele>626.4362793</ele>
        <time>2016-02-21T10:32:24Z</time>
      </trkpt>
      <trkpt lat="44.36384" lon="5.88634">
        <ele>625.9555664</ele>
        <time>2016-02-21T10:32:29Z</time>
      </trkpt>
      <trkpt lat="44.36386" lon="5.88577">
        <ele>625.9555664</ele>
        <time>2016-02-21T10:32:38Z</time>
      </trkpt>
      <trkpt lat="44.36389" lon="5.88491">
        <ele>626.4362793</ele>
        <time>2016-02-21T10:32:52Z</time>
      </trkpt>
      <trkpt lat="44.36388" lon="5.88471">
        <ele>624.9943848</ele>
        <time>2016-02-21T10:32:54Z</time>
      </trkpt>
      <trkpt lat="44.36381" lon="5.88425">
        <ele>625.4748535</ele>
        <time>2016-02-21T10:32:59Z</time>
      </trkpt>
      <trkpt lat="44.36343" lon="5.88322">
        <ele>624.032959</ele>
        <time>2016-02-21T10:33:12Z</time>
      </trkpt>
      <trkpt lat="44.36331" lon="5.88277">
        <ele>625.9555664</ele>
        <time>2016-02-21T10:33:25Z</time>
      </trkpt>
      <trkpt lat="44.3632" lon="5.88213">
        <ele>627.3977051</ele>
        <time>2016-02-21T10:33:43Z</time>
      </trkpt>
      <trkpt lat="44.36305" lon="5.88153">
        <ele>628.3588867</ele>
        <time>2016-02-21T10:34:00Z</time>
      </trkpt>
      <trkpt lat="44.36293" lon="5.881">
        <ele>628.3588867</ele>
        <time>2016-02-21T10:34:12Z</time>
      </trkpt>
      <trkpt lat="44.36272" lon="5.88033">
        <ele>627.3977051</ele>
        <time>2016-02-21T10:34:27Z</time>
      </trkpt>
      <trkpt lat="44.3626" lon="5.87997">
        <ele>629.3200684</ele>
        <time>2016-02-21T10:34:39Z</time>
      </trkpt>
      <trkpt lat="44.36254" lon="5.8796">
        <ele>631.2429199</ele>
        <time>2016-02-21T10:34:52Z</time>
      </trkpt>
      <trkpt lat="44.3626" lon="5.87904">
        <ele>632.6848145</ele>
        <time>2016-02-21T10:35:09Z</time>
      </trkpt>
      <trkpt lat="44.36255" lon="5.87849">
        <ele>632.6848145</ele>
        <time>2016-02-21T10:35:24Z</time>
      </trkpt>
      <trkpt lat="44.3624" lon="5.87791">
        <ele>633.6459961</ele>
        <time>2016-02-21T10:35:41Z</time>
      </trkpt>
      <trkpt lat="44.3623" lon="5.8773">
        <ele>635.5686035</ele>
        <time>2016-02-21T10:35:59Z</time>
      </trkpt>
      <trkpt lat="44.36233" lon="5.87677">
        <ele>637.0107422</ele>
        <time>2016-02-21T10:36:14Z</time>
      </trkpt>
      <trkpt lat="44.36227" lon="5.87625">
        <ele>639.8947754</ele>
        <time>2016-02-21T10:36:32Z</time>
      </trkpt>
      <trkpt lat="44.36209" lon="5.87567">
        <ele>642.2980957</ele>
        <time>2016-02-21T10:36:52Z</time>
      </trkpt>
      <trkpt lat="44.36204" lon="5.87506">
        <ele>645.1818848</ele>
        <time>2016-02-21T10:37:13Z</time>
      </trkpt>
      <trkpt lat="44.36201" lon="5.87487">
        <ele>645.6625977</ele>
        <time>2016-02-21T10:37:19Z</time>
      </trkpt>
      <trkpt lat="44.36204" lon="5.87468">
        <ele>646.6240234</ele>
        <time>2016-02-21T10:37:25Z</time>
      </trkpt>
      <trkpt lat="44.36203" lon="5.8746">
        <ele>646.6240234</ele>
        <time>2016-02-21T10:37:27Z</time>
      </trkpt>
      <trkpt lat="44.36219" lon="5.874">
        <ele>648.5463867</ele>
        <time>2016-02-21T10:37:46Z</time>
      </trkpt>
      <trkpt lat="44.36212" lon="5.87359">
        <ele>650.949707</ele>
        <time>2016-02-21T10:38:02Z</time>
      </trkpt>
      <trkpt lat="44.3618" lon="5.87319">
        <ele>652.8725586</ele>
        <time>2016-02-21T10:38:21Z</time>
      </trkpt>
      <trkpt lat="44.36172" lon="5.87308">
        <ele>654.3146973</ele>
        <time>2016-02-21T10:38:28Z</time>
      </trkpt>
      <trkpt lat="44.36169" lon="5.87306">
        <ele>654.3146973</ele>
        <time>2016-02-21T10:38:30Z</time>
      </trkpt>
      <trkpt lat="44.36161" lon="5.87297">
        <ele>654.795166</ele>
        <time>2016-02-21T10:38:35Z</time>
      </trkpt>
      <trkpt lat="44.36151" lon="5.87266">
        <ele>656.7177734</ele>
        <time>2016-02-21T10:38:47Z</time>
      </trkpt>
      <trkpt lat="44.36146" lon="5.87232">
        <ele>658.1599121</ele>
        <time>2016-02-21T10:39:00Z</time>
      </trkpt>
      <trkpt lat="44.36139" lon="5.87187">
        <ele>660.5629883</ele>
        <time>2016-02-21T10:39:16Z</time>
      </trkpt>
      <trkpt lat="44.36131" lon="5.87151">
        <ele>662.4855957</ele>
        <time>2016-02-21T10:39:30Z</time>
      </trkpt>
      <trkpt lat="44.36125" lon="5.87124">
        <ele>663.4470215</ele>
        <time>2016-02-21T10:39:42Z</time>
      </trkpt>
      <trkpt lat="44.3612" lon="5.87086">
        <ele>665.3696289</ele>
        <time>2016-02-21T10:39:55Z</time>
      </trkpt>
      <trkpt lat="44.36114" lon="5.87055">
        <ele>666.8115234</ele>
        <time>2016-02-21T10:40:10Z</time>
      </trkpt>
      <trkpt lat="44.36112" lon="5.87045">
        <ele>667.7727051</ele>
        <time>2016-02-21T10:40:14Z</time>
      </trkpt>
      <trkpt lat="44.36099" lon="5.87008">
        <ele>669.6958008</ele>
        <time>2016-02-21T10:40:30Z</time>
      </trkpt>
      <trkpt lat="44.36088" lon="5.86984">
        <ele>670.6569824</ele>
        <time>2016-02-21T10:40:42Z</time>
      </trkpt>
      <trkpt lat="44.36084" lon="5.86974">
        <ele>671.1376953</ele>
        <time>2016-02-21T10:40:46Z</time>
      </trkpt>
      <trkpt lat="44.36067" lon="5.86938">
        <ele>673.0603027</ele>
        <time>2016-02-21T10:41:03Z</time>
      </trkpt>
      <trkpt lat="44.36053" lon="5.8691">
        <ele>674.5021973</ele>
        <time>2016-02-21T10:41:15Z</time>
      </trkpt>
      <trkpt lat="44.36032" lon="5.86867">
        <ele>675.9440918</ele>
        <time>2016-02-21T10:41:33Z</time>
      </trkpt>
      <trkpt lat="44.36012" lon="5.86822">
        <ele>677.3862305</ele>
        <time>2016-02-21T10:41:51Z</time>
      </trkpt>
      <trkpt lat="44.35989" lon="5.8677">
        <ele>678.828125</ele>
        <time>2016-02-21T10:42:11Z</time>
      </trkpt>
      <trkpt lat="44.35961" lon="5.86716">
        <ele>681.2314453</ele>
        <time>2016-02-21T10:42:32Z</time>
      </trkpt>
      <trkpt lat="44.35945" lon="5.86646">
        <ele>681.7119141</ele>
        <time>2016-02-21T10:42:54Z</time>
      </trkpt>
      <trkpt lat="44.35925" lon="5.86566">
        <ele>682.192627</ele>
        <time>2016-02-21T10:43:18Z</time>
      </trkpt>
      <trkpt lat="44.35911" lon="5.8649">
        <ele>682.6733398</ele>
        <time>2016-02-21T10:43:41Z</time>
      </trkpt>
      <trkpt lat="44.35893" lon="5.86407">
        <ele>684.1154785</ele>
        <time>2016-02-21T10:44:04Z</time>
      </trkpt>
      <trkpt lat="44.35868" lon="5.86314">
        <ele>684.1154785</ele>
        <time>2016-02-21T10:44:28Z</time>
      </trkpt>
      <trkpt lat="44.35831" lon="5.86234">
        <ele>683.1538086</ele>
        <time>2016-02-21T10:44:46Z</time>
      </trkpt>
      <trkpt lat="44.35812" lon="5.86164">
        <ele>680.7507324</ele>
        <time>2016-02-21T10:44:59Z</time>
      </trkpt>
      <trkpt lat="44.35789" lon="5.86048">
        <ele>681.7119141</ele>
        <time>2016-02-21T10:45:20Z</time>
      </trkpt>
      <trkpt lat="44.35778" lon="5.86022">
        <ele>681.2314453</ele>
        <time>2016-02-21T10:45:25Z</time>
      </trkpt>
      <trkpt lat="44.35766" lon="5.86">
        <ele>680.2700195</ele>
        <time>2016-02-21T10:45:30Z</time>
      </trkpt>
      <trkpt lat="44.35751" lon="5.85978">
        <ele>679.3085938</ele>
        <time>2016-02-21T10:45:35Z</time>
      </trkpt>
      <trkpt lat="44.35684" lon="5.85866">
        <ele>677.3862305</ele>
        <time>2016-02-21T10:45:54Z</time>
      </trkpt>
      <trkpt lat="44.35654" lon="5.85817">
        <ele>673.0603027</ele>
        <time>2016-02-21T10:46:01Z</time>
      </trkpt>
      <trkpt lat="44.3565" lon="5.8581">
        <ele>673.0603027</ele>
        <time>2016-02-21T10:46:02Z</time>
      </trkpt>
      <trkpt lat="44.35632" lon="5.85783">
        <ele>672.098877</ele>
        <time>2016-02-21T10:46:06Z</time>
      </trkpt>
      <trkpt lat="44.35618" lon="5.85762">
        <ele>674.5021973</ele>
        <time>2016-02-21T10:46:09Z</time>
      </trkpt>
      <trkpt lat="44.35559" lon="5.85695">
        <ele>672.098877</ele>
        <time>2016-02-21T10:46:20Z</time>
      </trkpt>
      <trkpt lat="44.35468" lon="5.85597">
        <ele>669.2150879</ele>
        <time>2016-02-21T10:46:36Z</time>
      </trkpt>
      <trkpt lat="44.35407" lon="5.85531">
        <ele>666.3308105</ele>
        <time>2016-02-21T10:46:47Z</time>
      </trkpt>
      <trkpt lat="44.35384" lon="5.85504">
        <ele>663.4470215</ele>
        <time>2016-02-21T10:46:52Z</time>
      </trkpt>
      <trkpt lat="44.35338" lon="5.85452">
        <ele>662.005127</ele>
        <time>2016-02-21T10:47:06Z</time>
      </trkpt>
      <trkpt lat="44.35325" lon="5.85446">
        <ele>661.5244141</ele>
        <time>2016-02-21T10:47:10Z</time>
      </trkpt>
      <trkpt lat="44.35322" lon="5.85449">
        <ele>662.4855957</ele>
        <time>2016-02-21T10:47:23Z</time>
      </trkpt>
      <trkpt lat="44.35321" lon="5.85451">
        <ele>662.005127</ele>
        <time>2016-02-21T10:52:08Z</time>
      </trkpt>
      <trkpt lat="44.3532" lon="5.85455">
        <ele>661.0437012</ele>
        <time>2016-02-21T10:52:10Z</time>
      </trkpt>
      <trkpt lat="44.35319" lon="5.85509">
        <ele>661.0437012</ele>
        <time>2016-02-21T10:52:26Z</time>
      </trkpt>
      <trkpt lat="44.35321" lon="5.85585">
        <ele>661.0437012</ele>
        <time>2016-02-21T10:52:42Z</time>
      </trkpt>
      <trkpt lat="44.35316" lon="5.85652">
        <ele>661.0437012</ele>
        <time>2016-02-21T10:52:55Z</time>
      </trkpt>
      <trkpt lat="44.35307" lon="5.85708">
        <ele>660.5629883</ele>
        <time>2016-02-21T10:53:06Z</time>
      </trkpt>
      <trkpt lat="44.35291" lon="5.85791">
        <ele>661.5244141</ele>
        <time>2016-02-21T10:53:22Z</time>
      </trkpt>
      <trkpt lat="44.35273" lon="5.85891">
        <ele>662.4855957</ele>
        <time>2016-02-21T10:53:41Z</time>
      </trkpt>
      <trkpt lat="44.35245" lon="5.86044">
        <ele>660.0822754</ele>
        <time>2016-02-21T10:54:08Z</time>
      </trkpt>
      <trkpt lat="44.35225" lon="5.86159">
        <ele>660.0822754</ele>
        <time>2016-02-21T10:54:29Z</time>
      </trkpt>
      <trkpt lat="44.35219" lon="5.86217">
        <ele>660.0822754</ele>
        <time>2016-02-21T10:54:40Z</time>
      </trkpt>
      <trkpt lat="44.35209" lon="5.863">
        <ele>659.1210938</ele>
        <time>2016-02-21T10:54:56Z</time>
      </trkpt>
      <trkpt lat="44.35196" lon="5.86333">
        <ele>659.6018066</ele>
        <time>2016-02-21T10:55:03Z</time>
      </trkpt>
      <trkpt lat="44.3518" lon="5.86364">
        <ele>659.1210938</ele>
        <time>2016-02-21T10:55:10Z</time>
      </trkpt>
      <trkpt lat="44.35151" lon="5.86407">
        <ele>659.6018066</ele>
        <time>2016-02-21T10:55:22Z</time>
      </trkpt>
      <trkpt lat="44.35126" lon="5.86441">
        <ele>659.6018066</ele>
        <time>2016-02-21T10:55:30Z</time>
      </trkpt>
      <trkpt lat="44.35076" lon="5.86514">
        <ele>657.6791992</ele>
        <time>2016-02-21T10:55:41Z</time>
      </trkpt>
      <trkpt lat="44.35008" lon="5.86625">
        <ele>654.795166</ele>
        <time>2016-02-21T10:55:56Z</time>
      </trkpt>
      <trkpt lat="44.34952" lon="5.86698">
        <ele>653.8339844</ele>
        <time>2016-02-21T10:56:11Z</time>
      </trkpt>
      <trkpt lat="44.34928" lon="5.86713">
        <ele>654.3146973</ele>
        <time>2016-02-21T10:56:18Z</time>
      </trkpt>
      <trkpt lat="44.34896" lon="5.86741">
        <ele>653.3532715</ele>
        <time>2016-02-21T10:56:28Z</time>
      </trkpt>
      <trkpt lat="44.34842" lon="5.86832">
        <ele>652.3918457</ele>
        <time>2016-02-21T10:56:47Z</time>
      </trkpt>
      <trkpt lat="44.34798" lon="5.86902">
        <ele>653.3532715</ele>
        <time>2016-02-21T10:57:06Z</time>
      </trkpt>
      <trkpt lat="44.3477" lon="5.86919">
        <ele>653.3532715</ele>
        <time>2016-02-21T10:57:18Z</time>
      </trkpt>
      <trkpt lat="44.34728" lon="5.86927">
        <ele>653.8339844</ele>
        <time>2016-02-21T10:57:35Z</time>
      </trkpt>
      <trkpt lat="44.34673" lon="5.8693">
        <ele>654.795166</ele>
        <time>2016-02-21T10:57:56Z</time>
      </trkpt>
      <trkpt lat="44.34647" lon="5.86897">
        <ele>655.2758789</ele>
        <time>2016-02-21T10:58:11Z</time>
      </trkpt>
      <trkpt lat="44.34625" lon="5.86835">
        <ele>656.2370605</ele>
        <time>2016-02-21T10:58:31Z</time>
      </trkpt>
      <trkpt lat="44.34588" lon="5.86822">
        <ele>656.2370605</ele>
        <time>2016-02-21T10:58:47Z</time>
      </trkpt>
      <trkpt lat="44.34552" lon="5.8681">
        <ele>657.1984863</ele>
        <time>2016-02-21T10:59:01Z</time>
      </trkpt>
      <trkpt lat="44.3452" lon="5.86809">
        <ele>658.6403809</ele>
        <time>2016-02-21T10:59:16Z</time>
      </trkpt>
      <trkpt lat="44.34495" lon="5.8682">
        <ele>661.0437012</ele>
        <time>2016-02-21T10:59:31Z</time>
      </trkpt>
      <trkpt lat="44.3447" lon="5.86834">
        <ele>662.9663086</ele>
        <time>2016-02-21T10:59:46Z</time>
      </trkpt>
      <trkpt lat="44.34445" lon="5.86848">
        <ele>665.8503418</ele>
        <time>2016-02-21T11:00:03Z</time>
      </trkpt>
      <trkpt lat="44.34422" lon="5.86857">
        <ele>668.2536621</ele>
        <time>2016-02-21T11:00:18Z</time>
      </trkpt>
      <trkpt lat="44.34415" lon="5.86856">
        <ele>668.734375</ele>
        <time>2016-02-21T11:00:23Z</time>
      </trkpt>
      <trkpt lat="44.3441" lon="5.86855">
        <ele>669.2150879</ele>
        <time>2016-02-21T11:00:27Z</time>
      </trkpt>
      <trkpt lat="44.344" lon="5.86851">
        <ele>670.1762695</ele>
        <time>2016-02-21T11:00:34Z</time>
      </trkpt>
      <trkpt lat="44.34394" lon="5.86849">
        <ele>670.6569824</ele>
        <time>2016-02-21T11:00:39Z</time>
      </trkpt>
      <trkpt lat="44.34368" lon="5.86837">
        <ele>673.0603027</ele>
        <time>2016-02-21T11:00:56Z</time>
      </trkpt>
      <trkpt lat="44.34358" lon="5.86833">
        <ele>674.0214844</ele>
        <time>2016-02-21T11:01:04Z</time>
      </trkpt>
      <trkpt lat="44.34335" lon="5.86827">
        <ele>676.4248047</ele>
        <time>2016-02-21T11:01:20Z</time>
      </trkpt>
      <trkpt lat="44.34329" lon="5.86828">
        <ele>676.9055176</ele>
        <time>2016-02-21T11:01:24Z</time>
      </trkpt>
      <trkpt lat="44.34315" lon="5.86856">
        <ele>678.3474121</ele>
        <time>2016-02-21T11:01:39Z</time>
      </trkpt>
      <trkpt lat="44.34317" lon="5.86865">
        <ele>678.828125</ele>
        <time>2016-02-21T11:01:43Z</time>
      </trkpt>
      <trkpt lat="44.34343" lon="5.86894">
        <ele>679.7893066</ele>
        <time>2016-02-21T11:02:02Z</time>
      </trkpt>
      <trkpt lat="44.34343" lon="5.86896">
        <ele>679.7893066</ele>
        <time>2016-02-21T11:02:03Z</time>
      </trkpt>
      <trkpt lat="44.34359" lon="5.86911">
        <ele>681.2314453</ele>
        <time>2016-02-21T11:02:17Z</time>
      </trkpt>
      <trkpt lat="44.34367" lon="5.86914">
        <ele>682.192627</ele>
        <time>2016-02-21T11:02:23Z</time>
      </trkpt>
      <trkpt lat="44.34386" lon="5.86918">
        <ele>683.6345215</ele>
        <time>2016-02-21T11:02:37Z</time>
      </trkpt>
      <trkpt lat="44.34406" lon="5.86922">
        <ele>686.0380859</ele>
        <time>2016-02-21T11:02:50Z</time>
      </trkpt>
      <trkpt lat="44.34423" lon="5.86927">
        <ele>686.9992676</ele>
        <time>2016-02-21T11:03:00Z</time>
      </trkpt>
      <trkpt lat="44.34436" lon="5.86951">
        <ele>688.4414063</ele>
        <time>2016-02-21T11:03:13Z</time>
      </trkpt>
      <trkpt lat="44.34443" lon="5.86969">
        <ele>689.4025879</ele>
        <time>2016-02-21T11:03:22Z</time>
      </trkpt>
      <trkpt lat="44.34445" lon="5.86979">
        <ele>690.8444824</ele>
        <time>2016-02-21T11:03:27Z</time>
      </trkpt>
      <trkpt lat="44.34455" lon="5.86997">
        <ele>691.3251953</ele>
        <time>2016-02-21T11:03:36Z</time>
      </trkpt>
      <trkpt lat="44.34461" lon="5.87046">
        <ele>691.8059082</ele>
        <time>2016-02-21T11:03:53Z</time>
      </trkpt>
      <trkpt lat="44.34448" lon="5.87111">
        <ele>691.3251953</ele>
        <time>2016-02-21T11:04:07Z</time>
      </trkpt>
      <trkpt lat="44.34439" lon="5.87193">
        <ele>691.3251953</ele>
        <time>2016-02-21T11:04:23Z</time>
      </trkpt>
      <trkpt lat="44.34424" lon="5.87241">
        <ele>691.8059082</ele>
        <time>2016-02-21T11:04:35Z</time>
      </trkpt>
      <trkpt lat="44.34415" lon="5.87249">
        <ele>691.3251953</ele>
        <time>2016-02-21T11:04:37Z</time>
      </trkpt>
      <trkpt lat="44.34329" lon="5.87277">
        <ele>687.9606934</ele>
        <time>2016-02-21T11:04:51Z</time>
      </trkpt>
      <trkpt lat="44.34264" lon="5.87304">
        <ele>684.5961914</ele>
        <time>2016-02-21T11:05:00Z</time>
      </trkpt>
      <trkpt lat="44.34185" lon="5.87347">
        <ele>683.6345215</ele>
        <time>2016-02-21T11:05:14Z</time>
      </trkpt>
      <trkpt lat="44.34156" lon="5.87345">
        <ele>680.2700195</ele>
        <time>2016-02-21T11:05:23Z</time>
      </trkpt>
      <trkpt lat="44.34148" lon="5.87339">
        <ele>679.3085938</ele>
        <time>2016-02-21T11:05:38Z</time>
      </trkpt>
      <trkpt lat="44.34135" lon="5.87332">
        <ele>678.3474121</ele>
        <time>2016-02-21T11:05:42Z</time>
      </trkpt>
      <trkpt lat="44.34095" lon="5.87313">
        <ele>676.9055176</ele>
        <time>2016-02-21T11:05:50Z</time>
      </trkpt>
      <trkpt lat="44.34066" lon="5.87302">
        <ele>677.3862305</ele>
        <time>2016-02-21T11:05:55Z</time>
      </trkpt>
      <trkpt lat="44.33993" lon="5.87307">
        <ele>674.5021973</ele>
        <time>2016-02-21T11:06:05Z</time>
      </trkpt>
      <trkpt lat="44.33963" lon="5.87303">
        <ele>673.5410156</ele>
        <time>2016-02-21T11:06:09Z</time>
      </trkpt>
      <trkpt lat="44.33882" lon="5.87265">
        <ele>670.6569824</ele>
        <time>2016-02-21T11:06:20Z</time>
      </trkpt>
      <trkpt lat="44.33807" lon="5.87239">
        <ele>666.3308105</ele>
        <time>2016-02-21T11:06:30Z</time>
      </trkpt>
      <trkpt lat="44.33802" lon="5.87237">
        <ele>666.3308105</ele>
        <time>2016-02-21T11:06:31Z</time>
      </trkpt>
      <trkpt lat="44.33789" lon="5.87238">
        <ele>665.3696289</ele>
        <time>2016-02-21T11:06:33Z</time>
      </trkpt>
      <trkpt lat="44.33769" lon="5.87245">
        <ele>662.9663086</ele>
        <time>2016-02-21T11:06:36Z</time>
      </trkpt>
      <trkpt lat="44.33703" lon="5.87263">
        <ele>661.5244141</ele>
        <time>2016-02-21T11:06:45Z</time>
      </trkpt>
      <trkpt lat="44.33695" lon="5.87264">
        <ele>662.005127</ele>
        <time>2016-02-21T11:06:46Z</time>
      </trkpt>
      <trkpt lat="44.33679" lon="5.87275">
        <ele>661.0437012</ele>
        <time>2016-02-21T11:06:53Z</time>
      </trkpt>
      <trkpt lat="44.33679" lon="5.87274">
        <ele>660.5629883</ele>
        <time>2016-02-21T11:07:08Z</time>
      </trkpt>
      <trkpt lat="44.33679" lon="5.87274">
        <ele>662.4855957</ele>
        <time>2016-02-21T11:07:11Z</time>
      </trkpt>
      <trkpt lat="44.33679" lon="5.87274">
        <ele>659.1210938</ele>
        <time>2016-02-21T11:07:40Z</time>
      </trkpt>
      <trkpt lat="44.33679" lon="5.87274">
        <ele>659.1210938</ele>
        <time>2016-02-21T11:07:41Z</time>
      </trkpt>
      <trkpt lat="44.33678" lon="5.87274">
        <ele>660.0822754</ele>
        <time>2016-02-21T11:07:42Z</time>
      </trkpt>
      <trkpt lat="44.3367" lon="5.87307">
        <ele>661.0437012</ele>
        <time>2016-02-21T11:07:52Z</time>
      </trkpt>
      <trkpt lat="44.33657" lon="5.87326">
        <ele>664.4082031</ele>
        <time>2016-02-21T11:08:01Z</time>
      </trkpt>
      <trkpt lat="44.33654" lon="5.8733">
        <ele>663.9274902</ele>
        <time>2016-02-21T11:08:03Z</time>
      </trkpt>
      <trkpt lat="44.33626" lon="5.87357">
        <ele>666.3308105</ele>
        <time>2016-02-21T11:08:21Z</time>
      </trkpt>
      <trkpt lat="44.33621" lon="5.87364">
        <ele>667.7727051</ele>
        <time>2016-02-21T11:08:25Z</time>
      </trkpt>
      <trkpt lat="44.33618" lon="5.87382">
        <ele>669.6958008</ele>
        <time>2016-02-21T11:08:32Z</time>
      </trkpt>
      <trkpt lat="44.33616" lon="5.87389">
        <ele>668.734375</ele>
        <time>2016-02-21T11:08:35Z</time>
      </trkpt>
      <trkpt lat="44.33616" lon="5.87402">
        <ele>670.1762695</ele>
        <time>2016-02-21T11:08:39Z</time>
      </trkpt>
      <trkpt lat="44.33619" lon="5.87438">
        <ele>670.6569824</ele>
        <time>2016-02-21T11:08:53Z</time>
      </trkpt>
      <trkpt lat="44.3362" lon="5.87443">
        <ele>671.6181641</ele>
        <time>2016-02-21T11:08:55Z</time>
      </trkpt>
      <trkpt lat="44.33617" lon="5.87481">
        <ele>672.098877</ele>
        <time>2016-02-21T11:09:09Z</time>
      </trkpt>
      <trkpt lat="44.33609" lon="5.8753">
        <ele>674.0214844</ele>
        <time>2016-02-21T11:09:25Z</time>
      </trkpt>
      <trkpt lat="44.33598" lon="5.87572">
        <ele>673.5410156</ele>
        <time>2016-02-21T11:09:41Z</time>
      </trkpt>
      <trkpt lat="44.33599" lon="5.87577">
        <ele>673.5410156</ele>
        <time>2016-02-21T11:09:58Z</time>
      </trkpt>
      <trkpt lat="44.33601" lon="5.87628">
        <ele>673.0603027</ele>
        <time>2016-02-21T11:10:11Z</time>
      </trkpt>
      <trkpt lat="44.336" lon="5.8769">
        <ele>673.5410156</ele>
        <time>2016-02-21T11:10:27Z</time>
      </trkpt>
      <trkpt lat="44.33595" lon="5.87724">
        <ele>673.0603027</ele>
        <time>2016-02-21T11:10:34Z</time>
      </trkpt>
      <trkpt lat="44.33574" lon="5.87795">
        <ele>669.6958008</ele>
        <time>2016-02-21T11:10:45Z</time>
      </trkpt>
      <trkpt lat="44.33557" lon="5.87845">
        <ele>668.734375</ele>
        <time>2016-02-21T11:10:51Z</time>
      </trkpt>
      <trkpt lat="44.3354" lon="5.87874">
        <ele>669.2150879</ele>
        <time>2016-02-21T11:10:56Z</time>
      </trkpt>
      <trkpt lat="44.33507" lon="5.87895">
        <ele>670.1762695</ele>
        <time>2016-02-21T11:11:05Z</time>
      </trkpt>
      <trkpt lat="44.33476" lon="5.87924">
        <ele>669.2150879</ele>
        <time>2016-02-21T11:11:12Z</time>
      </trkpt>
      <trkpt lat="44.33457" lon="5.87951">
        <ele>668.2536621</ele>
        <time>2016-02-21T11:11:17Z</time>
      </trkpt>
      <trkpt lat="44.33436" lon="5.88021">
        <ele>668.734375</ele>
        <time>2016-02-21T11:11:29Z</time>
      </trkpt>
      <trkpt lat="44.33436" lon="5.8805">
        <ele>667.2922363</ele>
        <time>2016-02-21T11:11:34Z</time>
      </trkpt>
      <trkpt lat="44.33424" lon="5.88085">
        <ele>667.7727051</ele>
        <time>2016-02-21T11:11:40Z</time>
      </trkpt>
      <trkpt lat="44.33374" lon="5.88169">
        <ele>668.2536621</ele>
        <time>2016-02-21T11:11:57Z</time>
      </trkpt>
      <trkpt lat="44.33358" lon="5.88212">
        <ele>669.6958008</ele>
        <time>2016-02-21T11:12:09Z</time>
      </trkpt>
      <trkpt lat="44.33338" lon="5.88245">
        <ele>671.1376953</ele>
        <time>2016-02-21T11:12:20Z</time>
      </trkpt>
      <trkpt lat="44.33329" lon="5.88248">
        <ele>671.1376953</ele>
        <time>2016-02-21T11:12:23Z</time>
      </trkpt>
      <trkpt lat="44.33293" lon="5.88257">
        <ele>670.1762695</ele>
        <time>2016-02-21T11:12:32Z</time>
      </trkpt>
      <trkpt lat="44.33255" lon="5.88252">
        <ele>669.6958008</ele>
        <time>2016-02-21T11:12:40Z</time>
      </trkpt>
      <trkpt lat="44.33183" lon="5.88277">
        <ele>666.8115234</ele>
        <time>2016-02-21T11:12:55Z</time>
      </trkpt>
      <trkpt lat="44.33166" lon="5.88284">
        <ele>666.3308105</ele>
        <time>2016-02-21T11:12:58Z</time>
      </trkpt>
      <trkpt lat="44.33131" lon="5.88306">
        <ele>666.3308105</ele>
        <time>2016-02-21T11:13:05Z</time>
      </trkpt>
      <trkpt lat="44.331" lon="5.88328">
        <ele>665.3696289</ele>
        <time>2016-02-21T11:13:10Z</time>
      </trkpt>
      <trkpt lat="44.33018" lon="5.88348">
        <ele>663.9274902</ele>
        <time>2016-02-21T11:13:24Z</time>
      </trkpt>
      <trkpt lat="44.32937" lon="5.88329">
        <ele>662.9663086</ele>
        <time>2016-02-21T11:13:38Z</time>
      </trkpt>
      <trkpt lat="44.32866" lon="5.88304">
        <ele>661.0437012</ele>
        <time>2016-02-21T11:13:51Z</time>
      </trkpt>
      <trkpt lat="44.32847" lon="5.883">
        <ele>660.0822754</ele>
        <time>2016-02-21T11:13:55Z</time>
      </trkpt>
      <trkpt lat="44.3282" lon="5.88289">
        <ele>661.0437012</ele>
        <time>2016-02-21T11:14:00Z</time>
      </trkpt>
      <trkpt lat="44.32785" lon="5.88268">
        <ele>661.5244141</ele>
        <time>2016-02-21T11:14:08Z</time>
      </trkpt>
      <trkpt lat="44.32772" lon="5.88259">
        <ele>661.5244141</ele>
        <time>2016-02-21T11:14:11Z</time>
      </trkpt>
      <trkpt lat="44.32714" lon="5.88204">
        <ele>657.6791992</ele>
        <time>2016-02-21T11:14:23Z</time>
      </trkpt>
      <trkpt lat="44.32708" lon="5.88199">
        <ele>657.6791992</ele>
        <time>2016-02-21T11:14:24Z</time>
      </trkpt>
      <trkpt lat="44.32659" lon="5.88167">
        <ele>655.7565918</ele>
        <time>2016-02-21T11:14:31Z</time>
      </trkpt>
      <trkpt lat="44.32559" lon="5.88144">
        <ele>653.8339844</ele>
        <time>2016-02-21T11:14:44Z</time>
      </trkpt>
      <trkpt lat="44.32475" lon="5.8817">
        <ele>653.3532715</ele>
        <time>2016-02-21T11:14:59Z</time>
      </trkpt>
      <trkpt lat="44.32471" lon="5.88171">
        <ele>651.9111328</ele>
        <time>2016-02-21T11:15:00Z</time>
      </trkpt>
      <trkpt lat="44.3245" lon="5.88178">
        <ele>651.9111328</ele>
        <time>2016-02-21T11:15:05Z</time>
      </trkpt>
      <trkpt lat="44.32409" lon="5.8819">
        <ele>653.8339844</ele>
        <time>2016-02-21T11:15:18Z</time>
      </trkpt>
      <trkpt lat="44.32398" lon="5.88194">
        <ele>654.795166</ele>
        <time>2016-02-21T11:15:23Z</time>
      </trkpt>
      <trkpt lat="44.32385" lon="5.88229">
        <ele>656.2370605</ele>
        <time>2016-02-21T11:15:36Z</time>
      </trkpt>
      <trkpt lat="44.32385" lon="5.8823">
        <ele>655.2758789</ele>
        <time>2016-02-21T11:15:52Z</time>
      </trkpt>
      <trkpt lat="44.32384" lon="5.88228">
        <ele>655.7565918</ele>
        <time>2016-02-21T11:16:17Z</time>
      </trkpt>
      <trkpt lat="44.3238" lon="5.88221">
        <ele>656.2370605</ele>
        <time>2016-02-21T11:16:23Z</time>
      </trkpt>
      <trkpt lat="44.32353" lon="5.88244">
        <ele>658.1599121</ele>
        <time>2016-02-21T11:16:39Z</time>
      </trkpt>
      <trkpt lat="44.32331" lon="5.88254">
        <ele>660.5629883</ele>
        <time>2016-02-21T11:16:51Z</time>
      </trkpt>
      <trkpt lat="44.32322" lon="5.88246">
        <ele>661.0437012</ele>
        <time>2016-02-21T11:16:57Z</time>
      </trkpt>
      <trkpt lat="44.32316" lon="5.88191">
        <ele>663.4470215</ele>
        <time>2016-02-21T11:17:16Z</time>
      </trkpt>
      <trkpt lat="44.32314" lon="5.88165">
        <ele>665.8503418</ele>
        <time>2016-02-21T11:17:27Z</time>
      </trkpt>
      <trkpt lat="44.32313" lon="5.88149">
        <ele>665.8503418</ele>
        <time>2016-02-21T11:17:34Z</time>
      </trkpt>
      <trkpt lat="44.32312" lon="5.88143">
        <ele>664.4082031</ele>
        <time>2016-02-21T11:17:37Z</time>
      </trkpt>
      <trkpt lat="44.32307" lon="5.88119">
        <ele>665.8503418</ele>
        <time>2016-02-21T11:17:48Z</time>
      </trkpt>
      <trkpt lat="44.32306" lon="5.88117">
        <ele>665.8503418</ele>
        <time>2016-02-21T11:17:49Z</time>
      </trkpt>
      <trkpt lat="44.323" lon="5.88111">
        <ele>667.7727051</ele>
        <time>2016-02-21T11:17:53Z</time>
      </trkpt>
      <trkpt lat="44.32295" lon="5.88114">
        <ele>668.2536621</ele>
        <time>2016-02-21T11:17:58Z</time>
      </trkpt>
      <trkpt lat="44.32285" lon="5.88131">
        <ele>669.6958008</ele>
        <time>2016-02-21T11:18:07Z</time>
      </trkpt>
      <trkpt lat="44.32267" lon="5.88167">
        <ele>670.6569824</ele>
        <time>2016-02-21T11:18:24Z</time>
      </trkpt>
      <trkpt lat="44.32242" lon="5.88198">
        <ele>672.098877</ele>
        <time>2016-02-21T11:18:42Z</time>
      </trkpt>
      <trkpt lat="44.32232" lon="5.88178">
        <ele>673.5410156</ele>
        <time>2016-02-21T11:18:54Z</time>
      </trkpt>
      <trkpt lat="44.3223" lon="5.88127">
        <ele>675.4633789</ele>
        <time>2016-02-21T11:19:14Z</time>
      </trkpt>
      <trkpt lat="44.32221" lon="5.8809">
        <ele>677.3862305</ele>
        <time>2016-02-21T11:19:30Z</time>
      </trkpt>
      <trkpt lat="44.32213" lon="5.88058">
        <ele>678.828125</ele>
        <time>2016-02-21T11:19:45Z</time>
      </trkpt>
      <trkpt lat="44.32212" lon="5.88056">
        <ele>678.828125</ele>
        <time>2016-02-21T11:19:46Z</time>
      </trkpt>
      <trkpt lat="44.32213" lon="5.88049">
        <ele>679.3085938</ele>
        <time>2016-02-21T11:19:50Z</time>
      </trkpt>
      <trkpt lat="44.32211" lon="5.8804">
        <ele>680.2700195</ele>
        <time>2016-02-21T11:19:54Z</time>
      </trkpt>
      <trkpt lat="44.32196" lon="5.87993">
        <ele>682.192627</ele>
        <time>2016-02-21T11:20:15Z</time>
      </trkpt>
      <trkpt lat="44.32184" lon="5.87955">
        <ele>685.0769043</ele>
        <time>2016-02-21T11:20:33Z</time>
      </trkpt>
      <trkpt lat="44.32183" lon="5.87954">
        <ele>685.0769043</ele>
        <time>2016-02-21T11:20:34Z</time>
      </trkpt>
      <trkpt lat="44.32177" lon="5.87943">
        <ele>686.0380859</ele>
        <time>2016-02-21T11:20:41Z</time>
      </trkpt>
      <trkpt lat="44.32164" lon="5.87925">
        <ele>688.4414063</ele>
        <time>2016-02-21T11:20:54Z</time>
      </trkpt>
      <trkpt lat="44.32165" lon="5.87913">
        <ele>689.8833008</ele>
        <time>2016-02-21T11:21:01Z</time>
      </trkpt>
      <trkpt lat="44.32183" lon="5.87921">
        <ele>691.3251953</ele>
        <time>2016-02-21T11:21:13Z</time>
      </trkpt>
      <trkpt lat="44.32206" lon="5.87921">
        <ele>692.2866211</ele>
        <time>2016-02-21T11:21:27Z</time>
      </trkpt>
      <trkpt lat="44.32214" lon="5.87892">
        <ele>694.2092285</ele>
        <time>2016-02-21T11:21:41Z</time>
      </trkpt>
      <trkpt lat="44.32212" lon="5.87877">
        <ele>695.651123</ele>
        <time>2016-02-21T11:21:48Z</time>
      </trkpt>
      <trkpt lat="44.32205" lon="5.87866">
        <ele>696.6125488</ele>
        <time>2016-02-21T11:21:54Z</time>
      </trkpt>
      <trkpt lat="44.32201" lon="5.87852">
        <ele>697.0930176</ele>
        <time>2016-02-21T11:22:01Z</time>
      </trkpt>
      <trkpt lat="44.32188" lon="5.87826">
        <ele>698.5349121</ele>
        <time>2016-02-21T11:22:16Z</time>
      </trkpt>
      <trkpt lat="44.32171" lon="5.87797">
        <ele>700.9384766</ele>
        <time>2016-02-21T11:22:34Z</time>
      </trkpt>
      <trkpt lat="44.32157" lon="5.87776">
        <ele>701.8999023</ele>
        <time>2016-02-21T11:22:47Z</time>
      </trkpt>
      <trkpt lat="44.32148" lon="5.87762">
        <ele>702.861084</ele>
        <time>2016-02-21T11:22:55Z</time>
      </trkpt>
      <trkpt lat="44.32146" lon="5.87752">
        <ele>703.8225098</ele>
        <time>2016-02-21T11:23:01Z</time>
      </trkpt>
      <trkpt lat="44.32144" lon="5.87743">
        <ele>704.3032227</ele>
        <time>2016-02-21T11:23:06Z</time>
      </trkpt>
      <trkpt lat="44.32134" lon="5.87731">
        <ele>705.7451172</ele>
        <time>2016-02-21T11:23:17Z</time>
      </trkpt>
      <trkpt lat="44.32126" lon="5.87753">
        <ele>707.1870117</ele>
        <time>2016-02-21T11:23:29Z</time>
      </trkpt>
      <trkpt lat="44.32126" lon="5.87759">
        <ele>707.6677246</ele>
        <time>2016-02-21T11:23:32Z</time>
      </trkpt>
      <trkpt lat="44.32122" lon="5.87765">
        <ele>708.1484375</ele>
        <time>2016-02-21T11:23:35Z</time>
      </trkpt>
      <trkpt lat="44.3212" lon="5.87773">
        <ele>708.1484375</ele>
        <time>2016-02-21T11:23:39Z</time>
      </trkpt>
      <trkpt lat="44.32117" lon="5.87781">
        <ele>709.1096191</ele>
        <time>2016-02-21T11:23:44Z</time>
      </trkpt>
      <trkpt lat="44.32095" lon="5.87812">
        <ele>710.0708008</ele>
        <time>2016-02-21T11:23:59Z</time>
      </trkpt>
      <trkpt lat="44.3207" lon="5.87834">
        <ele>711.5129395</ele>
        <time>2016-02-21T11:24:17Z</time>
      </trkpt>
      <trkpt lat="44.32054" lon="5.87837">
        <ele>712.954834</ele>
        <time>2016-02-21T11:24:29Z</time>
      </trkpt>
      <trkpt lat="44.32041" lon="5.87822">
        <ele>714.8774414</ele>
        <time>2016-02-21T11:24:43Z</time>
      </trkpt>
      <trkpt lat="44.32033" lon="5.87815">
        <ele>715.3581543</ele>
        <time>2016-02-21T11:24:49Z</time>
      </trkpt>
      <trkpt lat="44.32023" lon="5.878">
        <ele>716.800293</ele>
        <time>2016-02-21T11:24:58Z</time>
      </trkpt>
      <trkpt lat="44.32022" lon="5.87796">
        <ele>716.800293</ele>
        <time>2016-02-21T11:25:00Z</time>
      </trkpt>
      <trkpt lat="44.32003" lon="5.87781">
        <ele>717.2810059</ele>
        <time>2016-02-21T11:25:14Z</time>
      </trkpt>
      <trkpt lat="44.3199" lon="5.87756">
        <ele>719.2036133</ele>
        <time>2016-02-21T11:25:28Z</time>
      </trkpt>
      <trkpt lat="44.31979" lon="5.8772">
        <ele>721.1262207</ele>
        <time>2016-02-21T11:25:46Z</time>
      </trkpt>
      <trkpt lat="44.31975" lon="5.87701">
        <ele>721.1262207</ele>
        <time>2016-02-21T11:25:55Z</time>
      </trkpt>
      <trkpt lat="44.31974" lon="5.87692">
        <ele>721.6066895</ele>
        <time>2016-02-21T11:25:59Z</time>
      </trkpt>
      <trkpt lat="44.31971" lon="5.87669">
        <ele>723.0488281</ele>
        <time>2016-02-21T11:26:10Z</time>
      </trkpt>
      <trkpt lat="44.31969" lon="5.87664">
        <ele>723.529541</ele>
        <time>2016-02-21T11:26:12Z</time>
      </trkpt>
      <trkpt lat="44.31968" lon="5.8765">
        <ele>724.4907227</ele>
        <time>2016-02-21T11:26:18Z</time>
      </trkpt>
      <trkpt lat="44.3196" lon="5.87626">
        <ele>725.9326172</ele>
        <time>2016-02-21T11:26:31Z</time>
      </trkpt>
      <trkpt lat="44.3196" lon="5.8761">
        <ele>727.3747559</ele>
        <time>2016-02-21T11:26:39Z</time>
      </trkpt>
      <trkpt lat="44.31962" lon="5.87599">
        <ele>727.8552246</ele>
        <time>2016-02-21T11:26:44Z</time>
      </trkpt>
      <trkpt lat="44.31962" lon="5.87595">
        <ele>728.3359375</ele>
        <time>2016-02-21T11:26:46Z</time>
      </trkpt>
      <trkpt lat="44.31957" lon="5.87578">
        <ele>729.2971191</ele>
        <time>2016-02-21T11:26:55Z</time>
      </trkpt>
      <trkpt lat="44.31955" lon="5.87571">
        <ele>729.777832</ele>
        <time>2016-02-21T11:26:59Z</time>
      </trkpt>
      <trkpt lat="44.31953" lon="5.87562">
        <ele>729.777832</ele>
        <time>2016-02-21T11:27:03Z</time>
      </trkpt>
      <trkpt lat="44.31953" lon="5.87547">
        <ele>731.2199707</ele>
        <time>2016-02-21T11:27:10Z</time>
      </trkpt>
      <trkpt lat="44.31957" lon="5.87541">
        <ele>732.1813965</ele>
        <time>2016-02-21T11:27:15Z</time>
      </trkpt>
      <trkpt lat="44.31962" lon="5.87525">
        <ele>733.623291</ele>
        <time>2016-02-21T11:27:23Z</time>
      </trkpt>
      <trkpt lat="44.31963" lon="5.87521">
        <ele>733.623291</ele>
        <time>2016-02-21T11:27:25Z</time>
      </trkpt>
      <trkpt lat="44.31967" lon="5.87511">
        <ele>734.5847168</ele>
        <time>2016-02-21T11:27:32Z</time>
      </trkpt>
      <trkpt lat="44.31966" lon="5.87504">
        <ele>735.5458984</ele>
        <time>2016-02-21T11:27:35Z</time>
      </trkpt>
      <trkpt lat="44.3196" lon="5.87499">
        <ele>736.0266113</ele>
        <time>2016-02-21T11:27:39Z</time>
      </trkpt>
      <trkpt lat="44.31956" lon="5.87497">
        <ele>736.987793</ele>
        <time>2016-02-21T11:27:42Z</time>
      </trkpt>
      <trkpt lat="44.31951" lon="5.87503">
        <ele>737.4685059</ele>
        <time>2016-02-21T11:27:46Z</time>
      </trkpt>
      <trkpt lat="44.31948" lon="5.87505">
        <ele>736.987793</ele>
        <time>2016-02-21T11:28:00Z</time>
      </trkpt>
      <trkpt lat="44.31946" lon="5.87498">
        <ele>736.5073242</ele>
        <time>2016-02-21T11:28:37Z</time>
      </trkpt>
      <trkpt lat="44.31966" lon="5.87475">
        <ele>737.4685059</ele>
        <time>2016-02-21T11:28:51Z</time>
      </trkpt>
      <trkpt lat="44.31982" lon="5.87453">
        <ele>738.9106445</ele>
        <time>2016-02-21T11:29:03Z</time>
      </trkpt>
      <trkpt lat="44.31972" lon="5.8745">
        <ele>740.3525391</ele>
        <time>2016-02-21T11:29:09Z</time>
      </trkpt>
      <trkpt lat="44.31955" lon="5.87464">
        <ele>742.7558594</ele>
        <time>2016-02-21T11:29:22Z</time>
      </trkpt>
      <trkpt lat="44.31952" lon="5.87467">
        <ele>743.2363281</ele>
        <time>2016-02-21T11:29:25Z</time>
      </trkpt>
      <trkpt lat="44.31948" lon="5.87468">
        <ele>743.717041</ele>
        <time>2016-02-21T11:29:28Z</time>
      </trkpt>
      <trkpt lat="44.31943" lon="5.87472">
        <ele>744.1977539</ele>
        <time>2016-02-21T11:29:32Z</time>
      </trkpt>
      <trkpt lat="44.31923" lon="5.87481">
        <ele>745.6396484</ele>
        <time>2016-02-21T11:29:45Z</time>
      </trkpt>
      <trkpt lat="44.31886" lon="5.87492">
        <ele>745.6396484</ele>
        <time>2016-02-21T11:29:58Z</time>
      </trkpt>
      <trkpt lat="44.31868" lon="5.87495">
        <ele>746.6010742</ele>
        <time>2016-02-21T11:30:07Z</time>
      </trkpt>
      <trkpt lat="44.31849" lon="5.87474">
        <ele>747.5622559</ele>
        <time>2016-02-21T11:30:22Z</time>
      </trkpt>
      <trkpt lat="44.31833" lon="5.87461">
        <ele>746.6010742</ele>
        <time>2016-02-21T11:30:37Z</time>
      </trkpt>
      <trkpt lat="44.31822" lon="5.87451">
        <ele>746.1203613</ele>
        <time>2016-02-21T11:30:42Z</time>
      </trkpt>
      <trkpt lat="44.31821" lon="5.87421">
        <ele>743.2363281</ele>
        <time>2016-02-21T11:30:51Z</time>
      </trkpt>
      <trkpt lat="44.3183" lon="5.87411">
        <ele>741.7944336</ele>
        <time>2016-02-21T11:30:56Z</time>
      </trkpt>
      <trkpt lat="44.31836" lon="5.87402">
        <ele>741.3137207</ele>
        <time>2016-02-21T11:31:00Z</time>
      </trkpt>
      <trkpt lat="44.31858" lon="5.87396">
        <ele>744.1977539</ele>
        <time>2016-02-21T11:31:12Z</time>
      </trkpt>
      <trkpt lat="44.31868" lon="5.87392">
        <ele>745.6396484</ele>
        <time>2016-02-21T11:31:19Z</time>
      </trkpt>
      <trkpt lat="44.31886" lon="5.8739">
        <ele>748.5236816</ele>
        <time>2016-02-21T11:31:33Z</time>
      </trkpt>
      <trkpt lat="44.31896" lon="5.87387">
        <ele>749.4851074</ele>
        <time>2016-02-21T11:31:38Z</time>
      </trkpt>
      <trkpt lat="44.31897" lon="5.87398">
        <ele>750.4465332</ele>
        <time>2016-02-21T11:31:44Z</time>
      </trkpt>
      <trkpt lat="44.31877" lon="5.87415">
        <ele>752.3688965</ele>
        <time>2016-02-21T11:31:58Z</time>
      </trkpt>
      <trkpt lat="44.31874" lon="5.87417">
        <ele>753.3303223</ele>
        <time>2016-02-21T11:32:01Z</time>
      </trkpt>
      <trkpt lat="44.31864" lon="5.87423">
        <ele>754.291748</ele>
        <time>2016-02-21T11:32:09Z</time>
      </trkpt>
      <trkpt lat="44.31858" lon="5.87439">
        <ele>755.7336426</ele>
        <time>2016-02-21T11:32:19Z</time>
      </trkpt>
      <trkpt lat="44.31874" lon="5.8745">
        <ele>757.1755371</ele>
        <time>2016-02-21T11:32:31Z</time>
      </trkpt>
      <trkpt lat="44.31892" lon="5.87441">
        <ele>758.6174316</ele>
        <time>2016-02-21T11:32:42Z</time>
      </trkpt>
      <trkpt lat="44.31902" lon="5.87435">
        <ele>759.0981445</ele>
        <time>2016-02-21T11:32:49Z</time>
      </trkpt>
      <trkpt lat="44.31915" lon="5.87427">
        <ele>759.5788574</ele>
        <time>2016-02-21T11:32:58Z</time>
      </trkpt>
      <trkpt lat="44.31933" lon="5.87426">
        <ele>760.5400391</ele>
        <time>2016-02-21T11:33:13Z</time>
      </trkpt>
      <trkpt lat="44.31934" lon="5.87422">
        <ele>760.5400391</ele>
        <time>2016-02-21T11:33:28Z</time>
      </trkpt>
      <trkpt lat="44.31934" lon="5.8742">
        <ele>761.9821777</ele>
        <time>2016-02-21T11:33:58Z</time>
      </trkpt>
      <trkpt lat="44.31936" lon="5.87421">
        <ele>763.4240723</ele>
        <time>2016-02-21T11:34:21Z</time>
      </trkpt>
      <trkpt lat="44.31935" lon="5.87424">
        <ele>763.904541</ele>
        <time>2016-02-21T11:35:11Z</time>
      </trkpt>
      <trkpt lat="44.31937" lon="5.87424">
        <ele>763.904541</ele>
        <time>2016-02-21T11:36:14Z</time>
      </trkpt>
      <trkpt lat="44.31936" lon="5.87417">
        <ele>763.904541</ele>
        <time>2016-02-21T11:37:20Z</time>
      </trkpt>
      <trkpt lat="44.31939" lon="5.87419">
        <ele>762.4626465</ele>
        <time>2016-02-21T11:38:11Z</time>
      </trkpt>
      <trkpt lat="44.31939" lon="5.87417">
        <ele>763.904541</ele>
        <time>2016-02-21T11:38:54Z</time>
      </trkpt>
      <trkpt lat="44.31941" lon="5.87418">
        <ele>763.904541</ele>
        <time>2016-02-21T11:39:21Z</time>
      </trkpt>
      <trkpt lat="44.31939" lon="5.87419">
        <ele>761.5014648</ele>
        <time>2016-02-21T11:39:38Z</time>
      </trkpt>
      <trkpt lat="44.31931" lon="5.87427">
        <ele>761.5014648</ele>
        <time>2016-02-21T11:40:17Z</time>
      </trkpt>
      <trkpt lat="44.3193" lon="5.87428">
        <ele>761.020752</ele>
        <time>2016-02-21T11:40:59Z</time>
      </trkpt>
      <trkpt lat="44.31899" lon="5.87436">
        <ele>760.5400391</ele>
        <time>2016-02-21T11:41:12Z</time>
      </trkpt>
      <trkpt lat="44.31881" lon="5.87447">
        <ele>759.5788574</ele>
        <time>2016-02-21T11:41:20Z</time>
      </trkpt>
      <trkpt lat="44.31874" lon="5.8745">
        <ele>758.6174316</ele>
        <time>2016-02-21T11:41:24Z</time>
      </trkpt>
      <trkpt lat="44.3187" lon="5.87451">
        <ele>759.0981445</ele>
        <time>2016-02-21T11:41:26Z</time>
      </trkpt>
      <trkpt lat="44.31857" lon="5.87438">
        <ele>758.1369629</ele>
        <time>2016-02-21T11:41:33Z</time>
      </trkpt>
      <trkpt lat="44.3187" lon="5.87419">
        <ele>756.2141113</ele>
        <time>2016-02-21T11:41:39Z</time>
      </trkpt>
      <trkpt lat="44.31877" lon="5.87415">
        <ele>755.7336426</ele>
        <time>2016-02-21T11:41:41Z</time>
      </trkpt>
      <trkpt lat="44.31901" lon="5.87398">
        <ele>752.3688965</ele>
        <time>2016-02-21T11:41:48Z</time>
      </trkpt>
      <trkpt lat="44.31891" lon="5.87389">
        <ele>751.4077148</ele>
        <time>2016-02-21T11:41:55Z</time>
      </trkpt>
      <trkpt lat="44.31884" lon="5.87392">
        <ele>750.4465332</ele>
        <time>2016-02-21T11:41:57Z</time>
      </trkpt>
      <trkpt lat="44.31865" lon="5.87393">
        <ele>748.0432129</ele>
        <time>2016-02-21T11:42:01Z</time>
      </trkpt>
      <trkpt lat="44.31856" lon="5.87394">
        <ele>746.6010742</ele>
        <time>2016-02-21T11:42:03Z</time>
      </trkpt>
      <trkpt lat="44.31836" lon="5.87395">
        <ele>744.6782227</ele>
        <time>2016-02-21T11:42:07Z</time>
      </trkpt>
      <trkpt lat="44.31824" lon="5.87393">
        <ele>742.7558594</ele>
        <time>2016-02-21T11:42:10Z</time>
      </trkpt>
      <trkpt lat="44.318" lon="5.87383">
        <ele>739.3911133</ele>
        <time>2016-02-21T11:42:18Z</time>
      </trkpt>
      <trkpt lat="44.31789" lon="5.8738">
        <ele>738.4299316</ele>
        <time>2016-02-21T11:42:22Z</time>
      </trkpt>
      <trkpt lat="44.31772" lon="5.8741">
        <ele>737.4685059</ele>
        <time>2016-02-21T11:42:30Z</time>
      </trkpt>
      <trkpt lat="44.31776" lon="5.87457">
        <ele>736.987793</ele>
        <time>2016-02-21T11:42:41Z</time>
      </trkpt>
      <trkpt lat="44.31774" lon="5.87463">
        <ele>736.5073242</ele>
        <time>2016-02-21T11:42:43Z</time>
      </trkpt>
      <trkpt lat="44.31734" lon="5.87489">
        <ele>733.623291</ele>
        <time>2016-02-21T11:42:57Z</time>
      </trkpt>
      <trkpt lat="44.3172" lon="5.87498">
        <ele>732.1813965</ele>
        <time>2016-02-21T11:43:01Z</time>
      </trkpt>
      <trkpt lat="44.31714" lon="5.87499">
        <ele>730.7392578</ele>
        <time>2016-02-21T11:43:03Z</time>
      </trkpt>
      <trkpt lat="44.31702" lon="5.875">
        <ele>728.8166504</ele>
        <time>2016-02-21T11:43:06Z</time>
      </trkpt>
      <trkpt lat="44.31698" lon="5.87496">
        <ele>728.3359375</ele>
        <time>2016-02-21T11:43:08Z</time>
      </trkpt>
      <trkpt lat="44.31698" lon="5.87496">
        <ele>727.8552246</ele>
        <time>2016-02-21T11:43:26Z</time>
      </trkpt>
      <trkpt lat="44.31698" lon="5.87496">
        <ele>728.3359375</ele>
        <time>2016-02-21T11:43:28Z</time>
      </trkpt>
      <trkpt lat="44.3169" lon="5.87496">
        <ele>727.8552246</ele>
        <time>2016-02-21T11:43:31Z</time>
      </trkpt>
      <trkpt lat="44.31675" lon="5.87483">
        <ele>726.4133301</ele>
        <time>2016-02-21T11:43:35Z</time>
      </trkpt>
      <trkpt lat="44.31674" lon="5.87462">
        <ele>724.9714355</ele>
        <time>2016-02-21T11:43:38Z</time>
      </trkpt>
      <trkpt lat="44.31685" lon="5.87408">
        <ele>721.6066895</ele>
        <time>2016-02-21T11:43:44Z</time>
      </trkpt>
      <trkpt lat="44.31686" lon="5.87382">
        <ele>719.6843262</ele>
        <time>2016-02-21T11:43:47Z</time>
      </trkpt>
      <trkpt lat="44.31667" lon="5.8735">
        <ele>717.2810059</ele>
        <time>2016-02-21T11:43:52Z</time>
      </trkpt>
      <trkpt lat="44.31663" lon="5.87346">
        <ele>714.8774414</ele>
        <time>2016-02-21T11:43:53Z</time>
      </trkpt>
      <trkpt lat="44.3165" lon="5.87337">
        <ele>714.3967285</ele>
        <time>2016-02-21T11:43:56Z</time>
      </trkpt>
      <trkpt lat="44.31637" lon="5.87322">
        <ele>712.4741211</ele>
        <time>2016-02-21T11:43:59Z</time>
      </trkpt>
      <trkpt lat="44.31633" lon="5.87306">
        <ele>710.0708008</ele>
        <time>2016-02-21T11:44:01Z</time>
      </trkpt>
      <trkpt lat="44.31633" lon="5.87286">
        <ele>708.1484375</ele>
        <time>2016-02-21T11:44:03Z</time>
      </trkpt>
      <trkpt lat="44.31634" lon="5.87275">
        <ele>707.6677246</ele>
        <time>2016-02-21T11:44:04Z</time>
      </trkpt>
      <trkpt lat="44.31642" lon="5.87233">
        <ele>705.7451172</ele>
        <time>2016-02-21T11:44:08Z</time>
      </trkpt>
      <trkpt lat="44.31647" lon="5.87212">
        <ele>703.8225098</ele>
        <time>2016-02-21T11:44:10Z</time>
      </trkpt>
      <trkpt lat="44.3165" lon="5.87189">
        <ele>702.861084</ele>
        <time>2016-02-21T11:44:12Z</time>
      </trkpt>
      <trkpt lat="44.31652" lon="5.87168">
        <ele>699.4963379</ele>
        <time>2016-02-21T11:44:14Z</time>
      </trkpt>
      <trkpt lat="44.31652" lon="5.87158">
        <ele>699.4963379</ele>
        <time>2016-02-21T11:44:15Z</time>
      </trkpt>
      <trkpt lat="44.31655" lon="5.87139">
        <ele>698.0544434</ele>
        <time>2016-02-21T11:44:17Z</time>
      </trkpt>
      <trkpt lat="44.31658" lon="5.8712">
        <ele>696.1318359</ele>
        <time>2016-02-21T11:44:19Z</time>
      </trkpt>
      <trkpt lat="44.31657" lon="5.87091">
        <ele>691.8059082</ele>
        <time>2016-02-21T11:44:22Z</time>
      </trkpt>
      <trkpt lat="44.31652" lon="5.87073">
        <ele>690.3640137</ele>
        <time>2016-02-21T11:44:24Z</time>
      </trkpt>
      <trkpt lat="44.31637" lon="5.87047">
        <ele>686.9992676</ele>
        <time>2016-02-21T11:44:27Z</time>
      </trkpt>
      <trkpt lat="44.31623" lon="5.87033">
        <ele>686.0380859</ele>
        <time>2016-02-21T11:44:29Z</time>
      </trkpt>
      <trkpt lat="44.31555" lon="5.86985">
        <ele>680.2700195</ele>
        <time>2016-02-21T11:44:37Z</time>
      </trkpt>
      <trkpt lat="44.31546" lon="5.86979">
        <ele>680.2700195</ele>
        <time>2016-02-21T11:44:38Z</time>
      </trkpt>
      <trkpt lat="44.31502" lon="5.86949">
        <ele>677.3862305</ele>
        <time>2016-02-21T11:44:43Z</time>
      </trkpt>
      <trkpt lat="44.31493" lon="5.86943">
        <ele>674.0214844</ele>
        <time>2016-02-21T11:44:44Z</time>
      </trkpt>
      <trkpt lat="44.31484" lon="5.86937">
        <ele>674.0214844</ele>
        <time>2016-02-21T11:44:45Z</time>
      </trkpt>
      <trkpt lat="44.3145" lon="5.86912">
        <ele>670.1762695</ele>
        <time>2016-02-21T11:44:49Z</time>
      </trkpt>
      <trkpt lat="44.31443" lon="5.86905">
        <ele>670.1762695</ele>
        <time>2016-02-21T11:44:50Z</time>
      </trkpt>
      <trkpt lat="44.31431" lon="5.8689">
        <ele>668.734375</ele>
        <time>2016-02-21T11:44:52Z</time>
      </trkpt>
      <trkpt lat="44.31396" lon="5.86813">
        <ele>664.888916</ele>
        <time>2016-02-21T11:45:00Z</time>
      </trkpt>
      <trkpt lat="44.31391" lon="5.86804">
        <ele>664.888916</ele>
        <time>2016-02-21T11:45:01Z</time>
      </trkpt>
      <trkpt lat="44.31383" lon="5.86787">
        <ele>663.4470215</ele>
        <time>2016-02-21T11:45:03Z</time>
      </trkpt>
      <trkpt lat="44.31372" lon="5.86762">
        <ele>660.5629883</ele>
        <time>2016-02-21T11:45:06Z</time>
      </trkpt>
      <trkpt lat="44.31364" lon="5.86747">
        <ele>659.1210938</ele>
        <time>2016-02-21T11:45:08Z</time>
      </trkpt>
      <trkpt lat="44.31338" lon="5.86713">
        <ele>656.2370605</ele>
        <time>2016-02-21T11:45:13Z</time>
      </trkpt>
      <trkpt lat="44.31328" lon="5.86701">
        <ele>654.795166</ele>
        <time>2016-02-21T11:45:15Z</time>
      </trkpt>
      <trkpt lat="44.31322" lon="5.86695">
        <ele>652.8725586</ele>
        <time>2016-02-21T11:45:16Z</time>
      </trkpt>
      <trkpt lat="44.3127" lon="5.86667">
        <ele>649.5078125</ele>
        <time>2016-02-21T11:45:23Z</time>
      </trkpt>
      <trkpt lat="44.31262" lon="5.86664">
        <ele>649.5078125</ele>
        <time>2016-02-21T11:45:24Z</time>
      </trkpt>
      <trkpt lat="44.31239" lon="5.86653">
        <ele>647.5852051</ele>
        <time>2016-02-21T11:45:27Z</time>
      </trkpt>
      <trkpt lat="44.31202" lon="5.86635">
        <ele>644.7011719</ele>
        <time>2016-02-21T11:45:32Z</time>
      </trkpt>
      <trkpt lat="44.31189" lon="5.86625">
        <ele>643.7399902</ele>
        <time>2016-02-21T11:45:34Z</time>
      </trkpt>
      <trkpt lat="44.31167" lon="5.86597">
        <ele>642.7788086</ele>
        <time>2016-02-21T11:45:38Z</time>
      </trkpt>
      <trkpt lat="44.31149" lon="5.86562">
        <ele>640.3754883</ele>
        <time>2016-02-21T11:45:42Z</time>
      </trkpt>
      <trkpt lat="44.31114" lon="5.86485">
        <ele>638.4528809</ele>
        <time>2016-02-21T11:45:50Z</time>
      </trkpt>
      <trkpt lat="44.31088" lon="5.86455">
        <ele>636.0495605</ele>
        <time>2016-02-21T11:45:54Z</time>
      </trkpt>
      <trkpt lat="44.31064" lon="5.86446">
        <ele>635.5686035</ele>
        <time>2016-02-21T11:45:57Z</time>
      </trkpt>
      <trkpt lat="44.31047" lon="5.86443">
        <ele>634.126709</ele>
        <time>2016-02-21T11:45:59Z</time>
      </trkpt>
      <trkpt lat="44.31003" lon="5.86439">
        <ele>631.7233887</ele>
        <time>2016-02-21T11:46:04Z</time>
      </trkpt>
      <trkpt lat="44.30944" lon="5.8643">
        <ele>628.3588867</ele>
        <time>2016-02-21T11:46:10Z</time>
      </trkpt>
      <trkpt lat="44.30934" lon="5.86428">
        <ele>628.3588867</ele>
        <time>2016-02-21T11:46:11Z</time>
      </trkpt>
      <trkpt lat="44.30913" lon="5.86424">
        <ele>626.9169922</ele>
        <time>2016-02-21T11:46:13Z</time>
      </trkpt>
      <trkpt lat="44.30896" lon="5.8642">
        <ele>625.4748535</ele>
        <time>2016-02-21T11:46:15Z</time>
      </trkpt>
      <trkpt lat="44.3088" lon="5.86416">
        <ele>623.5524902</ele>
        <time>2016-02-21T11:46:17Z</time>
      </trkpt>
      <trkpt lat="44.30852" lon="5.86393">
        <ele>622.5910645</ele>
        <time>2016-02-21T11:46:21Z</time>
      </trkpt>
      <trkpt lat="44.3079" lon="5.863">
        <ele>619.7070313</ele>
        <time>2016-02-21T11:46:34Z</time>
      </trkpt>
      <trkpt lat="44.30757" lon="5.8625">
        <ele>618.2648926</ele>
        <time>2016-02-21T11:46:41Z</time>
      </trkpt>
      <trkpt lat="44.30731" lon="5.86206">
        <ele>614.9003906</ele>
        <time>2016-02-21T11:46:47Z</time>
      </trkpt>
      <trkpt lat="44.30727" lon="5.86199">
        <ele>614.9003906</ele>
        <time>2016-02-21T11:46:48Z</time>
      </trkpt>
      <trkpt lat="44.30709" lon="5.86171">
        <ele>611.5358887</ele>
        <time>2016-02-21T11:46:53Z</time>
      </trkpt>
      <trkpt lat="44.30683" lon="5.86142">
        <ele>609.6132813</ele>
        <time>2016-02-21T11:47:04Z</time>
      </trkpt>
      <trkpt lat="44.30683" lon="5.86142">
        <ele>610.09375</ele>
        <time>2016-02-21T11:47:18Z</time>
      </trkpt>
      <trkpt lat="44.3068" lon="5.86141">
        <ele>609.1325684</ele>
        <time>2016-02-21T11:47:36Z</time>
      </trkpt>
      <trkpt lat="44.30667" lon="5.86165">
        <ele>611.5358887</ele>
        <time>2016-02-21T11:47:46Z</time>
      </trkpt>
      <trkpt lat="44.30664" lon="5.86176">
        <ele>611.5358887</ele>
        <time>2016-02-21T11:47:50Z</time>
      </trkpt>
      <trkpt lat="44.30666" lon="5.86229">
        <ele>613.9389648</ele>
        <time>2016-02-21T11:48:05Z</time>
      </trkpt>
      <trkpt lat="44.30668" lon="5.86244">
        <ele>613.4584961</ele>
        <time>2016-02-21T11:48:09Z</time>
      </trkpt>
      <trkpt lat="44.3068" lon="5.86301">
        <ele>615.8618164</ele>
        <time>2016-02-21T11:48:26Z</time>
      </trkpt>
      <trkpt lat="44.30694" lon="5.86337">
        <ele>616.3422852</ele>
        <time>2016-02-21T11:48:38Z</time>
      </trkpt>
      <trkpt lat="44.3071" lon="5.86372">
        <ele>617.3037109</ele>
        <time>2016-02-21T11:48:51Z</time>
      </trkpt>
      <trkpt lat="44.30733" lon="5.86414">
        <ele>618.7456055</ele>
        <time>2016-02-21T11:49:07Z</time>
      </trkpt>
      <trkpt lat="44.30744" lon="5.86436">
        <ele>620.1877441</ele>
        <time>2016-02-21T11:49:16Z</time>
      </trkpt>
      <trkpt lat="44.30762" lon="5.86473">
        <ele>621.6296387</ele>
        <time>2016-02-21T11:49:32Z</time>
      </trkpt>
      <trkpt lat="44.30774" lon="5.86504">
        <ele>623.0717773</ele>
        <time>2016-02-21T11:49:45Z</time>
      </trkpt>
      <trkpt lat="44.30783" lon="5.86532">
        <ele>624.5136719</ele>
        <time>2016-02-21T11:49:56Z</time>
      </trkpt>
      <trkpt lat="44.30793" lon="5.86564">
        <ele>625.9555664</ele>
        <time>2016-02-21T11:50:09Z</time>
      </trkpt>
      <trkpt lat="44.30799" lon="5.86608">
        <ele>627.8781738</ele>
        <time>2016-02-21T11:50:26Z</time>
      </trkpt>
      <trkpt lat="44.30802" lon="5.86642">
        <ele>629.8007813</ele>
        <time>2016-02-21T11:50:39Z</time>
      </trkpt>
      <trkpt lat="44.30809" lon="5.8668">
        <ele>631.2429199</ele>
        <time>2016-02-21T11:50:54Z</time>
      </trkpt>
      <trkpt lat="44.30815" lon="5.86722">
        <ele>633.1652832</ele>
        <time>2016-02-21T11:51:10Z</time>
      </trkpt>
      <trkpt lat="44.30818" lon="5.86755">
        <ele>634.6074219</ele>
        <time>2016-02-21T11:51:23Z</time>
      </trkpt>
      <trkpt lat="44.30823" lon="5.86812">
        <ele>637.4914551</ele>
        <time>2016-02-21T11:51:43Z</time>
      </trkpt>
      <trkpt lat="44.30821" lon="5.8688">
        <ele>639.4140625</ele>
        <time>2016-02-21T11:52:06Z</time>
      </trkpt>
      <trkpt lat="44.30814" lon="5.86932">
        <ele>641.8173828</ele>
        <time>2016-02-21T11:52:24Z</time>
      </trkpt>
      <trkpt lat="44.30797" lon="5.86998">
        <ele>643.7399902</ele>
        <time>2016-02-21T11:52:46Z</time>
      </trkpt>
      <trkpt lat="44.30759" lon="5.87073">
        <ele>645.1818848</ele>
        <time>2016-02-21T11:53:14Z</time>
      </trkpt>
      <trkpt lat="44.30727" lon="5.87124">
        <ele>647.5852051</ele>
        <time>2016-02-21T11:53:35Z</time>
      </trkpt>
      <trkpt lat="44.30691" lon="5.87178">
        <ele>649.5078125</ele>
        <time>2016-02-21T11:53:57Z</time>
      </trkpt>
      <trkpt lat="44.30656" lon="5.87236">
        <ele>651.9111328</ele>
        <time>2016-02-21T11:54:22Z</time>
      </trkpt>
      <trkpt lat="44.3062" lon="5.8729">
        <ele>654.3146973</ele>
        <time>2016-02-21T11:54:45Z</time>
      </trkpt>
      <trkpt lat="44.30588" lon="5.87346">
        <ele>656.7177734</ele>
        <time>2016-02-21T11:55:08Z</time>
      </trkpt>
      <trkpt lat="44.30563" lon="5.87398">
        <ele>657.6791992</ele>
        <time>2016-02-21T11:55:28Z</time>
      </trkpt>
      <trkpt lat="44.30541" lon="5.87433">
        <ele>659.6018066</ele>
        <time>2016-02-21T11:55:42Z</time>
      </trkpt>
      <trkpt lat="44.30532" lon="5.87476">
        <ele>662.005127</ele>
        <time>2016-02-21T11:55:58Z</time>
      </trkpt>
      <trkpt lat="44.30532" lon="5.87496">
        <ele>662.4855957</ele>
        <time>2016-02-21T11:56:05Z</time>
      </trkpt>
      <trkpt lat="44.30531" lon="5.87501">
        <ele>663.4470215</ele>
        <time>2016-02-21T11:56:07Z</time>
      </trkpt>
      <trkpt lat="44.30528" lon="5.87538">
        <ele>664.888916</ele>
        <time>2016-02-21T11:56:20Z</time>
      </trkpt>
      <trkpt lat="44.30527" lon="5.87555">
        <ele>664.4082031</ele>
        <time>2016-02-21T11:56:32Z</time>
      </trkpt>
      <trkpt lat="44.30525" lon="5.87553">
        <ele>663.9274902</ele>
        <time>2016-02-21T11:56:57Z</time>
      </trkpt>
      <trkpt lat="44.30523" lon="5.87548">
        <ele>664.4082031</ele>
        <time>2016-02-21T11:57:00Z</time>
      </trkpt>
      <trkpt lat="44.30496" lon="5.87533">
        <ele>665.8503418</ele>
        <time>2016-02-21T11:57:13Z</time>
      </trkpt>
      <trkpt lat="44.30461" lon="5.87511">
        <ele>669.2150879</ele>
        <time>2016-02-21T11:57:30Z</time>
      </trkpt>
      <trkpt lat="44.30447" lon="5.87513">
        <ele>669.2150879</ele>
        <time>2016-02-21T11:57:36Z</time>
      </trkpt>
      <trkpt lat="44.30417" lon="5.8752">
        <ele>671.1376953</ele>
        <time>2016-02-21T11:57:48Z</time>
      </trkpt>
      <trkpt lat="44.30369" lon="5.87531">
        <ele>669.2150879</ele>
        <time>2016-02-21T11:58:00Z</time>
      </trkpt>
      <trkpt lat="44.30288" lon="5.87549">
        <ele>668.734375</ele>
        <time>2016-02-21T11:58:16Z</time>
      </trkpt>
      <trkpt lat="44.30218" lon="5.87566">
        <ele>668.2536621</ele>
        <time>2016-02-21T11:58:31Z</time>
      </trkpt>
      <trkpt lat="44.30199" lon="5.8758">
        <ele>668.734375</ele>
        <time>2016-02-21T11:58:35Z</time>
      </trkpt>
      <trkpt lat="44.30177" lon="5.87607">
        <ele>665.8503418</ele>
        <time>2016-02-21T11:58:40Z</time>
      </trkpt>
      <trkpt lat="44.30175" lon="5.87611">
        <ele>665.8503418</ele>
        <time>2016-02-21T11:58:41Z</time>
      </trkpt>
      <trkpt lat="44.30138" lon="5.87665">
        <ele>663.4470215</ele>
        <time>2016-02-21T11:58:54Z</time>
      </trkpt>
      <trkpt lat="44.30117" lon="5.8768">
        <ele>661.0437012</ele>
        <time>2016-02-21T11:58:59Z</time>
      </trkpt>
      <trkpt lat="44.30107" lon="5.87687">
        <ele>659.6018066</ele>
        <time>2016-02-21T11:59:02Z</time>
      </trkpt>
      <trkpt lat="44.30088" lon="5.87698">
        <ele>658.6403809</ele>
        <time>2016-02-21T11:59:06Z</time>
      </trkpt>
      <trkpt lat="44.30068" lon="5.87707">
        <ele>658.6403809</ele>
        <time>2016-02-21T11:59:09Z</time>
      </trkpt>
      <trkpt lat="44.29995" lon="5.87746">
        <ele>654.3146973</ele>
        <time>2016-02-21T11:59:19Z</time>
      </trkpt>
      <trkpt lat="44.29973" lon="5.8777">
        <ele>651.9111328</ele>
        <time>2016-02-21T11:59:23Z</time>
      </trkpt>
      <trkpt lat="44.2995" lon="5.87815">
        <ele>650.4692383</ele>
        <time>2016-02-21T11:59:29Z</time>
      </trkpt>
      <trkpt lat="44.29926" lon="5.87842">
        <ele>649.0270996</ele>
        <time>2016-02-21T11:59:34Z</time>
      </trkpt>
      <trkpt lat="44.29895" lon="5.87856">
        <ele>646.6240234</ele>
        <time>2016-02-21T11:59:39Z</time>
      </trkpt>
      <trkpt lat="44.29866" lon="5.8787">
        <ele>644.2207031</ele>
        <time>2016-02-21T11:59:43Z</time>
      </trkpt>
      <trkpt lat="44.29796" lon="5.87896">
        <ele>642.2980957</ele>
        <time>2016-02-21T11:59:53Z</time>
      </trkpt>
      <trkpt lat="44.29774" lon="5.87898">
        <ele>641.8173828</ele>
        <time>2016-02-21T11:59:57Z</time>
      </trkpt>
      <trkpt lat="44.2969" lon="5.87861">
        <ele>639.4140625</ele>
        <time>2016-02-21T12:00:14Z</time>
      </trkpt>
      <trkpt lat="44.2965" lon="5.87869">
        <ele>638.9335938</ele>
        <time>2016-02-21T12:00:29Z</time>
      </trkpt>
      <trkpt lat="44.29632" lon="5.87835">
        <ele>638.9335938</ele>
        <time>2016-02-21T12:00:40Z</time>
      </trkpt>
      <trkpt lat="44.29602" lon="5.87763">
        <ele>639.4140625</ele>
        <time>2016-02-21T12:00:55Z</time>
      </trkpt>
      <trkpt lat="44.2955" lon="5.87692">
        <ele>639.8947754</ele>
        <time>2016-02-21T12:01:13Z</time>
      </trkpt>
      <trkpt lat="44.29506" lon="5.87669">
        <ele>639.8947754</ele>
        <time>2016-02-21T12:01:24Z</time>
      </trkpt>
      <trkpt lat="44.29423" lon="5.87627">
        <ele>639.4140625</ele>
        <time>2016-02-21T12:01:46Z</time>
      </trkpt>
      <trkpt lat="44.29372" lon="5.87602">
        <ele>641.3366699</ele>
        <time>2016-02-21T12:02:03Z</time>
      </trkpt>
      <trkpt lat="44.29346" lon="5.87572">
        <ele>642.2980957</ele>
        <time>2016-02-21T12:02:17Z</time>
      </trkpt>
      <trkpt lat="44.29325" lon="5.87506">
        <ele>642.7788086</ele>
        <time>2016-02-21T12:02:31Z</time>
      </trkpt>
      <trkpt lat="44.29276" lon="5.87439">
        <ele>641.8173828</ele>
        <time>2016-02-21T12:02:48Z</time>
      </trkpt>
      <trkpt lat="44.29252" lon="5.8741">
        <ele>641.8173828</ele>
        <time>2016-02-21T12:02:56Z</time>
      </trkpt>
      <trkpt lat="44.29208" lon="5.87383">
        <ele>641.3366699</ele>
        <time>2016-02-21T12:03:08Z</time>
      </trkpt>
      <trkpt lat="44.29139" lon="5.87329">
        <ele>641.3366699</ele>
        <time>2016-02-21T12:03:26Z</time>
      </trkpt>
      <trkpt lat="44.29099" lon="5.87293">
        <ele>641.3366699</ele>
        <time>2016-02-21T12:03:38Z</time>
      </trkpt>
      <trkpt lat="44.29095" lon="5.8729">
        <ele>641.3366699</ele>
        <time>2016-02-21T12:03:39Z</time>
      </trkpt>
      <trkpt lat="44.29082" lon="5.87282">
        <ele>641.3366699</ele>
        <time>2016-02-21T12:03:42Z</time>
      </trkpt>
      <trkpt lat="44.2906" lon="5.87265">
        <ele>641.3366699</ele>
        <time>2016-02-21T12:03:47Z</time>
      </trkpt>
      <trkpt lat="44.29005" lon="5.87208">
        <ele>641.3366699</ele>
        <time>2016-02-21T12:04:02Z</time>
      </trkpt>
      <trkpt lat="44.28967" lon="5.8716">
        <ele>640.855957</ele>
        <time>2016-02-21T12:04:13Z</time>
      </trkpt>
      <trkpt lat="44.28955" lon="5.87143">
        <ele>640.855957</ele>
        <time>2016-02-21T12:04:17Z</time>
      </trkpt>
      <trkpt lat="44.28942" lon="5.87129">
        <ele>640.855957</ele>
        <time>2016-02-21T12:04:21Z</time>
      </trkpt>
      <trkpt lat="44.28926" lon="5.87114">
        <ele>640.855957</ele>
        <time>2016-02-21T12:04:25Z</time>
      </trkpt>
      <trkpt lat="44.28896" lon="5.87089">
        <ele>640.855957</ele>
        <time>2016-02-21T12:04:33Z</time>
      </trkpt>
      <trkpt lat="44.28885" lon="5.87081">
        <ele>640.855957</ele>
        <time>2016-02-21T12:04:36Z</time>
      </trkpt>
      <trkpt lat="44.28857" lon="5.87066">
        <ele>640.855957</ele>
        <time>2016-02-21T12:04:43Z</time>
      </trkpt>
      <trkpt lat="44.28807" lon="5.87017">
        <ele>641.3366699</ele>
        <time>2016-02-21T12:04:57Z</time>
      </trkpt>
      <trkpt lat="44.28796" lon="5.8701">
        <ele>641.8173828</ele>
        <time>2016-02-21T12:05:00Z</time>
      </trkpt>
      <trkpt lat="44.28723" lon="5.8695">
        <ele>641.3366699</ele>
        <time>2016-02-21T12:05:19Z</time>
      </trkpt>
      <trkpt lat="44.28699" lon="5.86934">
        <ele>641.8173828</ele>
        <time>2016-02-21T12:05:25Z</time>
      </trkpt>
      <trkpt lat="44.28629" lon="5.86867">
        <ele>640.855957</ele>
        <time>2016-02-21T12:05:42Z</time>
      </trkpt>
      <trkpt lat="44.2854" lon="5.86785">
        <ele>640.855957</ele>
        <time>2016-02-21T12:06:02Z</time>
      </trkpt>
      <trkpt lat="44.28474" lon="5.86746">
        <ele>637.972168</ele>
        <time>2016-02-21T12:06:14Z</time>
      </trkpt>
      <trkpt lat="44.2846" lon="5.86734">
        <ele>637.972168</ele>
        <time>2016-02-21T12:06:17Z</time>
      </trkpt>
      <trkpt lat="44.28452" lon="5.86724">
        <ele>639.8947754</ele>
        <time>2016-02-21T12:06:19Z</time>
      </trkpt>
      <trkpt lat="44.28444" lon="5.86711">
        <ele>640.3754883</ele>
        <time>2016-02-21T12:06:21Z</time>
      </trkpt>
      <trkpt lat="44.2843" lon="5.86671">
        <ele>639.4140625</ele>
        <time>2016-02-21T12:06:26Z</time>
      </trkpt>
      <trkpt lat="44.28427" lon="5.86619">
        <ele>637.0107422</ele>
        <time>2016-02-21T12:06:31Z</time>
      </trkpt>
      <trkpt lat="44.28429" lon="5.86554">
        <ele>635.5686035</ele>
        <time>2016-02-21T12:06:37Z</time>
      </trkpt>
      <trkpt lat="44.28406" lon="5.86449">
        <ele>633.1652832</ele>
        <time>2016-02-21T12:06:50Z</time>
      </trkpt>
      <trkpt lat="44.28405" lon="5.86381">
        <ele>633.6459961</ele>
        <time>2016-02-21T12:07:05Z</time>
      </trkpt>
      <trkpt lat="44.28385" lon="5.86316">
        <ele>636.0495605</ele>
        <time>2016-02-21T12:07:21Z</time>
      </trkpt>
      <trkpt lat="44.28355" lon="5.86254">
        <ele>637.0107422</ele>
        <time>2016-02-21T12:07:37Z</time>
      </trkpt>
      <trkpt lat="44.28324" lon="5.86198">
        <ele>636.5302734</ele>
        <time>2016-02-21T12:07:52Z</time>
      </trkpt>
      <trkpt lat="44.28297" lon="5.86159">
        <ele>636.0495605</ele>
        <time>2016-02-21T12:08:01Z</time>
      </trkpt>
      <trkpt lat="44.28235" lon="5.86094">
        <ele>635.5686035</ele>
        <time>2016-02-21T12:08:18Z</time>
      </trkpt>
      <trkpt lat="44.28169" lon="5.86017">
        <ele>633.1652832</ele>
        <time>2016-02-21T12:08:35Z</time>
      </trkpt>
      <trkpt lat="44.28112" lon="5.85956">
        <ele>633.6459961</ele>
        <time>2016-02-21T12:08:53Z</time>
      </trkpt>
      <trkpt lat="44.2805" lon="5.85912">
        <ele>634.6074219</ele>
        <time>2016-02-21T12:09:08Z</time>
      </trkpt>
      <trkpt lat="44.28045" lon="5.85909">
        <ele>633.6459961</ele>
        <time>2016-02-21T12:09:09Z</time>
      </trkpt>
      <trkpt lat="44.28" lon="5.85884">
        <ele>630.2814941</ele>
        <time>2016-02-21T12:09:18Z</time>
      </trkpt>
      <trkpt lat="44.27991" lon="5.85879">
        <ele>631.2429199</ele>
        <time>2016-02-21T12:09:20Z</time>
      </trkpt>
      <trkpt lat="44.27947" lon="5.85851">
        <ele>626.9169922</ele>
        <time>2016-02-21T12:09:28Z</time>
      </trkpt>
      <trkpt lat="44.27943" lon="5.85848">
        <ele>626.9169922</ele>
        <time>2016-02-21T12:09:29Z</time>
      </trkpt>
      <trkpt lat="44.27938" lon="5.85845">
        <ele>626.4362793</ele>
        <time>2016-02-21T12:09:30Z</time>
      </trkpt>
      <trkpt lat="44.27925" lon="5.85838">
        <ele>624.9943848</ele>
        <time>2016-02-21T12:09:34Z</time>
      </trkpt>
      <trkpt lat="44.27923" lon="5.85836">
        <ele>624.9943848</ele>
        <time>2016-02-21T12:09:35Z</time>
      </trkpt>
      <trkpt lat="44.27869" lon="5.8582">
        <ele>624.9943848</ele>
        <time>2016-02-21T12:09:49Z</time>
      </trkpt>
      <trkpt lat="44.2781" lon="5.85792">
        <ele>624.032959</ele>
        <time>2016-02-21T12:10:03Z</time>
      </trkpt>
      <trkpt lat="44.27796" lon="5.8578">
        <ele>624.032959</ele>
        <time>2016-02-21T12:10:07Z</time>
      </trkpt>
      <trkpt lat="44.27761" lon="5.85735">
        <ele>624.5136719</ele>
        <time>2016-02-21T12:10:23Z</time>
      </trkpt>
      <trkpt lat="44.27737" lon="5.857">
        <ele>621.6296387</ele>
        <time>2016-02-21T12:10:32Z</time>
      </trkpt>
      <trkpt lat="44.27722" lon="5.85674">
        <ele>620.1877441</ele>
        <time>2016-02-21T12:10:36Z</time>
      </trkpt>
      <trkpt lat="44.27698" lon="5.85639">
        <ele>622.5910645</ele>
        <time>2016-02-21T12:10:41Z</time>
      </trkpt>
      <trkpt lat="44.27657" lon="5.85597">
        <ele>621.1491699</ele>
        <time>2016-02-21T12:10:48Z</time>
      </trkpt>
      <trkpt lat="44.27609" lon="5.85567">
        <ele>618.2648926</ele>
        <time>2016-02-21T12:10:55Z</time>
      </trkpt>
      <trkpt lat="44.2756" lon="5.85534">
        <ele>617.3037109</ele>
        <time>2016-02-21T12:11:03Z</time>
      </trkpt>
      <trkpt lat="44.27537" lon="5.85508">
        <ele>615.8618164</ele>
        <time>2016-02-21T12:11:08Z</time>
      </trkpt>
      <trkpt lat="44.27497" lon="5.85429">
        <ele>614.4196777</ele>
        <time>2016-02-21T12:11:22Z</time>
      </trkpt>
      <trkpt lat="44.27478" lon="5.85385">
        <ele>611.5358887</ele>
        <time>2016-02-21T12:11:35Z</time>
      </trkpt>
      <trkpt lat="44.27478" lon="5.85386">
        <ele>612.9777832</ele>
        <time>2016-02-21T12:12:53Z</time>
      </trkpt>
      <trkpt lat="44.27467" lon="5.85379">
        <ele>613.4584961</ele>
        <time>2016-02-21T12:12:59Z</time>
      </trkpt>
      <trkpt lat="44.27389" lon="5.85373">
        <ele>614.4196777</ele>
        <time>2016-02-21T12:13:18Z</time>
      </trkpt>
      <trkpt lat="44.27337" lon="5.85354">
        <ele>617.7841797</ele>
        <time>2016-02-21T12:13:35Z</time>
      </trkpt>
      <trkpt lat="44.27318" lon="5.8535">
        <ele>619.2263184</ele>
        <time>2016-02-21T12:13:41Z</time>
      </trkpt>
      <trkpt lat="44.27308" lon="5.8535">
        <ele>617.3037109</ele>
        <time>2016-02-21T12:13:44Z</time>
      </trkpt>
      <trkpt lat="44.27247" lon="5.85351">
        <ele>618.7456055</ele>
        <time>2016-02-21T12:14:03Z</time>
      </trkpt>
      <trkpt lat="44.272" lon="5.85351">
        <ele>621.1491699</ele>
        <time>2016-02-21T12:14:20Z</time>
      </trkpt>
      <trkpt lat="44.27149" lon="5.85371">
        <ele>622.5910645</ele>
        <time>2016-02-21T12:14:38Z</time>
      </trkpt>
      <trkpt lat="44.27127" lon="5.85398">
        <ele>624.032959</ele>
        <time>2016-02-21T12:14:46Z</time>
      </trkpt>
      <trkpt lat="44.27102" lon="5.85459">
        <ele>622.1103516</ele>
        <time>2016-02-21T12:14:59Z</time>
      </trkpt>
      <trkpt lat="44.27103" lon="5.8546">
        <ele>622.1103516</ele>
        <time>2016-02-21T12:15:12Z</time>
      </trkpt>
      <trkpt lat="44.27116" lon="5.85456">
        <ele>622.5910645</ele>
        <time>2016-02-21T12:15:27Z</time>
      </trkpt>
      <trkpt lat="44.27117" lon="5.85456">
        <ele>622.5910645</ele>
        <time>2016-02-21T12:15:30Z</time>
      </trkpt>
      <trkpt lat="44.27124" lon="5.85462">
        <ele>623.0717773</ele>
        <time>2016-02-21T12:15:35Z</time>
      </trkpt>
      <trkpt lat="44.27172" lon="5.85493">
        <ele>623.0717773</ele>
        <time>2016-02-21T12:15:51Z</time>
      </trkpt>
      <trkpt lat="44.2723" lon="5.85539">
        <ele>624.032959</ele>
        <time>2016-02-21T12:16:08Z</time>
      </trkpt>
      <trkpt lat="44.27275" lon="5.85605">
        <ele>624.5136719</ele>
        <time>2016-02-21T12:16:26Z</time>
      </trkpt>
      <trkpt lat="44.27313" lon="5.85661">
        <ele>625.9555664</ele>
        <time>2016-02-21T12:16:43Z</time>
      </trkpt>
      <trkpt lat="44.27343" lon="5.85698">
        <ele>626.9169922</ele>
        <time>2016-02-21T12:16:58Z</time>
      </trkpt>
      <trkpt lat="44.27368" lon="5.8573">
        <ele>629.8007813</ele>
        <time>2016-02-21T12:17:10Z</time>
      </trkpt>
      <trkpt lat="44.27387" lon="5.85759">
        <ele>630.2814941</ele>
        <time>2016-02-21T12:17:21Z</time>
      </trkpt>
      <trkpt lat="44.27391" lon="5.85778">
        <ele>629.8007813</ele>
        <time>2016-02-21T12:17:31Z</time>
      </trkpt>
      <trkpt lat="44.27391" lon="5.85779">
        <ele>629.8007813</ele>
        <time>2016-02-21T12:17:48Z</time>
      </trkpt>
      <trkpt lat="44.27416" lon="5.85784">
        <ele>628.3588867</ele>
        <time>2016-02-21T12:17:58Z</time>
      </trkpt>
      <trkpt lat="44.27421" lon="5.85781">
        <ele>628.3588867</ele>
        <time>2016-02-21T12:18:07Z</time>
      </trkpt>
      <trkpt lat="44.27418" lon="5.85773">
        <ele>627.3977051</ele>
        <time>2016-02-21T12:18:27Z</time>
      </trkpt>
      <trkpt lat="44.27419" lon="5.85775">
        <ele>627.8781738</ele>
        <time>2016-02-21T12:18:33Z</time>
      </trkpt>
      <trkpt lat="44.27395" lon="5.85791">
        <ele>629.3200684</ele>
        <time>2016-02-21T12:18:47Z</time>
      </trkpt>
      <trkpt lat="44.2738" lon="5.85805">
        <ele>631.2429199</ele>
        <time>2016-02-21T12:18:56Z</time>
      </trkpt>
      <trkpt lat="44.2737" lon="5.85811">
        <ele>631.7233887</ele>
        <time>2016-02-21T12:19:01Z</time>
      </trkpt>
      <trkpt lat="44.2736" lon="5.85817">
        <ele>633.6459961</ele>
        <time>2016-02-21T12:19:06Z</time>
      </trkpt>
      <trkpt lat="44.27343" lon="5.85827">
        <ele>632.6848145</ele>
        <time>2016-02-21T12:19:13Z</time>
      </trkpt>
      <trkpt lat="44.27346" lon="5.85829">
        <ele>632.6848145</ele>
        <time>2016-02-21T12:19:18Z</time>
      </trkpt>
      <trkpt lat="44.27389" lon="5.85799">
        <ele>631.7233887</ele>
        <time>2016-02-21T12:19:33Z</time>
      </trkpt>
      <trkpt lat="44.27394" lon="5.85796">
        <ele>630.2814941</ele>
        <time>2016-02-21T12:19:34Z</time>
      </trkpt>
      <trkpt lat="44.27402" lon="5.85789">
        <ele>628.8395996</ele>
        <time>2016-02-21T12:19:36Z</time>
      </trkpt>
      <trkpt lat="44.27434" lon="5.85762">
        <ele>627.3977051</ele>
        <time>2016-02-21T12:19:43Z</time>
      </trkpt>
      <trkpt lat="44.27462" lon="5.85743">
        <ele>628.3588867</ele>
        <time>2016-02-21T12:19:54Z</time>
      </trkpt>
      <trkpt lat="44.27464" lon="5.85741">
        <ele>627.8781738</ele>
        <time>2016-02-21T12:20:05Z</time>
      </trkpt>
      <trkpt lat="44.27463" lon="5.85741">
        <ele>627.3977051</ele>
        <time>2016-02-21T12:20:13Z</time>
      </trkpt>
      <trkpt lat="44.27427" lon="5.85762">
        <ele>627.3977051</ele>
        <time>2016-02-21T12:20:28Z</time>
      </trkpt>
      <trkpt lat="44.27416" lon="5.85771">
        <ele>628.3588867</ele>
        <time>2016-02-21T12:20:33Z</time>
      </trkpt>
      <trkpt lat="44.27412" lon="5.85771">
        <ele>628.3588867</ele>
        <time>2016-02-21T12:20:45Z</time>
      </trkpt>
      <trkpt lat="44.27413" lon="5.85774">
        <ele>627.3977051</ele>
        <time>2016-02-21T12:21:25Z</time>
      </trkpt>
      <trkpt lat="44.27414" lon="5.85776">
        <ele>627.8781738</ele>
        <time>2016-02-21T12:23:42Z</time>
      </trkpt>
      <trkpt lat="44.27415" lon="5.85779">
        <ele>628.3588867</ele>
        <time>2016-02-21T12:23:44Z</time>
      </trkpt>
      <trkpt lat="44.27438" lon="5.8578">
        <ele>625.9555664</ele>
        <time>2016-02-21T12:23:53Z</time>
      </trkpt>
      <trkpt lat="44.27443" lon="5.85779">
        <ele>625.4748535</ele>
        <time>2016-02-21T12:23:54Z</time>
      </trkpt>
      <trkpt lat="44.27463" lon="5.85776">
        <ele>622.5910645</ele>
        <time>2016-02-21T12:23:59Z</time>
      </trkpt>
      <trkpt lat="44.27465" lon="5.85802">
        <ele>621.6296387</ele>
        <time>2016-02-21T12:24:05Z</time>
      </trkpt>
      <trkpt lat="44.27458" lon="5.85811">
        <ele>620.1877441</ele>
        <time>2016-02-21T12:24:07Z</time>
      </trkpt>
      <trkpt lat="44.2745" lon="5.85823">
        <ele>618.7456055</ele>
        <time>2016-02-21T12:24:09Z</time>
      </trkpt>
      <trkpt lat="44.27442" lon="5.85836">
        <ele>618.7456055</ele>
        <time>2016-02-21T12:24:11Z</time>
      </trkpt>
      <trkpt lat="44.27434" lon="5.85858">
        <ele>615.8618164</ele>
        <time>2016-02-21T12:24:14Z</time>
      </trkpt>
      <trkpt lat="44.27436" lon="5.85902">
        <ele>614.4196777</ele>
        <time>2016-02-21T12:24:18Z</time>
      </trkpt>
      <trkpt lat="44.27465" lon="5.8602">
        <ele>610.5744629</ele>
        <time>2016-02-21T12:24:27Z</time>
      </trkpt>
      <trkpt lat="44.27492" lon="5.86105">
        <ele>607.2099609</ele>
        <time>2016-02-21T12:24:35Z</time>
      </trkpt>
      <trkpt lat="44.27506" lon="5.86157">
        <ele>607.6906738</ele>
        <time>2016-02-21T12:24:41Z</time>
      </trkpt>
      <trkpt lat="44.27514" lon="5.86226">
        <ele>609.1325684</ele>
        <time>2016-02-21T12:24:52Z</time>
      </trkpt>
      <trkpt lat="44.27513" lon="5.8628">
        <ele>611.5358887</ele>
        <time>2016-02-21T12:25:09Z</time>
      </trkpt>
      <trkpt lat="44.27512" lon="5.86288">
        <ele>612.9777832</ele>
        <time>2016-02-21T12:25:12Z</time>
      </trkpt>
      <trkpt lat="44.27513" lon="5.86295">
        <ele>612.9777832</ele>
        <time>2016-02-21T12:25:16Z</time>
      </trkpt>
      <trkpt lat="44.27514" lon="5.86304">
        <ele>613.9389648</ele>
        <time>2016-02-21T12:25:20Z</time>
      </trkpt>
      <trkpt lat="44.27528" lon="5.86334">
        <ele>616.3422852</ele>
        <time>2016-02-21T12:25:35Z</time>
      </trkpt>
      <trkpt lat="44.27532" lon="5.86346">
        <ele>617.3037109</ele>
        <time>2016-02-21T12:25:41Z</time>
      </trkpt>
      <trkpt lat="44.27536" lon="5.86352">
        <ele>618.2648926</ele>
        <time>2016-02-21T12:25:44Z</time>
      </trkpt>
      <trkpt lat="44.2754" lon="5.86366">
        <ele>619.2263184</ele>
        <time>2016-02-21T12:25:50Z</time>
      </trkpt>
      <trkpt lat="44.2755" lon="5.86395">
        <ele>621.6296387</ele>
        <time>2016-02-21T12:26:05Z</time>
      </trkpt>
      <trkpt lat="44.27553" lon="5.86432">
        <ele>623.5524902</ele>
        <time>2016-02-21T12:26:21Z</time>
      </trkpt>
      <trkpt lat="44.27546" lon="5.86457">
        <ele>625.9555664</ele>
        <time>2016-02-21T12:26:33Z</time>
      </trkpt>
      <trkpt lat="44.27544" lon="5.86476">
        <ele>624.5136719</ele>
        <time>2016-02-21T12:26:42Z</time>
      </trkpt>
      <trkpt lat="44.27542" lon="5.86485">
        <ele>625.4748535</ele>
        <time>2016-02-21T12:26:57Z</time>
      </trkpt>
      <trkpt lat="44.27542" lon="5.86487">
        <ele>626.4362793</ele>
        <time>2016-02-21T12:27:33Z</time>
      </trkpt>
      <trkpt lat="44.27546" lon="5.86492">
        <ele>626.4362793</ele>
        <time>2016-02-21T12:27:36Z</time>
      </trkpt>
      <trkpt lat="44.27549" lon="5.86499">
        <ele>628.3588867</ele>
        <time>2016-02-21T12:27:40Z</time>
      </trkpt>
      <trkpt lat="44.27551" lon="5.86505">
        <ele>628.8395996</ele>
        <time>2016-02-21T12:27:43Z</time>
      </trkpt>
      <trkpt lat="44.27561" lon="5.86514">
        <ele>629.3200684</ele>
        <time>2016-02-21T12:27:49Z</time>
      </trkpt>
      <trkpt lat="44.27562" lon="5.86521">
        <ele>630.2814941</ele>
        <time>2016-02-21T12:27:52Z</time>
      </trkpt>
      <trkpt lat="44.27564" lon="5.86525">
        <ele>631.2429199</ele>
        <time>2016-02-21T12:27:54Z</time>
      </trkpt>
      <trkpt lat="44.27579" lon="5.86557">
        <ele>632.6848145</ele>
        <time>2016-02-21T12:28:09Z</time>
      </trkpt>
      <trkpt lat="44.27581" lon="5.86563">
        <ele>633.1652832</ele>
        <time>2016-02-21T12:28:12Z</time>
      </trkpt>
      <trkpt lat="44.27592" lon="5.8659">
        <ele>635.0881348</ele>
        <time>2016-02-21T12:28:26Z</time>
      </trkpt>
      <trkpt lat="44.27603" lon="5.86613">
        <ele>637.0107422</ele>
        <time>2016-02-21T12:28:38Z</time>
      </trkpt>
      <trkpt lat="44.27604" lon="5.86619">
        <ele>637.0107422</ele>
        <time>2016-02-21T12:28:41Z</time>
      </trkpt>
      <trkpt lat="44.27607" lon="5.86631">
        <ele>637.4914551</ele>
        <time>2016-02-21T12:28:47Z</time>
      </trkpt>
      <trkpt lat="44.27614" lon="5.86645">
        <ele>637.972168</ele>
        <time>2016-02-21T12:28:55Z</time>
      </trkpt>
      <trkpt lat="44.27615" lon="5.86649">
        <ele>638.9335938</ele>
        <time>2016-02-21T12:28:57Z</time>
      </trkpt>
      <trkpt lat="44.27616" lon="5.86653">
        <ele>638.9335938</ele>
        <time>2016-02-21T12:28:59Z</time>
      </trkpt>
      <trkpt lat="44.27616" lon="5.86657">
        <ele>639.4140625</ele>
        <time>2016-02-21T12:29:02Z</time>
      </trkpt>
      <trkpt lat="44.27624" lon="5.86675">
        <ele>640.3754883</ele>
        <time>2016-02-21T12:29:10Z</time>
      </trkpt>
      <trkpt lat="44.27634" lon="5.86689">
        <ele>641.8173828</ele>
        <time>2016-02-21T12:29:17Z</time>
      </trkpt>
      <trkpt lat="44.2765" lon="5.86714">
        <ele>643.7399902</ele>
        <time>2016-02-21T12:29:30Z</time>
      </trkpt>
      <trkpt lat="44.2766" lon="5.86734">
        <ele>645.1818848</ele>
        <time>2016-02-21T12:29:42Z</time>
      </trkpt>
      <trkpt lat="44.27663" lon="5.8674">
        <ele>646.1433105</ele>
        <time>2016-02-21T12:29:45Z</time>
      </trkpt>
      <trkpt lat="44.27674" lon="5.86769">
        <ele>648.065918</ele>
        <time>2016-02-21T12:29:59Z</time>
      </trkpt>
      <trkpt lat="44.27679" lon="5.86777">
        <ele>648.065918</ele>
        <time>2016-02-21T12:30:03Z</time>
      </trkpt>
      <trkpt lat="44.27694" lon="5.86816">
        <ele>650.4692383</ele>
        <time>2016-02-21T12:30:23Z</time>
      </trkpt>
      <trkpt lat="44.2771" lon="5.86855">
        <ele>650.949707</ele>
        <time>2016-02-21T12:30:39Z</time>
      </trkpt>
      <trkpt lat="44.27713" lon="5.8686">
        <ele>650.949707</ele>
        <time>2016-02-21T12:30:43Z</time>
      </trkpt>
      <trkpt lat="44.27714" lon="5.86863">
        <ele>650.4692383</ele>
        <time>2016-02-21T12:30:45Z</time>
      </trkpt>
      <trkpt lat="44.27713" lon="5.86871">
        <ele>650.4692383</ele>
        <time>2016-02-21T12:30:48Z</time>
      </trkpt>
      <trkpt lat="44.27708" lon="5.86906">
        <ele>648.5463867</ele>
        <time>2016-02-21T12:30:59Z</time>
      </trkpt>
      <trkpt lat="44.27709" lon="5.86909">
        <ele>648.065918</ele>
        <time>2016-02-21T12:31:00Z</time>
      </trkpt>
      <trkpt lat="44.27712" lon="5.8695">
        <ele>648.5463867</ele>
        <time>2016-02-21T12:31:11Z</time>
      </trkpt>
      <trkpt lat="44.27711" lon="5.86957">
        <ele>649.0270996</ele>
        <time>2016-02-21T12:31:13Z</time>
      </trkpt>
      <trkpt lat="44.27716" lon="5.87002">
        <ele>649.5078125</ele>
        <time>2016-02-21T12:31:28Z</time>
      </trkpt>
      <trkpt lat="44.27719" lon="5.8704">
        <ele>651.4304199</ele>
        <time>2016-02-21T12:31:41Z</time>
      </trkpt>
      <trkpt lat="44.27721" lon="5.87089">
        <ele>654.3146973</ele>
        <time>2016-02-21T12:31:59Z</time>
      </trkpt>
      <trkpt lat="44.27723" lon="5.87138">
        <ele>657.6791992</ele>
        <time>2016-02-21T12:32:18Z</time>
      </trkpt>
      <trkpt lat="44.27725" lon="5.8719">
        <ele>661.0437012</ele>
        <time>2016-02-21T12:32:39Z</time>
      </trkpt>
      <trkpt lat="44.27736" lon="5.87248">
        <ele>662.005127</ele>
        <time>2016-02-21T12:32:59Z</time>
      </trkpt>
      <trkpt lat="44.27757" lon="5.87341">
        <ele>660.5629883</ele>
        <time>2016-02-21T12:33:21Z</time>
      </trkpt>
      <trkpt lat="44.27784" lon="5.87434">
        <ele>658.6403809</ele>
        <time>2016-02-21T12:33:39Z</time>
      </trkpt>
      <trkpt lat="44.27803" lon="5.87474">
        <ele>656.7177734</ele>
        <time>2016-02-21T12:33:48Z</time>
      </trkpt>
      <trkpt lat="44.27844" lon="5.87493">
        <ele>657.1984863</ele>
        <time>2016-02-21T12:33:59Z</time>
      </trkpt>
      <trkpt lat="44.27862" lon="5.87574">
        <ele>655.2758789</ele>
        <time>2016-02-21T12:34:12Z</time>
      </trkpt>
      <trkpt lat="44.27867" lon="5.87591">
        <ele>655.7565918</ele>
        <time>2016-02-21T12:34:15Z</time>
      </trkpt>
      <trkpt lat="44.27879" lon="5.87611">
        <ele>656.2370605</ele>
        <time>2016-02-21T12:34:19Z</time>
      </trkpt>
      <trkpt lat="44.27899" lon="5.87634">
        <ele>655.7565918</ele>
        <time>2016-02-21T12:34:25Z</time>
      </trkpt>
      <trkpt lat="44.27934" lon="5.87663">
        <ele>657.1984863</ele>
        <time>2016-02-21T12:34:36Z</time>
      </trkpt>
      <trkpt lat="44.2799" lon="5.87698">
        <ele>659.6018066</ele>
        <time>2016-02-21T12:34:55Z</time>
      </trkpt>
      <trkpt lat="44.28041" lon="5.87724">
        <ele>662.005127</ele>
        <time>2016-02-21T12:35:13Z</time>
      </trkpt>
      <trkpt lat="44.28085" lon="5.87761">
        <ele>662.4855957</ele>
        <time>2016-02-21T12:35:29Z</time>
      </trkpt>
      <trkpt lat="44.28123" lon="5.87817">
        <ele>663.4470215</ele>
        <time>2016-02-21T12:35:45Z</time>
      </trkpt>
      <trkpt lat="44.28169" lon="5.87907">
        <ele>662.9663086</ele>
        <time>2016-02-21T12:36:08Z</time>
      </trkpt>
      <trkpt lat="44.28189" lon="5.87936">
        <ele>662.4855957</ele>
        <time>2016-02-21T12:36:16Z</time>
      </trkpt>
      <trkpt lat="44.28215" lon="5.8797">
        <ele>661.5244141</ele>
        <time>2016-02-21T12:36:24Z</time>
      </trkpt>
      <trkpt lat="44.28244" lon="5.88001">
        <ele>661.5244141</ele>
        <time>2016-02-21T12:36:32Z</time>
      </trkpt>
      <trkpt lat="44.28302" lon="5.8804">
        <ele>662.4855957</ele>
        <time>2016-02-21T12:36:48Z</time>
      </trkpt>
      <trkpt lat="44.2835" lon="5.88078">
        <ele>662.4855957</ele>
        <time>2016-02-21T12:37:02Z</time>
      </trkpt>
      <trkpt lat="44.2838" lon="5.88107">
        <ele>662.005127</ele>
        <time>2016-02-21T12:37:11Z</time>
      </trkpt>
      <trkpt lat="44.28416" lon="5.88145">
        <ele>661.0437012</ele>
        <time>2016-02-21T12:37:20Z</time>
      </trkpt>
      <trkpt lat="44.28446" lon="5.88186">
        <ele>660.5629883</ele>
        <time>2016-02-21T12:37:28Z</time>
      </trkpt>
      <trkpt lat="44.28464" lon="5.88246">
        <ele>662.005127</ele>
        <time>2016-02-21T12:37:40Z</time>
      </trkpt>
      <trkpt lat="44.28478" lon="5.88281">
        <ele>664.888916</ele>
        <time>2016-02-21T12:37:50Z</time>
      </trkpt>
      <trkpt lat="44.28496" lon="5.8832">
        <ele>666.3308105</ele>
        <time>2016-02-21T12:38:02Z</time>
      </trkpt>
      <trkpt lat="44.2853" lon="5.88381">
        <ele>669.2150879</ele>
        <time>2016-02-21T12:38:21Z</time>
      </trkpt>
      <trkpt lat="44.28575" lon="5.88416">
        <ele>669.6958008</ele>
        <time>2016-02-21T12:38:39Z</time>
      </trkpt>
      <trkpt lat="44.28607" lon="5.88467">
        <ele>667.7727051</ele>
        <time>2016-02-21T12:38:53Z</time>
      </trkpt>
      <trkpt lat="44.28613" lon="5.88487">
        <ele>665.8503418</ele>
        <time>2016-02-21T12:38:56Z</time>
      </trkpt>
      <trkpt lat="44.28619" lon="5.88502">
        <ele>664.4082031</ele>
        <time>2016-02-21T12:38:58Z</time>
      </trkpt>
      <trkpt lat="44.28631" lon="5.88525">
        <ele>661.5244141</ele>
        <time>2016-02-21T12:39:02Z</time>
      </trkpt>
      <trkpt lat="44.28643" lon="5.88538">
        <ele>660.5629883</ele>
        <time>2016-02-21T12:39:05Z</time>
      </trkpt>
      <trkpt lat="44.28651" lon="5.88546">
        <ele>660.0822754</ele>
        <time>2016-02-21T12:39:07Z</time>
      </trkpt>
      <trkpt lat="44.28664" lon="5.88556">
        <ele>659.1210938</ele>
        <time>2016-02-21T12:39:10Z</time>
      </trkpt>
      <trkpt lat="44.28673" lon="5.88567">
        <ele>658.1599121</ele>
        <time>2016-02-21T12:39:13Z</time>
      </trkpt>
      <trkpt lat="44.28685" lon="5.88575">
        <ele>657.1984863</ele>
        <time>2016-02-21T12:39:16Z</time>
      </trkpt>
      <trkpt lat="44.28699" lon="5.88586">
        <ele>656.7177734</ele>
        <time>2016-02-21T12:39:19Z</time>
      </trkpt>
      <trkpt lat="44.28767" lon="5.88612">
        <ele>655.2758789</ele>
        <time>2016-02-21T12:39:32Z</time>
      </trkpt>
      <trkpt lat="44.28776" lon="5.88614">
        <ele>655.2758789</ele>
        <time>2016-02-21T12:39:34Z</time>
      </trkpt>
      <trkpt lat="44.2881" lon="5.88639">
        <ele>653.8339844</ele>
        <time>2016-02-21T12:39:43Z</time>
      </trkpt>
      <trkpt lat="44.28829" lon="5.88654">
        <ele>652.3918457</ele>
        <time>2016-02-21T12:39:47Z</time>
      </trkpt>
      <trkpt lat="44.28845" lon="5.88709">
        <ele>651.9111328</ele>
        <time>2016-02-21T12:39:56Z</time>
      </trkpt>
      <trkpt lat="44.28847" lon="5.88721">
        <ele>652.3918457</ele>
        <time>2016-02-21T12:39:58Z</time>
      </trkpt>
      <trkpt lat="44.28857" lon="5.88751">
        <ele>650.949707</ele>
        <time>2016-02-21T12:40:04Z</time>
      </trkpt>
      <trkpt lat="44.2886" lon="5.88763">
        <ele>650.949707</ele>
        <time>2016-02-21T12:40:06Z</time>
      </trkpt>
      <trkpt lat="44.28867" lon="5.88788">
        <ele>649.0270996</ele>
        <time>2016-02-21T12:40:10Z</time>
      </trkpt>
      <trkpt lat="44.28872" lon="5.88802">
        <ele>648.065918</ele>
        <time>2016-02-21T12:40:12Z</time>
      </trkpt>
      <trkpt lat="44.28891" lon="5.88835">
        <ele>644.7011719</ele>
        <time>2016-02-21T12:40:17Z</time>
      </trkpt>
      <trkpt lat="44.289" lon="5.8885">
        <ele>643.2592773</ele>
        <time>2016-02-21T12:40:19Z</time>
      </trkpt>
      <trkpt lat="44.28906" lon="5.88867">
        <ele>641.8173828</ele>
        <time>2016-02-21T12:40:21Z</time>
      </trkpt>
      <trkpt lat="44.28911" lon="5.88884">
        <ele>637.0107422</ele>
        <time>2016-02-21T12:40:23Z</time>
      </trkpt>
      <trkpt lat="44.28914" lon="5.88893">
        <ele>637.0107422</ele>
        <time>2016-02-21T12:40:24Z</time>
      </trkpt>
      <trkpt lat="44.28921" lon="5.88911">
        <ele>635.5686035</ele>
        <time>2016-02-21T12:40:26Z</time>
      </trkpt>
      <trkpt lat="44.28928" lon="5.88927">
        <ele>633.1652832</ele>
        <time>2016-02-21T12:40:28Z</time>
      </trkpt>
      <trkpt lat="44.28935" lon="5.88944">
        <ele>629.3200684</ele>
        <time>2016-02-21T12:40:30Z</time>
      </trkpt>
      <trkpt lat="44.28937" lon="5.88951">
        <ele>629.3200684</ele>
        <time>2016-02-21T12:40:31Z</time>
      </trkpt>
      <trkpt lat="44.28942" lon="5.8897">
        <ele>627.8781738</ele>
        <time>2016-02-21T12:40:33Z</time>
      </trkpt>
      <trkpt lat="44.28947" lon="5.88991">
        <ele>625.4748535</ele>
        <time>2016-02-21T12:40:35Z</time>
      </trkpt>
      <trkpt lat="44.28953" lon="5.89023">
        <ele>623.0717773</ele>
        <time>2016-02-21T12:40:38Z</time>
      </trkpt>
      <trkpt lat="44.28958" lon="5.89047">
        <ele>620.668457</ele>
        <time>2016-02-21T12:40:40Z</time>
      </trkpt>
      <trkpt lat="44.28957" lon="5.89066">
        <ele>619.2263184</ele>
        <time>2016-02-21T12:40:42Z</time>
      </trkpt>
      <trkpt lat="44.28957" lon="5.89074">
        <ele>617.3037109</ele>
        <time>2016-02-21T12:40:43Z</time>
      </trkpt>
      <trkpt lat="44.28959" lon="5.89087">
        <ele>616.3422852</ele>
        <time>2016-02-21T12:40:45Z</time>
      </trkpt>
      <trkpt lat="44.28963" lon="5.891">
        <ele>616.3422852</ele>
        <time>2016-02-21T12:40:47Z</time>
      </trkpt>
      <trkpt lat="44.2897" lon="5.89119">
        <ele>615.3811035</ele>
        <time>2016-02-21T12:40:50Z</time>
      </trkpt>
      <trkpt lat="44.2898" lon="5.89138">
        <ele>613.9389648</ele>
        <time>2016-02-21T12:40:53Z</time>
      </trkpt>
      <trkpt lat="44.28993" lon="5.89157">
        <ele>611.5358887</ele>
        <time>2016-02-21T12:40:56Z</time>
      </trkpt>
      <trkpt lat="44.2905" lon="5.89237">
        <ele>610.5744629</ele>
        <time>2016-02-21T12:41:06Z</time>
      </trkpt>
      <trkpt lat="44.29099" lon="5.89281">
        <ele>607.6906738</ele>
        <time>2016-02-21T12:41:12Z</time>
      </trkpt>
      <trkpt lat="44.29151" lon="5.89327">
        <ele>603.8452148</ele>
        <time>2016-02-21T12:41:18Z</time>
      </trkpt>
      <trkpt lat="44.29172" lon="5.89366">
        <ele>602.4030762</ele>
        <time>2016-02-21T12:41:22Z</time>
      </trkpt>
      <trkpt lat="44.29192" lon="5.89405">
        <ele>600</ele>
        <time>2016-02-21T12:41:26Z</time>
      </trkpt>
      <trkpt lat="44.292" lon="5.89425">
        <ele>597.5966797</ele>
        <time>2016-02-21T12:41:28Z</time>
      </trkpt>
      <trkpt lat="44.29225" lon="5.89481">
        <ele>594.2321777</ele>
        <time>2016-02-21T12:41:34Z</time>
      </trkpt>
      <trkpt lat="44.29228" lon="5.8949">
        <ele>594.2321777</ele>
        <time>2016-02-21T12:41:35Z</time>
      </trkpt>
      <trkpt lat="44.29234" lon="5.89508">
        <ele>591.8288574</ele>
        <time>2016-02-21T12:41:37Z</time>
      </trkpt>
      <trkpt lat="44.29247" lon="5.8955">
        <ele>594.2321777</ele>
        <time>2016-02-21T12:41:42Z</time>
      </trkpt>
      <trkpt lat="44.29249" lon="5.89558">
        <ele>594.7126465</ele>
        <time>2016-02-21T12:41:43Z</time>
      </trkpt>
      <trkpt lat="44.29247" lon="5.89592">
        <ele>595.1933594</ele>
        <time>2016-02-21T12:41:48Z</time>
      </trkpt>
      <trkpt lat="44.29222" lon="5.8965">
        <ele>596.635498</ele>
        <time>2016-02-21T12:42:04Z</time>
      </trkpt>
      <trkpt lat="44.29215" lon="5.89674">
        <ele>598.5578613</ele>
        <time>2016-02-21T12:42:14Z</time>
      </trkpt>
      <trkpt lat="44.2922" lon="5.89683">
        <ele>599.5192871</ele>
        <time>2016-02-21T12:42:26Z</time>
      </trkpt>
      <trkpt lat="44.2922" lon="5.89683">
        <ele>600.9611816</ele>
        <time>2016-02-21T12:42:36Z</time>
      </trkpt>
      <trkpt lat="44.29219" lon="5.89683">
        <ele>599.0385742</ele>
        <time>2016-02-21T12:43:10Z</time>
      </trkpt>
      <trkpt lat="44.29217" lon="5.89688">
        <ele>598.5578613</ele>
        <time>2016-02-21T12:43:13Z</time>
      </trkpt>
      <trkpt lat="44.29221" lon="5.89692">
        <ele>600.4807129</ele>
        <time>2016-02-21T12:43:17Z</time>
      </trkpt>
      <trkpt lat="44.29222" lon="5.89691">
        <ele>600</ele>
        <time>2016-02-21T12:43:18Z</time>
      </trkpt>
      <trkpt lat="44.29226" lon="5.89684">
        <ele>600.4807129</ele>
        <time>2016-02-21T12:43:21Z</time>
      </trkpt>
      <trkpt lat="44.29233" lon="5.89682">
        <ele>600.9611816</ele>
        <time>2016-02-21T12:43:25Z</time>
      </trkpt>
      <trkpt lat="44.29237" lon="5.89676">
        <ele>601.9226074</ele>
        <time>2016-02-21T12:43:27Z</time>
      </trkpt>
      <trkpt lat="44.29259" lon="5.89633">
        <ele>601.4418945</ele>
        <time>2016-02-21T12:43:42Z</time>
      </trkpt>
      <trkpt lat="44.29269" lon="5.8962">
        <ele>601.4418945</ele>
        <time>2016-02-21T12:43:47Z</time>
      </trkpt>
      <trkpt lat="44.29276" lon="5.89608">
        <ele>600.9611816</ele>
        <time>2016-02-21T12:43:52Z</time>
      </trkpt>
      <trkpt lat="44.29316" lon="5.8959">
        <ele>600</ele>
        <time>2016-02-21T12:44:01Z</time>
      </trkpt>
      <trkpt lat="44.29353" lon="5.89584">
        <ele>601.9226074</ele>
        <time>2016-02-21T12:44:11Z</time>
      </trkpt>
      <trkpt lat="44.29369" lon="5.89581">
        <ele>601.4418945</ele>
        <time>2016-02-21T12:44:15Z</time>
      </trkpt>
      <trkpt lat="44.2942" lon="5.89577">
        <ele>601.9226074</ele>
        <time>2016-02-21T12:44:28Z</time>
      </trkpt>
      <trkpt lat="44.2947" lon="5.89574">
        <ele>601.4418945</ele>
        <time>2016-02-21T12:44:41Z</time>
      </trkpt>
      <trkpt lat="44.29529" lon="5.89552">
        <ele>600</ele>
        <time>2016-02-21T12:44:52Z</time>
      </trkpt>
      <trkpt lat="44.29574" lon="5.89529">
        <ele>598.5578613</ele>
        <time>2016-02-21T12:44:58Z</time>
      </trkpt>
      <trkpt lat="44.29601" lon="5.89523">
        <ele>597.1159668</ele>
        <time>2016-02-21T12:45:01Z</time>
      </trkpt>
      <trkpt lat="44.29673" lon="5.89521">
        <ele>593.7514648</ele>
        <time>2016-02-21T12:45:09Z</time>
      </trkpt>
      <trkpt lat="44.29691" lon="5.89522">
        <ele>592.7902832</ele>
        <time>2016-02-21T12:45:11Z</time>
      </trkpt>
      <trkpt lat="44.29764" lon="5.89527">
        <ele>592.3095703</ele>
        <time>2016-02-21T12:45:22Z</time>
      </trkpt>
      <trkpt lat="44.29788" lon="5.89527">
        <ele>592.7902832</ele>
        <time>2016-02-21T12:45:31Z</time>
      </trkpt>
      <trkpt lat="44.29833" lon="5.89524">
        <ele>593.270752</ele>
        <time>2016-02-21T12:45:44Z</time>
      </trkpt>
      <trkpt lat="44.29884" lon="5.89509">
        <ele>593.270752</ele>
        <time>2016-02-21T12:45:56Z</time>
      </trkpt>
      <trkpt lat="44.29952" lon="5.89488">
        <ele>592.3095703</ele>
        <time>2016-02-21T12:46:10Z</time>
      </trkpt>
      <trkpt lat="44.30016" lon="5.89468">
        <ele>591.8288574</ele>
        <time>2016-02-21T12:46:22Z</time>
      </trkpt>
      <trkpt lat="44.30124" lon="5.89437">
        <ele>590.3869629</ele>
        <time>2016-02-21T12:46:43Z</time>
      </trkpt>
      <trkpt lat="44.30145" lon="5.8943">
        <ele>590.3869629</ele>
        <time>2016-02-21T12:46:47Z</time>
      </trkpt>
      <trkpt lat="44.30207" lon="5.8941">
        <ele>589.4255371</ele>
        <time>2016-02-21T12:47:00Z</time>
      </trkpt>
      <trkpt lat="44.30283" lon="5.8939">
        <ele>589.4255371</ele>
        <time>2016-02-21T12:47:15Z</time>
      </trkpt>
      <trkpt lat="44.30357" lon="5.89365">
        <ele>590.8674316</ele>
        <time>2016-02-21T12:47:32Z</time>
      </trkpt>
      <trkpt lat="44.30393" lon="5.89354">
        <ele>591.8288574</ele>
        <time>2016-02-21T12:47:44Z</time>
      </trkpt>
      <trkpt lat="44.30445" lon="5.89339">
        <ele>592.7902832</ele>
        <time>2016-02-21T12:47:58Z</time>
      </trkpt>
      <trkpt lat="44.30522" lon="5.89318">
        <ele>592.3095703</ele>
        <time>2016-02-21T12:48:14Z</time>
      </trkpt>
      <trkpt lat="44.3061" lon="5.89293">
        <ele>591.3481445</ele>
        <time>2016-02-21T12:48:33Z</time>
      </trkpt>
      <trkpt lat="44.30703" lon="5.89264">
        <ele>590.3869629</ele>
        <time>2016-02-21T12:48:54Z</time>
      </trkpt>
      <trkpt lat="44.30709" lon="5.89262">
        <ele>590.8674316</ele>
        <time>2016-02-21T12:48:56Z</time>
      </trkpt>
      <trkpt lat="44.3072" lon="5.89269">
        <ele>590.8674316</ele>
        <time>2016-02-21T12:49:00Z</time>
      </trkpt>
      <trkpt lat="44.30718" lon="5.8927">
        <ele>590.8674316</ele>
        <time>2016-02-21T12:49:12Z</time>
      </trkpt>
      <trkpt lat="44.30719" lon="5.8927">
        <ele>590.3869629</ele>
        <time>2016-02-21T12:49:38Z</time>
      </trkpt>
      <trkpt lat="44.30719" lon="5.8927">
        <ele>590.3869629</ele>
        <time>2016-02-21T12:49:45Z</time>
      </trkpt>
      <trkpt lat="44.30725" lon="5.89257">
        <ele>590.8674316</ele>
        <time>2016-02-21T12:49:52Z</time>
      </trkpt>
      <trkpt lat="44.30767" lon="5.89244">
        <ele>591.3481445</ele>
        <time>2016-02-21T12:50:04Z</time>
      </trkpt>
      <trkpt lat="44.3082" lon="5.89228">
        <ele>592.7902832</ele>
        <time>2016-02-21T12:50:20Z</time>
      </trkpt>
      <trkpt lat="44.3086" lon="5.89218">
        <ele>594.2321777</ele>
        <time>2016-02-21T12:50:35Z</time>
      </trkpt>
      <trkpt lat="44.30895" lon="5.89205">
        <ele>595.6740723</ele>
        <time>2016-02-21T12:50:49Z</time>
      </trkpt>
      <trkpt lat="44.30926" lon="5.89196">
        <ele>597.5966797</ele>
        <time>2016-02-21T12:51:02Z</time>
      </trkpt>
      <trkpt lat="44.30957" lon="5.89186">
        <ele>598.0773926</ele>
        <time>2016-02-21T12:51:14Z</time>
      </trkpt>
      <trkpt lat="44.30992" lon="5.89177">
        <ele>600</ele>
        <time>2016-02-21T12:51:29Z</time>
      </trkpt>
      <trkpt lat="44.31035" lon="5.89167">
        <ele>600.9611816</ele>
        <time>2016-02-21T12:51:45Z</time>
      </trkpt>
      <trkpt lat="44.31082" lon="5.89159">
        <ele>600.4807129</ele>
        <time>2016-02-21T12:51:59Z</time>
      </trkpt>
      <trkpt lat="44.31113" lon="5.89154">
        <ele>600.9611816</ele>
        <time>2016-02-21T12:52:07Z</time>
      </trkpt>
      <trkpt lat="44.31121" lon="5.89155">
        <ele>601.4418945</ele>
        <time>2016-02-21T12:52:09Z</time>
      </trkpt>
      <trkpt lat="44.31169" lon="5.89147">
        <ele>601.4418945</ele>
        <time>2016-02-21T12:52:21Z</time>
      </trkpt>
      <trkpt lat="44.31221" lon="5.89138">
        <ele>601.9226074</ele>
        <time>2016-02-21T12:52:34Z</time>
      </trkpt>
      <trkpt lat="44.31272" lon="5.89131">
        <ele>602.8837891</ele>
        <time>2016-02-21T12:52:48Z</time>
      </trkpt>
      <trkpt lat="44.31301" lon="5.89127">
        <ele>603.364502</ele>
        <time>2016-02-21T12:52:57Z</time>
      </trkpt>
      <trkpt lat="44.31331" lon="5.89122">
        <ele>602.8837891</ele>
        <time>2016-02-21T12:53:05Z</time>
      </trkpt>
      <trkpt lat="44.31408" lon="5.8911">
        <ele>602.4030762</ele>
        <time>2016-02-21T12:53:18Z</time>
      </trkpt>
      <trkpt lat="44.31471" lon="5.89102">
        <ele>601.9226074</ele>
        <time>2016-02-21T12:53:32Z</time>
      </trkpt>
      <trkpt lat="44.31527" lon="5.89099">
        <ele>601.4418945</ele>
        <time>2016-02-21T12:53:45Z</time>
      </trkpt>
      <trkpt lat="44.31581" lon="5.891">
        <ele>599.5192871</ele>
        <time>2016-02-21T12:53:56Z</time>
      </trkpt>
      <trkpt lat="44.31601" lon="5.891">
        <ele>598.0773926</ele>
        <time>2016-02-21T12:53:59Z</time>
      </trkpt>
      <trkpt lat="44.31625" lon="5.891">
        <ele>596.635498</ele>
        <time>2016-02-21T12:54:03Z</time>
      </trkpt>
      <trkpt lat="44.31736" lon="5.89082">
        <ele>596.1547852</ele>
        <time>2016-02-21T12:54:20Z</time>
      </trkpt>
      <trkpt lat="44.31827" lon="5.89025">
        <ele>593.270752</ele>
        <time>2016-02-21T12:54:34Z</time>
      </trkpt>
      <trkpt lat="44.31839" lon="5.89016">
        <ele>592.3095703</ele>
        <time>2016-02-21T12:54:36Z</time>
      </trkpt>
      <trkpt lat="44.31927" lon="5.88992">
        <ele>591.3481445</ele>
        <time>2016-02-21T12:54:48Z</time>
      </trkpt>
      <trkpt lat="44.31957" lon="5.89003">
        <ele>589.4255371</ele>
        <time>2016-02-21T12:54:52Z</time>
      </trkpt>
      <trkpt lat="44.31977" lon="5.89015">
        <ele>589.90625</ele>
        <time>2016-02-21T12:54:55Z</time>
      </trkpt>
      <trkpt lat="44.31996" lon="5.89029">
        <ele>588.4643555</ele>
        <time>2016-02-21T12:54:58Z</time>
      </trkpt>
      <trkpt lat="44.32032" lon="5.89049">
        <ele>586.5415039</ele>
        <time>2016-02-21T12:55:04Z</time>
      </trkpt>
      <trkpt lat="44.32117" lon="5.89067">
        <ele>584.1381836</ele>
        <time>2016-02-21T12:55:17Z</time>
      </trkpt>
      <trkpt lat="44.32137" lon="5.89073">
        <ele>586.5415039</ele>
        <time>2016-02-21T12:55:20Z</time>
      </trkpt>
      <trkpt lat="44.3215" lon="5.89075">
        <ele>585.5800781</ele>
        <time>2016-02-21T12:55:22Z</time>
      </trkpt>
      <trkpt lat="44.32237" lon="5.89102">
        <ele>586.060791</ele>
        <time>2016-02-21T12:55:38Z</time>
      </trkpt>
      <trkpt lat="44.32247" lon="5.89104">
        <ele>585.5800781</ele>
        <time>2016-02-21T12:55:40Z</time>
      </trkpt>
      <trkpt lat="44.32343" lon="5.89136">
        <ele>583.1767578</ele>
        <time>2016-02-21T12:56:00Z</time>
      </trkpt>
      <trkpt lat="44.32372" lon="5.89145">
        <ele>585.5800781</ele>
        <time>2016-02-21T12:56:06Z</time>
      </trkpt>
      <trkpt lat="44.32395" lon="5.89153">
        <ele>583.6574707</ele>
        <time>2016-02-21T12:56:11Z</time>
      </trkpt>
      <trkpt lat="44.32483" lon="5.8918">
        <ele>584.1381836</ele>
        <time>2016-02-21T12:56:29Z</time>
      </trkpt>
      <trkpt lat="44.32587" lon="5.89224">
        <ele>584.1381836</ele>
        <time>2016-02-21T12:56:53Z</time>
      </trkpt>
      <trkpt lat="44.32591" lon="5.89226">
        <ele>584.1381836</ele>
        <time>2016-02-21T12:56:54Z</time>
      </trkpt>
      <trkpt lat="44.32649" lon="5.89261">
        <ele>584.6188965</ele>
        <time>2016-02-21T12:57:09Z</time>
      </trkpt>
      <trkpt lat="44.32709" lon="5.89308">
        <ele>584.6188965</ele>
        <time>2016-02-21T12:57:23Z</time>
      </trkpt>
      <trkpt lat="44.32783" lon="5.89362">
        <ele>583.6574707</ele>
        <time>2016-02-21T12:57:42Z</time>
      </trkpt>
      <trkpt lat="44.32832" lon="5.894">
        <ele>584.1381836</ele>
        <time>2016-02-21T12:57:55Z</time>
      </trkpt>
      <trkpt lat="44.32898" lon="5.89448">
        <ele>582.6962891</ele>
        <time>2016-02-21T12:58:13Z</time>
      </trkpt>
      <trkpt lat="44.32976" lon="5.89493">
        <ele>582.6962891</ele>
        <time>2016-02-21T12:58:31Z</time>
      </trkpt>
      <trkpt lat="44.33052" lon="5.89521">
        <ele>582.6962891</ele>
        <time>2016-02-21T12:58:47Z</time>
      </trkpt>
      <trkpt lat="44.33138" lon="5.89553">
        <ele>582.6962891</ele>
        <time>2016-02-21T12:59:07Z</time>
      </trkpt>
      <trkpt lat="44.33227" lon="5.8958">
        <ele>583.6574707</ele>
        <time>2016-02-21T12:59:26Z</time>
      </trkpt>
      <trkpt lat="44.33311" lon="5.89611">
        <ele>582.6962891</ele>
        <time>2016-02-21T12:59:46Z</time>
      </trkpt>
      <trkpt lat="44.33347" lon="5.89622">
        <ele>582.6962891</ele>
        <time>2016-02-21T12:59:53Z</time>
      </trkpt>
      <trkpt lat="44.33409" lon="5.8965">
        <ele>584.1381836</ele>
        <time>2016-02-21T13:00:07Z</time>
      </trkpt>
      <trkpt lat="44.33445" lon="5.89669">
        <ele>582.6962891</ele>
        <time>2016-02-21T13:00:16Z</time>
      </trkpt>
      <trkpt lat="44.3352" lon="5.89707">
        <ele>584.6188965</ele>
        <time>2016-02-21T13:00:34Z</time>
      </trkpt>
      <trkpt lat="44.33555" lon="5.89724">
        <ele>584.6188965</ele>
        <time>2016-02-21T13:00:42Z</time>
      </trkpt>
      <trkpt lat="44.33638" lon="5.89766">
        <ele>584.6188965</ele>
        <time>2016-02-21T13:01:01Z</time>
      </trkpt>
      <trkpt lat="44.33662" lon="5.89781">
        <ele>584.1381836</ele>
        <time>2016-02-21T13:01:07Z</time>
      </trkpt>
      <trkpt lat="44.33724" lon="5.8981">
        <ele>583.6574707</ele>
        <time>2016-02-21T13:01:21Z</time>
      </trkpt>
      <trkpt lat="44.33746" lon="5.89822">
        <ele>579.8122559</ele>
        <time>2016-02-21T13:01:25Z</time>
      </trkpt>
      <trkpt lat="44.33752" lon="5.89825">
        <ele>579.8122559</ele>
        <time>2016-02-21T13:01:26Z</time>
      </trkpt>
      <trkpt lat="44.338" lon="5.89865">
        <ele>582.2155762</ele>
        <time>2016-02-21T13:01:39Z</time>
      </trkpt>
      <trkpt lat="44.33804" lon="5.89869">
        <ele>584.1381836</ele>
        <time>2016-02-21T13:01:41Z</time>
      </trkpt>
      <trkpt lat="44.33818" lon="5.8988">
        <ele>585.0996094</ele>
        <time>2016-02-21T13:01:46Z</time>
      </trkpt>
      <trkpt lat="44.33855" lon="5.89907">
        <ele>586.5415039</ele>
        <time>2016-02-21T13:02:03Z</time>
      </trkpt>
      <trkpt lat="44.33878" lon="5.89935">
        <ele>588.9450684</ele>
        <time>2016-02-21T13:02:18Z</time>
      </trkpt>
      <trkpt lat="44.33902" lon="5.89971">
        <ele>589.4255371</ele>
        <time>2016-02-21T13:02:33Z</time>
      </trkpt>
      <trkpt lat="44.33946" lon="5.90013">
        <ele>589.90625</ele>
        <time>2016-02-21T13:02:50Z</time>
      </trkpt>
      <trkpt lat="44.34001" lon="5.90066">
        <ele>588.4643555</ele>
        <time>2016-02-21T13:03:05Z</time>
      </trkpt>
      <trkpt lat="44.34029" lon="5.90093">
        <ele>589.90625</ele>
        <time>2016-02-21T13:03:16Z</time>
      </trkpt>
      <trkpt lat="44.34039" lon="5.90099">
        <ele>590.3869629</ele>
        <time>2016-02-21T13:03:20Z</time>
      </trkpt>
      <trkpt lat="44.34063" lon="5.90125">
        <ele>592.3095703</ele>
        <time>2016-02-21T13:03:34Z</time>
      </trkpt>
      <trkpt lat="44.34097" lon="5.90149">
        <ele>595.1933594</ele>
        <time>2016-02-21T13:03:48Z</time>
      </trkpt>
      <trkpt lat="44.34127" lon="5.90177">
        <ele>596.1547852</ele>
        <time>2016-02-21T13:04:02Z</time>
      </trkpt>
      <trkpt lat="44.34152" lon="5.90206">
        <ele>595.1933594</ele>
        <time>2016-02-21T13:04:14Z</time>
      </trkpt>
      <trkpt lat="44.34195" lon="5.90262">
        <ele>594.2321777</ele>
        <time>2016-02-21T13:04:27Z</time>
      </trkpt>
      <trkpt lat="44.34276" lon="5.90369">
        <ele>591.8288574</ele>
        <time>2016-02-21T13:04:40Z</time>
      </trkpt>
      <trkpt lat="44.343" lon="5.90394">
        <ele>588.4643555</ele>
        <time>2016-02-21T13:04:43Z</time>
      </trkpt>
      <trkpt lat="44.34307" lon="5.90401">
        <ele>588.9450684</ele>
        <time>2016-02-21T13:04:44Z</time>
      </trkpt>
      <trkpt lat="44.34337" lon="5.90427">
        <ele>585.0996094</ele>
        <time>2016-02-21T13:04:48Z</time>
      </trkpt>
      <trkpt lat="44.34344" lon="5.90432">
        <ele>585.0996094</ele>
        <time>2016-02-21T13:04:49Z</time>
      </trkpt>
      <trkpt lat="44.34366" lon="5.90444">
        <ele>587.0219727</ele>
        <time>2016-02-21T13:04:52Z</time>
      </trkpt>
      <trkpt lat="44.34395" lon="5.90457">
        <ele>587.9833984</ele>
        <time>2016-02-21T13:05:01Z</time>
      </trkpt>
      <trkpt lat="44.34406" lon="5.90463">
        <ele>588.4643555</ele>
        <time>2016-02-21T13:05:05Z</time>
      </trkpt>
      <trkpt lat="44.34418" lon="5.90488">
        <ele>588.4643555</ele>
        <time>2016-02-21T13:05:10Z</time>
      </trkpt>
      <trkpt lat="44.34436" lon="5.90513">
        <ele>587.5026855</ele>
        <time>2016-02-21T13:05:15Z</time>
      </trkpt>
      <trkpt lat="44.34516" lon="5.90586">
        <ele>586.060791</ele>
        <time>2016-02-21T13:05:31Z</time>
      </trkpt>
      <trkpt lat="44.34527" lon="5.90598">
        <ele>586.060791</ele>
        <time>2016-02-21T13:05:34Z</time>
      </trkpt>
      <trkpt lat="44.34555" lon="5.9062">
        <ele>586.5415039</ele>
        <time>2016-02-21T13:05:40Z</time>
      </trkpt>
      <trkpt lat="44.34629" lon="5.90676">
        <ele>586.060791</ele>
        <time>2016-02-21T13:05:57Z</time>
      </trkpt>
      <trkpt lat="44.34662" lon="5.90697">
        <ele>583.6574707</ele>
        <time>2016-02-21T13:06:03Z</time>
      </trkpt>
      <trkpt lat="44.34744" lon="5.90751">
        <ele>580.2929688</ele>
        <time>2016-02-21T13:06:14Z</time>
      </trkpt>
      <trkpt lat="44.348" lon="5.90793">
        <ele>577.4091797</ele>
        <time>2016-02-21T13:06:22Z</time>
      </trkpt>
      <trkpt lat="44.34887" lon="5.90861">
        <ele>576.9284668</ele>
        <time>2016-02-21T13:06:37Z</time>
      </trkpt>
      <trkpt lat="44.3497" lon="5.90931">
        <ele>575.0058594</ele>
        <time>2016-02-21T13:06:54Z</time>
      </trkpt>
      <trkpt lat="44.35021" lon="5.90981">
        <ele>576.4477539</ele>
        <time>2016-02-21T13:07:08Z</time>
      </trkpt>
      <trkpt lat="44.35068" lon="5.91028">
        <ele>577.4091797</ele>
        <time>2016-02-21T13:07:25Z</time>
      </trkpt>
      <trkpt lat="44.35111" lon="5.91067">
        <ele>578.8510742</ele>
        <time>2016-02-21T13:07:41Z</time>
      </trkpt>
      <trkpt lat="44.35149" lon="5.911">
        <ele>579.331543</ele>
        <time>2016-02-21T13:07:56Z</time>
      </trkpt>
      <trkpt lat="44.35187" lon="5.91138">
        <ele>580.7736816</ele>
        <time>2016-02-21T13:08:13Z</time>
      </trkpt>
      <trkpt lat="44.35224" lon="5.91174">
        <ele>581.2543945</ele>
        <time>2016-02-21T13:08:29Z</time>
      </trkpt>
      <trkpt lat="44.35286" lon="5.91229">
        <ele>582.6962891</ele>
        <time>2016-02-21T13:08:53Z</time>
      </trkpt>
      <trkpt lat="44.35352" lon="5.91279">
        <ele>582.6962891</ele>
        <time>2016-02-21T13:09:14Z</time>
      </trkpt>
      <trkpt lat="44.35425" lon="5.91331">
        <ele>583.1767578</ele>
        <time>2016-02-21T13:09:36Z</time>
      </trkpt>
      <trkpt lat="44.35483" lon="5.91372">
        <ele>583.6574707</ele>
        <time>2016-02-21T13:09:54Z</time>
      </trkpt>
      <trkpt lat="44.35534" lon="5.91404">
        <ele>584.1381836</ele>
        <time>2016-02-21T13:10:10Z</time>
      </trkpt>
      <trkpt lat="44.35617" lon="5.91458">
        <ele>583.1767578</ele>
        <time>2016-02-21T13:10:30Z</time>
      </trkpt>
      <trkpt lat="44.35682" lon="5.91503">
        <ele>580.7736816</ele>
        <time>2016-02-21T13:10:44Z</time>
      </trkpt>
      <trkpt lat="44.35686" lon="5.91505">
        <ele>580.7736816</ele>
        <time>2016-02-21T13:10:45Z</time>
      </trkpt>
      <trkpt lat="44.3577" lon="5.91563">
        <ele>581.7348633</ele>
        <time>2016-02-21T13:11:07Z</time>
      </trkpt>
      <trkpt lat="44.35831" lon="5.91605">
        <ele>581.7348633</ele>
        <time>2016-02-21T13:11:24Z</time>
      </trkpt>
      <trkpt lat="44.35835" lon="5.91608">
        <ele>581.7348633</ele>
        <time>2016-02-21T13:11:25Z</time>
      </trkpt>
      <trkpt lat="44.35853" lon="5.91621">
        <ele>581.7348633</ele>
        <time>2016-02-21T13:11:30Z</time>
      </trkpt>
      <trkpt lat="44.35877" lon="5.9164">
        <ele>581.7348633</ele>
        <time>2016-02-21T13:11:37Z</time>
      </trkpt>
      <trkpt lat="44.35946" lon="5.91689">
        <ele>581.2543945</ele>
        <time>2016-02-21T13:11:57Z</time>
      </trkpt>
      <trkpt lat="44.36013" lon="5.91732">
        <ele>581.2543945</ele>
        <time>2016-02-21T13:12:16Z</time>
      </trkpt>
      <trkpt lat="44.36086" lon="5.91782">
        <ele>580.7736816</ele>
        <time>2016-02-21T13:12:36Z</time>
      </trkpt>
      <trkpt lat="44.36152" lon="5.91826">
        <ele>581.2543945</ele>
        <time>2016-02-21T13:12:53Z</time>
      </trkpt>
      <trkpt lat="44.3617" lon="5.91839">
        <ele>581.2543945</ele>
        <time>2016-02-21T13:12:58Z</time>
      </trkpt>
      <trkpt lat="44.3624" lon="5.91886">
        <ele>580.2929688</ele>
        <time>2016-02-21T13:13:17Z</time>
      </trkpt>
      <trkpt lat="44.36307" lon="5.91931">
        <ele>580.7736816</ele>
        <time>2016-02-21T13:13:34Z</time>
      </trkpt>
      <trkpt lat="44.36389" lon="5.91987">
        <ele>580.7736816</ele>
        <time>2016-02-21T13:13:56Z</time>
      </trkpt>
      <trkpt lat="44.36438" lon="5.92023">
        <ele>579.331543</ele>
        <time>2016-02-21T13:14:09Z</time>
      </trkpt>
      <trkpt lat="44.36449" lon="5.92031">
        <ele>579.331543</ele>
        <time>2016-02-21T13:14:12Z</time>
      </trkpt>
      <trkpt lat="44.36458" lon="5.9204">
        <ele>579.8122559</ele>
        <time>2016-02-21T13:14:15Z</time>
      </trkpt>
      <trkpt lat="44.36493" lon="5.92065">
        <ele>580.2929688</ele>
        <time>2016-02-21T13:14:24Z</time>
      </trkpt>
      <trkpt lat="44.36561" lon="5.92111">
        <ele>579.331543</ele>
        <time>2016-02-21T13:14:43Z</time>
      </trkpt>
      <trkpt lat="44.36624" lon="5.92147">
        <ele>578.8510742</ele>
        <time>2016-02-21T13:15:00Z</time>
      </trkpt>
      <trkpt lat="44.36683" lon="5.9216">
        <ele>579.8122559</ele>
        <time>2016-02-21T13:15:13Z</time>
      </trkpt>
      <trkpt lat="44.3672" lon="5.92172">
        <ele>580.7736816</ele>
        <time>2016-02-21T13:15:23Z</time>
      </trkpt>
      <trkpt lat="44.36773" lon="5.92189">
        <ele>580.2929688</ele>
        <time>2016-02-21T13:15:38Z</time>
      </trkpt>
      <trkpt lat="44.36805" lon="5.92202">
        <ele>582.6962891</ele>
        <time>2016-02-21T13:15:52Z</time>
      </trkpt>
      <trkpt lat="44.36811" lon="5.92204">
        <ele>579.8122559</ele>
        <time>2016-02-21T13:15:56Z</time>
      </trkpt>
      <trkpt lat="44.36818" lon="5.92209">
        <ele>582.2155762</ele>
        <time>2016-02-21T13:16:02Z</time>
      </trkpt>
      <trkpt lat="44.36824" lon="5.92216">
        <ele>582.2155762</ele>
        <time>2016-02-21T13:16:07Z</time>
      </trkpt>
      <trkpt lat="44.36831" lon="5.92218">
        <ele>583.6574707</ele>
        <time>2016-02-21T13:16:11Z</time>
      </trkpt>
      <trkpt lat="44.36847" lon="5.92228">
        <ele>581.7348633</ele>
        <time>2016-02-21T13:16:19Z</time>
      </trkpt>
      <trkpt lat="44.36872" lon="5.92245">
        <ele>579.8122559</ele>
        <time>2016-02-21T13:16:26Z</time>
      </trkpt>
      <trkpt lat="44.36876" lon="5.92247">
        <ele>578.8510742</ele>
        <time>2016-02-21T13:16:27Z</time>
      </trkpt>
      <trkpt lat="44.36889" lon="5.92255">
        <ele>581.7348633</ele>
        <time>2016-02-21T13:16:30Z</time>
      </trkpt>
      <trkpt lat="44.36903" lon="5.92265">
        <ele>583.1767578</ele>
        <time>2016-02-21T13:16:33Z</time>
      </trkpt>
      <trkpt lat="44.36919" lon="5.92275">
        <ele>582.2155762</ele>
        <time>2016-02-21T13:16:36Z</time>
      </trkpt>
      <trkpt lat="44.36961" lon="5.92311">
        <ele>579.8122559</ele>
        <time>2016-02-21T13:16:46Z</time>
      </trkpt>
      <trkpt lat="44.36972" lon="5.92322">
        <ele>576.9284668</ele>
        <time>2016-02-21T13:16:49Z</time>
      </trkpt>
      <trkpt lat="44.36979" lon="5.92329">
        <ele>575.0058594</ele>
        <time>2016-02-21T13:16:51Z</time>
      </trkpt>
      <trkpt lat="44.36982" lon="5.92332">
        <ele>578.8510742</ele>
        <time>2016-02-21T13:16:52Z</time>
      </trkpt>
      <trkpt lat="44.36985" lon="5.92334">
        <ele>578.3703613</ele>
        <time>2016-02-21T13:16:53Z</time>
      </trkpt>
      <trkpt lat="44.37046" lon="5.92387">
        <ele>577.4091797</ele>
        <time>2016-02-21T13:17:12Z</time>
      </trkpt>
      <trkpt lat="44.37094" lon="5.92429">
        <ele>576.4477539</ele>
        <time>2016-02-21T13:17:28Z</time>
      </trkpt>
      <trkpt lat="44.37163" lon="5.92488">
        <ele>575.4863281</ele>
        <time>2016-02-21T13:17:51Z</time>
      </trkpt>
      <trkpt lat="44.37203" lon="5.92522">
        <ele>574.5251465</ele>
        <time>2016-02-21T13:18:05Z</time>
      </trkpt>
      <trkpt lat="44.37239" lon="5.92558">
        <ele>575.967041</ele>
        <time>2016-02-21T13:18:19Z</time>
      </trkpt>
      <trkpt lat="44.3728" lon="5.92595">
        <ele>576.9284668</ele>
        <time>2016-02-21T13:18:36Z</time>
      </trkpt>
      <trkpt lat="44.37309" lon="5.92621">
        <ele>578.3703613</ele>
        <time>2016-02-21T13:18:49Z</time>
      </trkpt>
      <trkpt lat="44.37351" lon="5.92656">
        <ele>577.8896484</ele>
        <time>2016-02-21T13:19:08Z</time>
      </trkpt>
      <trkpt lat="44.37387" lon="5.92683">
        <ele>578.8510742</ele>
        <time>2016-02-21T13:19:22Z</time>
      </trkpt>
      <trkpt lat="44.37429" lon="5.92712">
        <ele>578.3703613</ele>
        <time>2016-02-21T13:19:37Z</time>
      </trkpt>
      <trkpt lat="44.37473" lon="5.9274">
        <ele>577.8896484</ele>
        <time>2016-02-21T13:19:53Z</time>
      </trkpt>
      <trkpt lat="44.37515" lon="5.92772">
        <ele>578.3703613</ele>
        <time>2016-02-21T13:20:07Z</time>
      </trkpt>
      <trkpt lat="44.37524" lon="5.92779">
        <ele>579.8122559</ele>
        <time>2016-02-21T13:20:10Z</time>
      </trkpt>
      <trkpt lat="44.3753" lon="5.92783">
        <ele>578.3703613</ele>
        <time>2016-02-21T13:20:12Z</time>
      </trkpt>
      <trkpt lat="44.37592" lon="5.92825">
        <ele>576.9284668</ele>
        <time>2016-02-21T13:20:31Z</time>
      </trkpt>
      <trkpt lat="44.37643" lon="5.9286">
        <ele>576.4477539</ele>
        <time>2016-02-21T13:20:47Z</time>
      </trkpt>
      <trkpt lat="44.37716" lon="5.9291">
        <ele>575.967041</ele>
        <time>2016-02-21T13:21:08Z</time>
      </trkpt>
      <trkpt lat="44.37739" lon="5.92927">
        <ele>575.4863281</ele>
        <time>2016-02-21T13:21:14Z</time>
      </trkpt>
      <trkpt lat="44.3782" lon="5.92985">
        <ele>575.4863281</ele>
        <time>2016-02-21T13:21:33Z</time>
      </trkpt>
      <trkpt lat="44.3787" lon="5.9302">
        <ele>575.4863281</ele>
        <time>2016-02-21T13:21:45Z</time>
      </trkpt>
      <trkpt lat="44.37877" lon="5.93026">
        <ele>575.0058594</ele>
        <time>2016-02-21T13:21:47Z</time>
      </trkpt>
      <trkpt lat="44.37928" lon="5.93061">
        <ele>575.967041</ele>
        <time>2016-02-21T13:22:01Z</time>
      </trkpt>
      <trkpt lat="44.37939" lon="5.93069">
        <ele>575.4863281</ele>
        <time>2016-02-21T13:22:04Z</time>
      </trkpt>
      <trkpt lat="44.37993" lon="5.93108">
        <ele>576.4477539</ele>
        <time>2016-02-21T13:22:19Z</time>
      </trkpt>
      <trkpt lat="44.38062" lon="5.9316">
        <ele>576.9284668</ele>
        <time>2016-02-21T13:22:38Z</time>
      </trkpt>
      <trkpt lat="44.38081" lon="5.93173">
        <ele>575.967041</ele>
        <time>2016-02-21T13:22:49Z</time>
      </trkpt>
      <trkpt lat="44.38082" lon="5.93173">
        <ele>575.967041</ele>
        <time>2016-02-21T13:23:02Z</time>
      </trkpt>
      <trkpt lat="44.38082" lon="5.93173">
        <ele>574.5251465</ele>
        <time>2016-02-21T13:23:04Z</time>
      </trkpt>
      <trkpt lat="44.38083" lon="5.93173">
        <ele>574.5251465</ele>
        <time>2016-02-21T13:23:39Z</time>
      </trkpt>
      <trkpt lat="44.38086" lon="5.93174">
        <ele>575.967041</ele>
        <time>2016-02-21T13:23:41Z</time>
      </trkpt>
      <trkpt lat="44.38089" lon="5.93177">
        <ele>574.5251465</ele>
        <time>2016-02-21T13:23:43Z</time>
      </trkpt>
      <trkpt lat="44.38128" lon="5.93203">
        <ele>575.967041</ele>
        <time>2016-02-21T13:23:57Z</time>
      </trkpt>
      <trkpt lat="44.3819" lon="5.9325">
        <ele>577.8896484</ele>
        <time>2016-02-21T13:24:19Z</time>
      </trkpt>
      <trkpt lat="44.38224" lon="5.93273">
        <ele>576.9284668</ele>
        <time>2016-02-21T13:24:30Z</time>
      </trkpt>
      <trkpt lat="44.38227" lon="5.93274">
        <ele>575.967041</ele>
        <time>2016-02-21T13:24:31Z</time>
      </trkpt>
      <trkpt lat="44.38229" lon="5.9327">
        <ele>575.967041</ele>
        <time>2016-02-21T13:24:42Z</time>
      </trkpt>
      <trkpt lat="44.38204" lon="5.9325">
        <ele>575.0058594</ele>
        <time>2016-02-21T13:24:51Z</time>
      </trkpt>
      <trkpt lat="44.38141" lon="5.93205">
        <ele>574.5251465</ele>
        <time>2016-02-21T13:25:04Z</time>
      </trkpt>
      <trkpt lat="44.38129" lon="5.93197">
        <ele>576.4477539</ele>
        <time>2016-02-21T13:25:06Z</time>
      </trkpt>
      <trkpt lat="44.38052" lon="5.9314">
        <ele>574.5251465</ele>
        <time>2016-02-21T13:25:18Z</time>
      </trkpt>
      <trkpt lat="44.37913" lon="5.9304">
        <ele>573.5639648</ele>
        <time>2016-02-21T13:25:38Z</time>
      </trkpt>
      <trkpt lat="44.37796" lon="5.92957">
        <ele>572.1218262</ele>
        <time>2016-02-21T13:25:55Z</time>
      </trkpt>
      <trkpt lat="44.37686" lon="5.92885">
        <ele>573.083252</ele>
        <time>2016-02-21T13:26:12Z</time>
      </trkpt>
      <trkpt lat="44.37545" lon="5.92787">
        <ele>572.6025391</ele>
        <time>2016-02-21T13:26:35Z</time>
      </trkpt>
      <trkpt lat="44.37429" lon="5.92708">
        <ele>573.5639648</ele>
        <time>2016-02-21T13:26:54Z</time>
      </trkpt>
      <trkpt lat="44.37345" lon="5.92646">
        <ele>574.5251465</ele>
        <time>2016-02-21T13:27:09Z</time>
      </trkpt>
      <trkpt lat="44.37319" lon="5.92624">
        <ele>573.083252</ele>
        <time>2016-02-21T13:27:17Z</time>
      </trkpt>
      <trkpt lat="44.37323" lon="5.92631">
        <ele>572.6025391</ele>
        <time>2016-02-21T13:27:41Z</time>
      </trkpt>
      <trkpt lat="44.37323" lon="5.92631">
        <ele>573.083252</ele>
        <time>2016-02-21T13:27:43Z</time>
      </trkpt>
      <trkpt lat="44.37328" lon="5.92636">
        <ele>572.6025391</ele>
        <time>2016-02-21T13:27:47Z</time>
      </trkpt>
      <trkpt lat="44.37335" lon="5.92641">
        <ele>574.0444336</ele>
        <time>2016-02-21T13:27:51Z</time>
      </trkpt>
      <trkpt lat="44.37366" lon="5.92663">
        <ele>574.0444336</ele>
        <time>2016-02-21T13:28:04Z</time>
      </trkpt>
      <trkpt lat="44.37415" lon="5.92699">
        <ele>575.0058594</ele>
        <time>2016-02-21T13:28:21Z</time>
      </trkpt>
      <trkpt lat="44.3747" lon="5.92736">
        <ele>574.5251465</ele>
        <time>2016-02-21T13:28:39Z</time>
      </trkpt>
      <trkpt lat="44.37533" lon="5.92776">
        <ele>574.5251465</ele>
        <time>2016-02-21T13:29:00Z</time>
      </trkpt>
      <trkpt lat="44.37577" lon="5.92807">
        <ele>573.5639648</ele>
        <time>2016-02-21T13:29:15Z</time>
      </trkpt>
      <trkpt lat="44.37654" lon="5.9286">
        <ele>572.6025391</ele>
        <time>2016-02-21T13:29:40Z</time>
      </trkpt>
      <trkpt lat="44.37715" lon="5.92898">
        <ele>572.1218262</ele>
        <time>2016-02-21T13:29:59Z</time>
      </trkpt>
      <trkpt lat="44.37765" lon="5.92934">
        <ele>571.6408691</ele>
        <time>2016-02-21T13:30:15Z</time>
      </trkpt>
      <trkpt lat="44.37812" lon="5.92964">
        <ele>571.1604004</ele>
        <time>2016-02-21T13:30:30Z</time>
      </trkpt>
      <trkpt lat="44.37826" lon="5.92976">
        <ele>571.1604004</ele>
        <time>2016-02-21T13:30:35Z</time>
      </trkpt>
      <trkpt lat="44.37873" lon="5.93009">
        <ele>571.1604004</ele>
        <time>2016-02-21T13:30:51Z</time>
      </trkpt>
      <trkpt lat="44.37922" lon="5.93041">
        <ele>571.1604004</ele>
        <time>2016-02-21T13:31:07Z</time>
      </trkpt>
      <trkpt lat="44.37967" lon="5.93074">
        <ele>570.6796875</ele>
        <time>2016-02-21T13:31:23Z</time>
      </trkpt>
      <trkpt lat="44.38008" lon="5.93105">
        <ele>571.1604004</ele>
        <time>2016-02-21T13:31:38Z</time>
      </trkpt>
      <trkpt lat="44.3806" lon="5.93148">
        <ele>572.1218262</ele>
        <time>2016-02-21T13:31:57Z</time>
      </trkpt>
      <trkpt lat="44.38115" lon="5.93182">
        <ele>572.6025391</ele>
        <time>2016-02-21T13:32:16Z</time>
      </trkpt>
      <trkpt lat="44.38162" lon="5.93216">
        <ele>572.6025391</ele>
        <time>2016-02-21T13:32:33Z</time>
      </trkpt>
      <trkpt lat="44.38203" lon="5.93245">
        <ele>573.5639648</ele>
        <time>2016-02-21T13:32:48Z</time>
      </trkpt>
      <trkpt lat="44.38246" lon="5.93272">
        <ele>573.5639648</ele>
        <time>2016-02-21T13:33:01Z</time>
      </trkpt>
      <trkpt lat="44.38264" lon="5.93286">
        <ele>572.6025391</ele>
        <time>2016-02-21T13:33:07Z</time>
      </trkpt>
      <trkpt lat="44.38306" lon="5.93316">
        <ele>572.1218262</ele>
        <time>2016-02-21T13:33:20Z</time>
      </trkpt>
      <trkpt lat="44.38333" lon="5.93333">
        <ele>570.6796875</ele>
        <time>2016-02-21T13:33:27Z</time>
      </trkpt>
      <trkpt lat="44.38341" lon="5.93338">
        <ele>572.1218262</ele>
        <time>2016-02-21T13:33:29Z</time>
      </trkpt>
      <trkpt lat="44.38345" lon="5.93341">
        <ele>569.7185059</ele>
        <time>2016-02-21T13:33:30Z</time>
      </trkpt>
      <trkpt lat="44.38365" lon="5.93354">
        <ele>571.6408691</ele>
        <time>2016-02-21T13:33:36Z</time>
      </trkpt>
      <trkpt lat="44.38413" lon="5.93388">
        <ele>570.6796875</ele>
        <time>2016-02-21T13:33:51Z</time>
      </trkpt>
      <trkpt lat="44.38452" lon="5.93415">
        <ele>571.1604004</ele>
        <time>2016-02-21T13:34:04Z</time>
      </trkpt>
      <trkpt lat="44.38494" lon="5.93442">
        <ele>571.1604004</ele>
        <time>2016-02-21T13:34:17Z</time>
      </trkpt>
      <trkpt lat="44.38558" lon="5.93489">
        <ele>572.1218262</ele>
        <time>2016-02-21T13:34:38Z</time>
      </trkpt>
      <trkpt lat="44.38596" lon="5.93516">
        <ele>573.083252</ele>
        <time>2016-02-21T13:34:52Z</time>
      </trkpt>
      <trkpt lat="44.38624" lon="5.9354">
        <ele>574.0444336</ele>
        <time>2016-02-21T13:35:06Z</time>
      </trkpt>
      <trkpt lat="44.38664" lon="5.93566">
        <ele>576.9284668</ele>
        <time>2016-02-21T13:35:23Z</time>
      </trkpt>
      <trkpt lat="44.38672" lon="5.93572">
        <ele>577.4091797</ele>
        <time>2016-02-21T13:35:27Z</time>
      </trkpt>
      <trkpt lat="44.38702" lon="5.93594">
        <ele>577.4091797</ele>
        <time>2016-02-21T13:35:41Z</time>
      </trkpt>
      <trkpt lat="44.38706" lon="5.936">
        <ele>579.331543</ele>
        <time>2016-02-21T13:35:43Z</time>
      </trkpt>
      <trkpt lat="44.38706" lon="5.93609">
        <ele>577.4091797</ele>
        <time>2016-02-21T13:35:45Z</time>
      </trkpt>
      <trkpt lat="44.387" lon="5.93705">
        <ele>575.0058594</ele>
        <time>2016-02-21T13:36:05Z</time>
      </trkpt>
      <trkpt lat="44.38698" lon="5.93749">
        <ele>574.0444336</ele>
        <time>2016-02-21T13:36:13Z</time>
      </trkpt>
      <trkpt lat="44.38698" lon="5.93756">
        <ele>574.0444336</ele>
        <time>2016-02-21T13:36:14Z</time>
      </trkpt>
      <trkpt lat="44.38695" lon="5.93825">
        <ele>573.083252</ele>
        <time>2016-02-21T13:36:23Z</time>
      </trkpt>
      <trkpt lat="44.38693" lon="5.93854">
        <ele>573.5639648</ele>
        <time>2016-02-21T13:36:26Z</time>
      </trkpt>
      <trkpt lat="44.38683" lon="5.93897">
        <ele>570.1989746</ele>
        <time>2016-02-21T13:36:31Z</time>
      </trkpt>
      <trkpt lat="44.38662" lon="5.9391">
        <ele>568.2763672</ele>
        <time>2016-02-21T13:36:34Z</time>
      </trkpt>
      <trkpt lat="44.38651" lon="5.93912">
        <ele>567.7956543</ele>
        <time>2016-02-21T13:36:35Z</time>
      </trkpt>
      <trkpt lat="44.38632" lon="5.93915">
        <ele>566.8344727</ele>
        <time>2016-02-21T13:36:37Z</time>
      </trkpt>
      <trkpt lat="44.38593" lon="5.9392">
        <ele>564.9118652</ele>
        <time>2016-02-21T13:36:41Z</time>
      </trkpt>
      <trkpt lat="44.38565" lon="5.93924">
        <ele>562.0280762</ele>
        <time>2016-02-21T13:36:44Z</time>
      </trkpt>
      <trkpt lat="44.38547" lon="5.93928">
        <ele>560.1052246</ele>
        <time>2016-02-21T13:36:46Z</time>
      </trkpt>
      <trkpt lat="44.38531" lon="5.93931">
        <ele>558.6633301</ele>
        <time>2016-02-21T13:36:48Z</time>
      </trkpt>
      <trkpt lat="44.38524" lon="5.93932">
        <ele>557.2214355</ele>
        <time>2016-02-21T13:36:49Z</time>
      </trkpt>
      <trkpt lat="44.38511" lon="5.93938">
        <ele>556.2600098</ele>
        <time>2016-02-21T13:36:51Z</time>
      </trkpt>
      <trkpt lat="44.38498" lon="5.93981">
        <ele>556.2600098</ele>
        <time>2016-02-21T13:36:56Z</time>
      </trkpt>
      <trkpt lat="44.38502" lon="5.94066">
        <ele>555.7792969</ele>
        <time>2016-02-21T13:37:09Z</time>
      </trkpt>
      <trkpt lat="44.38496" lon="5.94131">
        <ele>556.2600098</ele>
        <time>2016-02-21T13:37:23Z</time>
      </trkpt>
      <trkpt lat="44.38485" lon="5.94187">
        <ele>557.7021484</ele>
        <time>2016-02-21T13:37:37Z</time>
      </trkpt>
      <trkpt lat="44.3849" lon="5.94202">
        <ele>557.2214355</ele>
        <time>2016-02-21T13:37:42Z</time>
      </trkpt>
      <trkpt lat="44.3849" lon="5.94221">
        <ele>556.7407227</ele>
        <time>2016-02-21T13:37:47Z</time>
      </trkpt>
      <trkpt lat="44.38497" lon="5.94239">
        <ele>556.7407227</ele>
        <time>2016-02-21T13:37:51Z</time>
      </trkpt>
      <trkpt lat="44.38518" lon="5.94236">
        <ele>557.2214355</ele>
        <time>2016-02-21T13:38:00Z</time>
      </trkpt>
      <trkpt lat="44.38522" lon="5.94224">
        <ele>557.2214355</ele>
        <time>2016-02-21T13:38:11Z</time>
      </trkpt>
      <trkpt lat="44.38522" lon="5.94224">
        <ele>556.2600098</ele>
        <time>2016-02-21T13:38:19Z</time>
      </trkpt>
    </trkseg>
  </trk>
</gpx>